UnionvilleWeather Station
Hourly Leaf Wetness Data

Source: University of Missouri

To the bottom of the page

Year Month Day Hour Leaf Wetness Total
Precipitation
Avg. Temp Avg. Rel.
Humidity
Wind
Speed
CST mV in mm F C % mph
2017 11 22 1:00 271.1 0.0 0.00 22.7 -5.2 62.72 4.9
2017 11 22 2:00 271.1 0.0 0.00 21.8 -5.7 64.98 4.2
2017 11 22 3:00 271.5 0.0 0.00 20.8 -6.2 67.77 4.1
2017 11 22 4:00 272.1 0.0 0.00 18.9 -7.3 74.47 2.4
2017 11 22 5:00 272.2 0.0 0.00 18.9 -7.3 73.55 2.7
2017 11 22 6:00 272.4 0.0 0.00 18.2 -7.7 73.76 2.6
2017 11 22 7:00 272.9 0.0 0.00 17.2 -8.2 77.64 0.6
2017 11 22 8:00 272.8 0.0 0.00 16.1 -8.8 82.8 1.0
2017 11 22 9:00 270.3 0.0 0.00 21.7 -5.7 69.17 0.5
2017 11 22 10:00 269.4 0.0 0.00 24.7 -4.1 61.88 1.7
2017 11 22 11:00 269.3 0.0 0.00 27.8 -2.3 56.42 4.6
2017 11 22 12:00 268.9 0.0 0.00 31.5 -0.3 47.89 4.8
2017 11 22 13:00 268.8 0.0 0.00 35.2 1.8 39 5.7
2017 11 22 14:00 268.7 0.0 0.00 37.1 2.8 33.35 5.9
2017 11 22 15:00 268.5 0.0 0.00 38.0 3.3 30.58 6.5
2017 11 22 16:00 268.5 0.0 0.00 37.2 2.9 29.69 6.2
2017 11 22 17:00 269.0 0.0 0.00 35.4 1.9 35.49 4.4
2017 11 22 18:00 269.4 0.0 0.00 33.7 0.9 41.72 3.1
2017 11 22 19:00 269.6 0.0 0.00 32.8 0.4 46.28 4.4
2017 11 22 20:00 269.6 0.0 0.00 32.9 0.5 46.95 6.3
2017 11 22 21:00 269.9 0.0 0.00 31.6 -0.2 50.24 5.5
2017 11 22 22:00 270.3 0.0 0.00 30.3 -1.0 53.96 5.7
2017 11 22 23:00 270.3 0.0 0.00 31.1 -0.5 52.94 7.5
2017 11 22 24:00 269.9 0.0 0.00 32.6 0.3 51.53 7.8
2017 11 23 1:00 269.6 0.0 0.00 34.4 1.3 49.49 8.8
2017 11 23 2:00 269.6 0.0 0.00 35.4 1.9 48.13 8.5
2017 11 23 3:00 269.9 0.0 0.00 34.3 1.3 51.45 9.0
2017 11 23 4:00 270.3 0.0 0.00 33.6 0.9 53.87 8.3
2017 11 23 5:00 270.3 0.0 0.00 32.6 0.3 57.22 7.9
2017 11 23 6:00 270.3 0.0 0.00 31.7 -0.1 60.48 7.4
2017 11 23 7:00 270.7 0.0 0.00 30.9 -0.6 63.59 6.9
2017 11 23 8:00 270.5 0.0 0.00 31.3 -0.4 64.14 6.9
2017 11 23 9:00 269.8 0.0 0.00 33.7 1.0 61.26 7.5
2017 11 23 10:00 269.5 0.0 0.00 37.9 3.3 56.91 8.4
2017 11 23 11:00 269.3 0.0 0.00 42.1 5.6 53.81 7.4
2017 11 23 12:00 268.7 0.0 0.00 47.0 8.3 49.18 5.6
2017 11 23 13:00 268.6 0.0 0.00 51.0 10.5 46.02 6.7
2017 11 23 14:00 268.6 0.0 0.00 53.2 11.8 44.19 5.5
2017 11 23 15:00 268.8 0.0 0.00 54.6 12.6 43.2 5.4
2017 11 23 16:00 268.6 0.0 0.00 55.4 13.0 42.19 2.5
2017 11 23 17:00 269.4 0.0 0.00 53.3 11.8 44.87 1.2
2017 11 23 18:00 270.0 0.0 0.00 49.4 9.7 50.69 1.3
2017 11 23 19:00 270.5 0.0 0.00 46.1 7.9 57.64 1.7
2017 11 23 20:00 270.8 0.0 0.00 44.0 6.7 62.31 3.6
2017 11 23 21:00 270.8 0.0 0.00 42.9 6.1 65.13 3.6
2017 11 23 22:00 270.9 0.0 0.00 43.0 6.1 67.21 5.4
2017 11 23 23:00 270.9 0.0 0.00 42.7 6.0 69.52 4.8
2017 11 23 24:00 270.8 0.0 0.00 45.2 7.3 65.37 5.0
2017 11 24 1:00 270.8 0.0 0.00 46.7 8.2 62.66 5.8
2017 11 24 2:00 270.5 0.0 0.00 48.4 9.1 59.65 7.0
2017 11 24 3:00 270.4 0.0 0.00 48.3 9.0 59.8 6.3
2017 11 24 4:00 270.9 0.0 0.00 44.6 7.0 67.44 4.5
2017 11 24 5:00 270.8 0.0 0.00 44.4 6.9 67.02 6.0
2017 11 24 6:00 270.8 0.0 0.00 44.4 6.9 66.01 7.4
2017 11 24 7:00 271.0 0.0 0.00 43.2 6.2 67.9 7.0
2017 11 24 8:00 270.6 0.0 0.00 45.0 7.2 63.4 10.3
2017 11 24 9:00 269.8 0.0 0.00 49.7 9.8 55.15 12.1
2017 11 24 10:00 268.8 0.0 0.00 56.8 13.8 43.75 14.3
2017 11 24 11:00 268.4 0.0 0.00 60.4 15.8 40.15 14.9
2017 11 24 12:00 267.9 0.0 0.00 64.6 18.1 36.53 14.2
2017 11 24 13:00 267.8 0.0 0.00 66.6 19.2 34.39 16.0
2017 11 24 14:00 267.4 0.0 0.00 68.9 20.5 32.41 15.0
2017 11 24 15:00 267.1 0.0 0.00 71.1 21.7 30.34 13.9
2017 11 24 16:00 267.4 0.0 0.00 69.2 20.7 33.22 12.2
2017 11 24 17:00 268.2 0.0 0.00 64.6 18.1 40.72 6.2
2017 11 24 18:00 268.6 0.0 0.00 61.3 16.3 46.59 10.4
2017 11 24 19:00 269.4 0.0 0.00 56.9 13.9 54.42 5.7
2017 11 24 20:00 269.7 0.0 0.00 55.6 13.1 56.02 8.8
2017 11 24 21:00 269.9 0.0 0.00 53.2 11.8 58.95 6.2
2017 11 24 22:00 270.6 0.0 0.00 50.5 10.3 64.52 7.2
2017 11 24 23:00 270.2 0.0 0.00 50.6 10.3 61.85 8.3
2017 11 24 24:00 270.2 0.0 0.00 48.0 8.9 60.48 6.8
2017 11 25 1:00 270.9 0.0 0.00 44.7 7.0 71.89 7.8
2017 11 25 2:00 271.5 0.0 0.00 42.5 5.8 75.12 6.5
2017 11 25 3:00 271.8 0.0 0.00 40.4 4.7 77.4 6.5
2017 11 25 4:00 272.7 0.0 0.00 39.1 3.9 79.88 5.5
2017 11 25 5:00 272.7 0.0 0.00 38.2 3.4 80.8 6.3
2017 11 25 6:00 272.8 0.0 0.00 37.7 3.2 81.8 7.4
2017 11 25 7:00 272.9 0.0 0.00 37.4 3.0 81.7 7.1
2017 11 25 8:00 272.4 0.0 0.00 36.8 2.6 81.8 6.8
2017 11 25 9:00 271.3 0.0 0.00 40.0 4.4 74.99 7.7
2017 11 25 10:00 270.2 0.0 0.00 45.6 7.5 63.17 5.3
2017 11 25 11:00 269.3 0.0 0.00 49.9 9.9 52.74 4.3
2017 11 25 12:00 268.6 0.0 0.00 53.4 11.9 43.7 5.5
2017 11 25 13:00 268.6 0.0 0.00 55.9 13.3 40.14 6.8
2017 11 25 14:00 268.6 0.0 0.00 57.1 14.0 37.81 7.5
2017 11 25 15:00 268.6 0.0 0.00 57.6 14.2 36.13 8.3
2017 11 25 16:00 268.6 0.0 0.00 57.2 14.0 36.16 7.3
2017 11 25 17:00 268.9 0.0 0.00 54.4 12.4 39.17 5.0
2017 11 25 18:00 269.3 0.0 0.00 51.5 10.8 42.2 2.6
2017 11 25 19:00 269.4 0.0 0.00 49.5 9.7 44.31 3.0
2017 11 25 20:00 269.9 0.0 0.00 47.3 8.5 47.9 3.1
2017 11 25 21:00 270.1 0.0 0.00 46.4 8.0 50.4 4.0
2017 11 25 22:00 270.4 0.0 0.00 43.7 6.5 57.66 1.4
2017 11 25 23:00 271.0 0.0 0.00 40.8 4.9 65.88 0.4
2017 11 25 24:00 272.5 0.0 0.00 39.1 4.0 71.11 0.0
2017 11 26 1:00 273.4 0.0 0.00 36.5 2.5 77.44 0.0
2017 11 26 2:00 273.1 0.0 0.00 37.2 2.9 76.05 0.4
2017 11 26 3:00 274.5 0.0 0.00 36.3 2.4 78.93 0.0
2017 11 26 4:00 274.8 0.0 0.00 37.0 2.8 77.07 0.9
2017 11 26 5:00 274.7 0.0 0.00 36.1 2.3 78.46 2.2
2017 11 26 6:00 275.5 0.0 0.00 33.8 1.0 82.3 0.5
2017 11 26 7:00 275.8 0.0 0.00 32.6 0.3 84.3 3.2
2017 11 26 8:00 272.7 0.0 0.00 34.6 1.5 81 4.6
2017 11 26 9:00 271.2 0.0 0.00 39.1 4.0 77.34 5.8
2017 11 26 10:00 270.1 0.0 0.00 46.0 7.8 62.42 7.7
2017 11 26 11:00 269.3 0.0 0.00 51.4 10.8 50.41 7.4
2017 11 26 12:00 269.1 0.0 0.00 53.0 11.7 49.48 7.5
2017 11 26 13:00 268.7 0.0 0.00 55.7 13.2 46.63 9.1
2017 11 26 14:00 268.6 0.0 0.00 57.7 14.3 42.37 8.1
2017 11 26 15:00 268.3 0.0 0.00 58.5 14.7 39.07 8.4
2017 11 26 16:00 268.6 0.0 0.00 56.9 13.8 42.63 7.5
2017 11 26 17:00 269.0 0.0 0.00 54.8 12.7 46.38 5.4
2017 11 26 18:00 269.5 0.0 0.00 51.3 10.7 50.56 4.2
2017 11 26 19:00 270.5 0.0 0.00 46.8 8.2 58.53 3.4
2017 11 26 20:00 270.6 0.0 0.00 46.1 7.9 59.62 4.0
2017 11 26 21:00 270.7 0.0 0.00 45.9 7.7 59.1 4.4
2017 11 26 22:00 270.7 0.0 0.00 45.6 7.6 59.32 4.2
2017 11 26 23:00 270.8 0.0 0.00 44.9 7.2 59.28 3.9
2017 11 26 24:00 270.8 0.0 0.00 43.6 6.5 61.25 3.8
2017 11 27 1:00 270.9 0.0 0.00 44.1 6.7 59.44 4.2
2017 11 27 2:00 270.9 0.0 0.00 42.4 5.8 63.04 3.8
2017 11 27 3:00 271.0 0.0 0.00 40.8 4.9 66.22 4.2
2017 11 27 4:00 271.5 0.0 0.00 39.7 4.3 68.48 4.2
2017 11 27 5:00 271.5 0.0 0.00 39.2 4.0 69.59 5.2
2017 11 27 6:00 271.5 0.0 0.00 37.7 3.2 72.95 4.5
2017 11 27 7:00 271.5 0.0 0.00 37.9 3.3 73.31 4.7
2017 11 27 8:00 271.2 0.0 0.00 38.8 3.8 72.25 5.0
2017 11 27 9:00 270.3 0.0 0.00 43.7 6.5 65.82 7.3
2017 11 27 10:00 269.5 0.0 0.00 49.8 9.9 57.08 8.9
2017 11 27 11:00 269.2 0.0 0.00 53.3 11.8 53.43 9.2
2017 11 27 12:00 268.7 0.0 0.00 56.9 13.8 50.48 11.1
2017 11 27 13:00 269.0 0.0 0.00 59.1 15.1 50.6 10.7
2017 11 27 14:00 269.2 0.0 0.00 61.6 16.4 49.55 12.7
2017 11 27 15:00 269.2 0.0 0.00 62.2 16.8 48.39 12.8
2017 11 27 16:00 269.2 0.0 0.00 61.8 16.6 50.8 13.5
2017 11 27 17:00 269.5 0.0 0.00 61.4 16.3 54.18 14.7
2017 11 27 18:00 270.0 0.0 0.00 59.9 15.5 57.21 12.5
2017 11 27 19:00 270.0 0.0 0.00 59.0 15.0 57.93 12.3
2017 11 27 20:00 270.0 0.0 0.00 57.8 14.4 60.44 11.3
2017 11 27 21:00 270.4 0.0 0.00 56.7 13.7 63.13 11.3
2017 11 27 22:00 270.7 0.0 0.00 55.7 13.2 65.7 11.0
2017 11 27 23:00 270.7 0.0 0.00 56.7 13.7 63.78 12.6
2017 11 27 24:00 270.7 0.0 0.00 56.6 13.6 63.77 12.3
2017 11 28 1:00 270.6 0.0 0.00 56.6 13.6 61.99 14.5
2017 11 28 2:00 270.5 0.0 0.00 55.0 12.8 60.96 11.8
2017 11 28 3:00 270.3 0.0 0.00 53.8 12.1 59.75 8.8
2017 11 28 4:00 270.6 0.0 0.00 51.9 11.1 61.43 7.7
2017 11 28 5:00 270.7 0.0 0.00 50.8 10.4 61.99 8.6
2017 11 28 6:00 270.8 0.0 0.00 49.3 9.6 63.61 7.3
2017 11 28 7:00 270.8 0.0 0.00 47.7 8.7 66.23 5.3
2017 11 28 8:00 271.0 0.0 0.00 47.0 8.3 68.35 5.8
2017 11 28 9:00 270.1 0.0 0.00 52.2 11.2 57.51 9.0
2017 11 28 10:00 269.6 0.0 0.00 55.1 12.8 53.19 9.2
2017 11 28 11:00 269.4 0.0 0.00 56.1 13.4 53.37 7.3
2017 11 28 12:00 269.3 0.0 0.00 56.9 13.8 55.18 7.7
2017 11 28 13:00 269.6 0.0 0.00 57.0 13.9 58.98 8.5
2017 11 28 14:00 270.2 0.0 0.00 55.1 12.9 67.92 7.7
2017 11 28 15:00 269.4 0.0 0.00 56.3 13.5 52.32 6.1
2017 11 28 16:00 269.3 0.0 0.00 55.8 13.2 44.9 7.0
2017 11 28 17:00 269.3 0.0 0.00 52.9 11.6 43.19 4.7
2017 11 28 18:00 269.4 0.0 0.00 49.4 9.6 42.14 4.4
2017 11 28 19:00 269.4 0.0 0.00 46.9 8.3 42.48 3.4
2017 11 28 20:00 269.9 0.0 0.00 44.2 6.8 49.45 3.2
2017 11 28 21:00 270.2 0.0 0.00 42.7 5.9 52.19 2.5
2017 11 28 22:00 270.2 0.0 0.00 41.4 5.2 53.17 2.3
2017 11 28 23:00 270.2 0.0 0.00 40.8 4.9 52.98 3.4
2017 11 28 24:00 270.2 0.0 0.00 40.1 4.5 49.86 4.0
2017 11 29 1:00 270.4 0.0 0.00 37.3 3.0 52.63 3.0
2017 11 29 2:00 270.3 0.0 0.00 35.9 2.2 52.73 3.3
2017 11 29 3:00 270.3 0.0 0.00 35.6 2.0 49.52 2.4
2017 11 29 4:00 270.3 0.0 0.00 35.0 1.7 48.59 3.1
2017 11 29 5:00 271.1 0.0 0.00 31.2 -0.5 60.12 2.9
2017 11 29 6:00 270.3 0.0 0.00 32.9 0.5 53.33 5.1
2017 11 29 7:00 270.6 0.0 0.00 32.3 0.1 57.05 2.5
2017 11 29 8:00 270.9 0.0 0.00 31.0 -0.6 58.33 4.2
2017 11 29 9:00 269.8 0.0 0.00 33.1 0.6 56.24 4.8
2017 11 29 10:00 269.2 0.0 0.00 37.7 3.2 46.98 8.2
2017 11 29 11:00 268.8 0.0 0.00 39.4 4.1 43.75 8.4
2017 11 29 12:00 268.9 0.0 0.00 40.2 4.6 42.83 6.9
2017 11 29 13:00 268.8 0.0 0.00 40.5 4.7 42.42 9.3
2017 11 29 14:00 268.7 0.0 0.00 42.1 5.6 41.57 10.2
2017 11 29 15:00 268.7 0.0 0.00 43.1 6.2 39.43 6.2
2017 11 29 16:00 268.7 0.0 0.00 43.4 6.3 39.55 6.8
2017 11 29 17:00 269.2 0.0 0.00 41.3 5.1 44.32 4.4
2017 11 29 18:00 269.6 0.0 0.00 39.6 4.2 45.84 0.4
2017 11 29 19:00 270.2 0.0 0.00 37.1 2.8 52.61 0.6
2017 11 29 20:00 270.1 0.0 0.00 38.1 3.4 52.92 1.6
2017 11 29 21:00 269.5 0.0 0.00 40.2 4.6 53.07 3.0
2017 11 29 22:00 269.5 0.0 0.00 41.0 5.0 53.51 1.6
2017 11 29 23:00 269.5 0.0 0.00 41.2 5.1 53.24 2.2
2017 11 29 24:00 269.5 0.0 0.00 42.1 5.6 50.56 3.2
2017 11 30 1:00 269.8 0.0 0.00 41.3 5.2 50.66 4.3
2017 11 30 2:00 270.2 0.0 0.00 39.9 4.4 52.96 4.9
2017 11 30 3:00 270.1 0.0 0.00 40.3 4.6 51.71 7.5
2017 11 30 4:00 269.8 0.0 0.00 41.4 5.2 50.68 10.3
2017 11 30 5:00 270.1 0.0 0.00 41.4 5.2 52.85 9.4
2017 11 30 6:00 270.3 0.0 0.00 37.3 2.9 60.77 6.4
2017 11 30 7:00 270.9 0.0 0.00 35.4 1.9 65.55 7.8
2017 11 30 8:00 270.8 0.0 0.00 34.8 1.5 70.8 6.9
2017 11 30 9:00 270.2 0.0 0.00 38.2 3.4 66.3 8.5
2017 11 30 10:00 269.5 0.0 0.00 43.5 6.4 54.45 10.7
2017 11 30 11:00 269.4 0.0 0.00 45.7 7.6 49.33 10.5
2017 11 30 12:00 269.0 0.0 0.00 48.2 9.0 45.5 9.8
2017 11 30 13:00 268.0 0.0 0.00 51.5 10.8 34.37 10.4
2017 11 30 14:00 267.9 0.0 0.00 51.6 10.9 32.95 9.7
2017 11 30 15:00 268.5 0.0 0.00 51.3 10.7 35.09 9.1
2017 11 30 16:00 268.0 0.0 0.00 51.5 10.8 31.86 9.2
2017 11 30 17:00 268.4 0.0 0.00 49.0 9.5 33.11 5.4
2017 11 30 18:00 268.8 0.0 0.00 46.5 8.1 35.52 3.5
2017 11 30 19:00 269.4 0.0 0.00 44.4 6.9 37.78 1.4
2017 11 30 20:00 269.4 0.0 0.00 43.9 6.6 38.09 3.6
2017 11 30 21:00 269.6 0.0 0.00 41.4 5.2 42.67 4.1
2017 11 30 22:00 270.1 0.0 0.00 39.8 4.4 45.14 3.6
2017 11 30 23:00 270.5 0.0 0.00 35.8 2.1 53.93 1.3
2017 11 30 24:00 270.8 0.0 0.00 34.6 1.4 56.18 0.3
2017 12 01 1:00 270.9 0.0 0.00 34.0 1.1 57.99 1.6
2017 12 01 2:00 271.3 0.0 0.00 34.0 1.1 59.19 1.0
2017 12 01 3:00 271.8 0.0 0.00 32.1 0.1 64.12 0.8
2017 12 01 4:00 272.2 0.0 0.00 30.9 -0.6 68.49 0.0
2017 12 01 5:00 272.3 0.0 0.00 30.7 -0.7 69.69 1.5
2017 12 01 6:00 272.4 0.0 0.00 32.1 0.0 66.76 1.1
2017 12 01 7:00 273.9 0.0 0.00 30.1 -1.1 72.25 0.9
2017 12 01 8:00 271.8 0.0 0.00 31.0 -0.5 69.41 2.8
2017 12 01 9:00 270.3 0.0 0.00 34.9 1.6 68.14 4.1
2017 12 01 10:00 269.6 0.0 0.00 43.0 6.1 55.4 8.4
2017 12 01 11:00 268.6 0.0 0.00 48.9 9.4 39.06 11.7
2017 12 01 12:00 268.0 0.0 0.00 50.8 10.4 33.64 13.7
2017 12 01 13:00 267.9 0.0 0.00 52.3 11.3 32.02 10.8
2017 12 01 14:00 267.9 0.0 0.00 53.2 11.8 30.7 10.6
2017 12 01 15:00 267.9 0.0 0.00 53.3 11.9 30.57 9.8
2017 12 01 16:00 267.9 0.0 0.00 52.3 11.3 32.49 9.1
2017 12 01 17:00 268.4 0.0 0.00 48.9 9.4 36.82 4.2
2017 12 01 18:00 269.3 0.0 0.00 45.0 7.2 41.32 3.2
2017 12 01 19:00 269.5 0.0 0.00 43.6 6.4 43.79 1.9
2017 12 01 20:00 269.7 0.0 0.00 41.9 5.5 48.44 3.2
2017 12 01 21:00 270.1 0.0 0.00 40.9 5.0 51.84 5.2
2017 12 01 22:00 270.1 0.0 0.00 40.6 4.8 52.79 4.1
2017 12 01 23:00 270.2 0.0 0.00 38.9 3.9 55.76 3.4
2017 12 01 24:00 270.2 0.0 0.00 38.8 3.8 56.37 2.1
2017 12 02 1:00 270.3 0.0 0.00 38.5 3.6 57.51 0.2
2017 12 02 2:00 270.8 0.0 0.00 37.1 2.8 61.15 1.1
2017 12 02 3:00 270.9 0.0 0.00 36.7 2.6 62.73 2.1
2017 12 02 4:00 270.9 0.0 0.00 37.0 2.8 62.74 2.2
2017 12 02 5:00 270.9 0.0 0.00 37.2 2.9 63.01 3.6
2017 12 02 6:00 271.2 0.0 0.00 36.2 2.3 66.32 3.2
2017 12 02 7:00 271.6 0.0 0.00 35.2 1.8 69.4 3.4
2017 12 02 8:00 271.7 0.0 0.00 34.2 1.2 73.77 1.5
2017 12 02 9:00 270.6 0.0 0.00 37.2 2.9 73.19 4.5
2017 12 02 10:00 269.8 0.0 0.00 42.9 6.0 67.86 4.9
2017 12 02 11:00 269.2 0.0 0.00 46.7 8.2 59.74 3.3
2017 12 02 12:00 268.3 0.0 0.00 51.2 10.7 50.05 2.0
2017 12 02 13:00 267.8 0.0 0.00 55.6 13.1 40.46 0.8
2017 12 02 14:00 267.7 0.0 0.00 57.8 14.3 36.29 2.1
2017 12 02 15:00 268.1 0.0 0.00 58.1 14.5 36.86 2.3
2017 12 02 16:00 268.2 0.0 0.00 57.6 14.2 38.15 2.9
2017 12 02 17:00 268.9 0.0 0.00 54.7 12.6 41.6 1.9
2017 12 02 18:00 269.8 0.0 0.00 50.0 10.0 48.53 0.2
2017 12 02 19:00 270.2 0.0 0.00 47.2 8.5 53.12 0.3
2017 12 02 20:00 270.6 0.0 0.00 46.2 7.9 54.83 0.2
2017 12 02 21:00 270.5 0.0 0.00 46.0 7.8 55.05 0.0
2017 12 02 22:00 271.2 0.0 0.00 43.2 6.2 61 0.6
2017 12 02 23:00 271.8 0.0 0.00 42.2 5.7 63.71 0.0
2017 12 02 24:00 273.3 0.0 0.00 40.1 4.5 68.95 0.0
2017 12 03 1:00 273.2 0.0 0.00 38.3 3.5 73.52 0.0
2017 12 03 2:00 273.9 0.0 0.00 37.6 3.1 74.48 0.5
2017 12 03 3:00 273.6 0.0 0.00 36.5 2.5 77.08 0.1
2017 12 03 4:00 274.1 0.0 0.00 37.0 2.8 77.48 0.0
2017 12 03 5:00 273.7 0.0 0.00 36.4 2.5 78.74 0.8
2017 12 03 6:00 274.1 0.0 0.00 35.2 1.8 82.3 0.0
2017 12 03 7:00 279.4 0.0 0.00 34.4 1.4 85.1 0.0
2017 12 03 8:00 281.5 0.0 0.00 35.0 1.7 85.6 0.4
2017 12 03 9:00 272.8 0.0 0.00 36.8 2.7 85.2 0.9
2017 12 03 10:00 271.2 0.0 0.00 43.1 6.2 78.81 4.4
2017 12 03 11:00 270.2 0.0 0.00 51.7 10.9 62.94 6.3
2017 12 03 12:00 269.3 0.0 0.00 57.9 14.4 54.67 8.5
2017 12 03 13:00 269.3 0.0 0.00 58.6 14.8 55.62 10.5
2017 12 03 14:00 269.3 0.0 0.00 59.8 15.5 55.11 9.0
2017 12 03 15:00 269.3 0.0 0.00 62.2 16.8 54.87 10.2
2017 12 03 16:00 269.8 0.0 0.00 62.3 16.9 57.27 8.8
2017 12 03 17:00 270.2 0.0 0.00 60.1 15.6 61.65 7.0
2017 12 03 18:00 270.7 0.0 0.00 58.3 14.6 66.94 6.9
2017 12 03 19:00 270.7 0.0 0.00 60.1 15.6 68.39 11.4
2017 12 03 20:00 270.7 0.0 0.00 59.4 15.2 67.67 12.2
2017 12 03 21:00 270.7 0.0 0.00 59.6 15.4 66.15 14.2
2017 12 03 22:00 270.7 0.0 0.00 60.4 15.8 66.81 12.6
2017 12 03 23:00 270.6 0.0 0.00 60.9 16.1 68.3 14.2
2017 12 03 24:00 271.0 0.0 0.00 60.3 15.7 70.52 13.3
2017 12 04 1:00 271.3 0.0 0.00 60.3 15.7 70.87 15.1
2017 12 04 2:00 271.3 0.0 0.00 60.1 15.6 71.31 13.9
2017 12 04 3:00 270.7 0.0 0.00 61.0 16.1 69.43 15.3
2017 12 04 4:00 270.7 0.0 0.00 61.1 16.2 69.44 17.4
2017 12 04 5:00 270.8 0.0 0.00 61.4 16.3 69.53 18.9
2017 12 04 6:00 270.7 0.0 0.00 61.7 16.5 69.95 20.1
2017 12 04 7:00 271.1 0.0 0.00 61.6 16.5 71.69 20.3
2017 12 04 8:00 271.3 0.0 0.00 62.0 16.7 72.07 20.0
2017 12 04 9:00 271.3 0.0 0.00 62.1 16.7 72.88 20.1
2017 12 04 10:00 271.3 0.0 0.00 62.3 16.9 73.83 19.1
2017 12 04 11:00 271.3 0.0 0.00 63.1 17.3 74.04 18.4
2017 12 04 12:00 271.3 0.0 0.00 64.0 17.8 74.19 17.0
2017 12 04 13:00 270.8 0.0 0.00 65.8 18.8 71.73 17.7
2017 12 04 14:00 270.7 0.0 0.00 66.2 19.0 70.84 17.6
2017 12 04 15:00 270.6 0.0 0.00 67.3 19.6 67.71 14.9
2017 12 04 16:00 Wet 293.6 0.1 3.05 63.8 17.7 79.04 12.8
2017 12 04 17:00 276.1 0.0 0.00 58.7 14.9 65.7 15.8
2017 12 04 18:00 271.1 0.0 0.00 50.1 10.0 64.21 16.0
2017 12 04 19:00 270.8 0.0 0.00 47.2 8.4 58.43 20.3
2017 12 04 20:00 270.9 0.0 0.00 42.9 6.1 60.56 22.8
2017 12 04 21:00 270.8 0.0 0.00 40.5 4.7 58.73 23.0
2017 12 04 22:00 270.9 0.0 0.00 39.1 3.9 61.59 18.8
2017 12 04 23:00 270.9 0.0 0.00 34.7 1.5 62.86 19.7
2017 12 04 24:00 271.2 0.0 0.00 31.5 -0.3 67.69 16.6
2017 12 05 1:00 271.2 0.0 0.00 31.7 -0.2 68.46 17.4
2017 12 05 2:00 271.0 0.0 0.00 29.6 -1.3 60 16.3
2017 12 05 3:00 270.9 0.0 0.00 28.0 -2.2 57.24 14.2
2017 12 05 4:00 271.0 0.0 0.00 26.7 -2.9 59.68 11.5
2017 12 05 5:00 271.1 0.0 0.00 25.6 -3.5 62.55 9.0
2017 12 05 6:00 271.1 0.0 0.00 25.0 -3.9 63.42 9.7
2017 12 05 7:00 271.1 0.0 0.00 24.7 -4.1 63.93 9.6
2017 12 05 8:00 271.0 0.0 0.00 24.4 -4.2 63.67 9.2
2017 12 05 9:00 270.9 0.0 0.00 25.7 -3.5 57.61 10.9
2017 12 05 10:00 269.7 0.0 0.00 29.5 -1.4 48.08 12.9
2017 12 05 11:00 269.6 0.0 0.00 32.3 0.2 43.6 15.9
2017 12 05 12:00 269.5 0.0 0.00 34.5 1.4 42.96 17.9
2017 12 05 13:00 269.5 0.0 0.00 36.3 2.4 41.5 18.9
2017 12 05 14:00 269.5 0.0 0.00 37.8 3.2 40.71 17.1
2017 12 05 15:00 269.5 0.0 0.00 38.0 3.3 39.38 17.0
2017 12 05 16:00 269.5 0.0 0.00 38.0 3.4 38.96 14.1
2017 12 05 17:00 269.5 0.0 0.00 36.6 2.5 40.66 11.4
2017 12 05 18:00 270.0 0.0 0.00 34.0 1.1 46.22 5.9
2017 12 05 19:00 270.3 0.0 0.00 31.5 -0.3 51.94 3.5
2017 12 05 20:00 270.3 0.0 0.00 32.0 0.0 52.68 2.0
2017 12 05 21:00 270.3 0.0 0.00 32.0 0.0 54 2.3
2017 12 05 22:00 270.3 0.0 0.00 33.1 0.6 54.47 5.0
2017 12 05 23:00 270.3 0.0 0.00 34.8 1.6 49.36 7.1
2017 12 05 24:00 270.3 0.0 0.00 34.3 1.3 48.55 6.2
2017 12 06 1:00 270.3 0.0 0.00 35.2 1.8 47.29 9.3
2017 12 06 2:00 270.3 0.0 0.00 34.6 1.5 53.41 8.0
2017 12 06 3:00 270.9 0.0 0.00 32.2 0.1 61.01 4.1
2017 12 06 4:00 270.9 0.0 0.00 33.8 1.0 63.31 7.1
2017 12 06 5:00 270.9 0.0 0.00 35.1 1.7 66.45 11.0
2017 12 06 6:00 271.5 0.0 0.00 32.5 0.3 73.08 7.7
2017 12 06 7:00 271.8 0.0 0.00 31.1 -0.5 76.67 8.5
2017 12 06 8:00 272.4 0.0 0.00 29.4 -1.4 81.6 4.8
2017 12 06 9:00 271.6 0.0 0.00 30.8 -0.7 81 6.0
2017 12 06 10:00 270.9 0.0 0.00 35.0 1.7 73.29 9.3
2017 12 06 11:00 270.5 0.0 0.00 38.5 3.6 65.48 11.8
2017 12 06 12:00 270.4 0.0 0.00 39.6 4.2 61.6 11.6
2017 12 06 13:00 270.4 0.0 0.00 40.0 4.5 58.59 14.4
2017 12 06 14:00 270.2 0.0 0.00 40.1 4.5 52.99 14.4
2017 12 06 15:00 270.1 0.0 0.00 40.4 4.7 47.14 13.0
2017 12 06 16:00 270.2 0.0 0.00 39.0 3.9 51.67 8.0
2017 12 06 17:00 270.8 0.0 0.00 35.7 2.1 68 9.8
2017 12 06 18:00 273.1 0.0 0.00 31.0 -0.6 93.8 9.6
2017 12 06 19:00 272.0 0.0 0.00 30.0 -1.1 69.66 11.8
2017 12 06 20:00 271.4 0.0 0.00 26.6 -3.0 62.63 11.7
2017 12 06 21:00 271.6 0.0 0.00 24.7 -4.1 66.25 10.1
2017 12 06 22:00 271.0 0.0 0.00 25.2 -3.8 64.38 13.5
2017 12 06 23:00 271.0 0.0 0.00 24.2 -4.3 64.57 13.5
2017 12 06 24:00 271.0 0.0 0.00 23.5 -4.7 64.42 14.1
2017 12 07 1:00 271.0 0.0 0.00 21.9 -5.6 62.9 14.7
2017 12 07 2:00 271.1 0.0 0.00 20.8 -6.2 65.47 13.1
2017 12 07 3:00 271.1 0.0 0.00 20.2 -6.6 67.26 12.6
2017 12 07 4:00 271.3 0.0 0.00 19.5 -6.9 68.76 12.9
2017 12 07 5:00 271.5 0.0 0.00 18.5 -7.5 66.8 10.9
2017 12 07 6:00 271.8 0.0 0.00 16.7 -8.5 69.74 9.8
2017 12 07 7:00 271.8 0.0 0.00 15.1 -9.4 72.68 9.4
2017 12 07 8:00 271.9 0.0 0.00 13.9 -10.0 74.6 8.3
2017 12 07 9:00 271.2 0.0 0.00 15.1 -9.4 71.49 11.5
2017 12 07 10:00 270.8 0.0 0.00 17.5 -8.1 63.01 12.0
2017 12 07 11:00 270.3 0.0 0.00 20.1 -6.6 54.04 11.0
2017 12 07 12:00 269.8 0.0 0.00 22.6 -5.2 46.63 10.7
2017 12 07 13:00 269.6 0.0 0.00 24.4 -4.2 40.49 11.6
2017 12 07 14:00 269.6 0.0 0.00 25.4 -3.7 37.94 10.6
2017 12 07 15:00 269.6 0.0 0.00 26.3 -3.2 33.79 9.2
2017 12 07 16:00 269.6 0.0 0.00 26.0 -3.3 33.06 9.4
2017 12 07 17:00 269.7 0.0 0.00 24.1 -4.4 39.08 6.4
2017 12 07 18:00 270.4 0.0 0.00 20.8 -6.2 46.25 3.7
2017 12 07 19:00 270.5 0.0 0.00 18.7 -7.4 53.44 3.2
2017 12 07 20:00 271.1 0.0 0.00 17.4 -8.1 58.03 2.1
2017 12 07 21:00 271.1 0.0 0.00 17.0 -8.3 58.05 1.9
2017 12 07 22:00 271.2 0.0 0.00 16.4 -8.6 58.15 2.8
2017 12 07 23:00 271.2 0.0 0.00 15.9 -8.9 59.33 1.2
2017 12 07 24:00 271.2 0.0 0.00 15.4 -9.2 62.49 2.9
2017 12 08 1:00 271.2 0.0 0.00 15.4 -9.2 63.75 4.5
2017 12 08 2:00 271.2 0.0 0.00 16.0 -8.9 62.06 5.3
2017 12 08 3:00 271.2 0.0 0.00 16.8 -8.4 59.07 5.4
2017 12 08 4:00 271.2 0.0 0.00 16.4 -8.6 60.31 4.7
2017 12 08 5:00 271.2 0.0 0.00 16.3 -8.8 60.93 4.9
2017 12 08 6:00 271.2 0.0 0.00 16.4 -8.7 62.02 6.1
2017 12 08 7:00 271.2 0.0 0.00 17.4 -8.1 59.96 6.0
2017 12 08 8:00 271.1 0.0 0.00 17.1 -8.3 61.95 5.1
2017 12 08 9:00 270.2 0.0 0.00 19.9 -6.7 58.69 5.3
2017 12 08 10:00 269.7 0.0 0.00 24.4 -4.2 52.87 7.0
2017 12 08 11:00 269.1 0.0 0.00 27.8 -2.3 49.96 7.1
2017 12 08 12:00 268.9 0.0 0.00 31.4 -0.3 46.14 5.8
2017 12 08 13:00 268.8 0.0 0.00 33.8 1.0 43.95 7.3
2017 12 08 14:00 268.8 0.0 0.00 35.6 2.0 42.37 8.1
2017 12 08 15:00 269.2 0.0 0.00 37.0 2.8 40.79 8.4
2017 12 08 16:00 269.5 0.0 0.00 36.8 2.7 41.88 8.9
2017 12 08 17:00 269.8 0.0 0.00 34.3 1.3 46.55 5.4
2017 12 08 18:00 270.3 0.0 0.00 31.3 -0.4 52.09 1.9
2017 12 08 19:00 270.8 0.0 0.00 29.3 -1.5 56.12 0.9
2017 12 08 20:00 271.0 0.0 0.00 28.0 -2.2 61.37 4.9
2017 12 08 21:00 271.3 0.0 0.00 28.4 -2.0 72.68 8.7
2017 12 08 22:00 271.8 0.0 0.00 28.1 -2.2 81.4 10.6
2017 12 08 23:00 272.4 0.0 0.00 27.6 -2.5 83.5 9.8
2017 12 08 24:00 273.1 0.0 0.00 26.4 -3.1 86.2 7.9
2017 12 09 1:00 273.5 0.0 0.00 26.0 -3.3 86.4 7.8
2017 12 09 2:00 273.1 0.0 0.00 26.2 -3.2 85 8.7
2017 12 09 3:00 273.1 0.0 0.00 26.4 -3.1 83.7 9.5
2017 12 09 4:00 272.8 0.0 0.00 26.9 -2.8 82.5 12.1
2017 12 09 5:00 272.4 0.0 0.00 28.2 -2.1 78.13 10.6
2017 12 09 6:00 271.7 0.0 0.00 28.9 -1.7 71.52 8.9
2017 12 09 7:00 272.1 0.0 0.00 27.5 -2.5 72.66 9.9
2017 12 09 8:00 272.2 0.0 0.00 25.8 -3.4 75.85 11.7
2017 12 09 9:00 271.8 0.0 0.00 25.0 -3.9 75.41 11.2
2017 12 09 10:00 271.4 0.0 0.00 25.4 -3.7 70.28 12.9
2017 12 09 11:00 270.9 0.0 0.00 26.6 -3.0 63.22 12.2
2017 12 09 12:00 270.7 0.0 0.00 26.5 -3.0 61.41 11.5
2017 12 09 13:00 270.4 0.0 0.00 26.4 -3.1 60.14 12.6
2017 12 09 14:00 270.3 0.0 0.00 26.7 -3.0 57.08 12.1
2017 12 09 15:00 270.3 0.0 0.00 27.3 -2.6 53.9 10.3
2017 12 09 16:00 270.3 0.0 0.00 27.5 -2.5 52.19 9.7
2017 12 09 17:00 270.6 0.0 0.00 26.6 -3.0 53.98 7.6
2017 12 09 18:00 271.0 0.0 0.00 24.3 -4.3 58.6 4.9
2017 12 09 19:00 271.1 0.0 0.00 22.8 -5.1 62.16 5.3
2017 12 09 20:00 271.8 0.0 0.00 21.1 -6.0 65.94 3.1
2017 12 09 21:00 271.9 0.0 0.00 20.0 -6.7 69.59 2.7
2017 12 09 22:00 272.4 0.0 0.00 19.4 -7.0 73.06 3.4
2017 12 09 23:00 272.5 0.0 0.00 18.8 -7.3 75.67 3.4
2017 12 09 24:00 272.5 0.0 0.00 18.6 -7.4 76.93 4.0
2017 12 10 1:00 272.5 0.0 0.00 20.3 -6.5 74.34 5.5
2017 12 10 2:00 271.9 0.0 0.00 21.6 -5.8 72.82 8.2
2017 12 10 3:00 271.8 0.0 0.00 23.7 -4.6 71.65 8.2
2017 12 10 4:00 271.8 0.0 0.00 24.7 -4.0 72.83 8.2
2017 12 10 5:00 271.7 0.0 0.00 26.9 -2.8 68.61 8.7
2017 12 10 6:00 271.7 0.0 0.00 26.8 -2.9 70.37 8.0
2017 12 10 7:00 271.9 0.0 0.00 25.8 -3.4 73.77 8.1
2017 12 10 8:00 272.2 0.0 0.00 25.0 -3.9 77.47 8.1
2017 12 10 9:00 271.3 0.0 0.00 30.4 -0.9 69.85 10.7
2017 12 10 10:00 270.6 0.0 0.00 35.0 1.6 62.73 11.9
2017 12 10 11:00 270.0 0.0 0.00 39.2 4.0 54.43 12.4
2017 12 10 12:00 269.5 0.0 0.00 41.9 5.5 49.31 13.1
2017 12 10 13:00 269.4 0.0 0.00 44.7 7.0 43.07 13.0
2017 12 10 14:00 268.8 0.0 0.00 46.9 8.3 39.4 11.9
2017 12 10 15:00 268.7 0.0 0.00 48.0 8.9 37.64 10.9
2017 12 10 16:00 268.7 0.0 0.00 47.7 8.7 38.61 9.8
2017 12 10 17:00 269.3 0.0 0.00 45.1 7.3 42.65 6.1
2017 12 10 18:00 270.0 0.0 0.00 42.9 6.0 46.01 3.7
2017 12 10 19:00 270.2 0.0 0.00 40.7 4.9 49.82 2.9
2017 12 10 20:00 270.2 0.0 0.00 38.7 3.7 53.87 4.1
2017 12 10 21:00 270.9 0.0 0.00 36.6 2.5 58.66 4.4
2017 12 10 22:00 270.9 0.0 0.00 36.6 2.5 59.77 4.4
2017 12 10 23:00 271.0 0.0 0.00 34.4 1.3 66.12 2.4
2017 12 10 24:00 270.9 0.0 0.00 34.3 1.3 68.53 3.7
2017 12 11 1:00 270.9 0.0 0.00 35.5 2.0 65.41 2.5
2017 12 11 2:00 271.5 0.0 0.00 34.0 1.1 68.6 4.0
2017 12 11 3:00 271.7 0.0 0.00 32.1 0.1 71.94 3.9
2017 12 11 4:00 271.6 0.0 0.00 32.2 0.1 71.98 4.0
2017 12 11 5:00 271.6 0.0 0.00 32.5 0.3 72.67 3.7
2017 12 11 6:00 271.6 0.0 0.00 33.2 0.7 70.8 5.1
2017 12 11 7:00 271.0 0.0 0.00 35.9 2.2 62.76 6.3
2017 12 11 8:00 270.9 0.0 0.00 35.7 2.0 59.15 6.0
2017 12 11 9:00 270.6 0.0 0.00 35.9 2.2 57.39 8.3
2017 12 11 10:00 270.2 0.0 0.00 38.0 3.3 50.42 12.6
2017 12 11 11:00 269.5 0.0 0.00 45.0 7.2 42.17 19.0
2017 12 11 12:00 269.4 0.0 0.00 46.9 8.3 48.05 23.7
2017 12 11 13:00 269.6 0.0 0.00 46.6 8.1 49.65 20.3
2017 12 11 14:00 270.1 0.0 0.00 45.3 7.4 55.32 22.3
2017 12 11 15:00 270.3 0.0 0.00 44.1 6.7 61.62 21.4
2017 12 11 16:00 270.8 0.0 0.00 43.0 6.1 65.7 19.0
2017 12 11 17:00 270.8 0.0 0.00 41.5 5.3 69.41 15.5
2017 12 11 18:00 271.0 0.0 0.00 40.5 4.7 71.68 13.8
2017 12 11 19:00 273.4 0.0 0.00 38.3 3.5 79.19 15.2
2017 12 11 20:00 272.2 0.0 0.00 35.5 1.9 79.91 16.4
2017 12 11 21:00 272.1 0.0 0.00 34.4 1.3 78.51 14.4
2017 12 11 22:00 271.6 0.0 0.00 33.0 0.6 73.99 15.1
2017 12 11 23:00 271.6 0.0 0.00 29.8 -1.2 67.68 14.2
2017 12 11 24:00 271.5 0.0 0.00 27.7 -2.4 67.49 10.9
2017 12 12 1:00 271.7 0.0 0.00 24.6 -4.1 70.91 7.8
2017 12 12 2:00 271.8 0.0 0.00 22.2 -5.4 73.93 8.2
2017 12 12 3:00 272.4 0.0 0.00 20.6 -6.3 77.46 6.8
2017 12 12 4:00 272.5 0.0 0.00 18.2 -7.7 81.3 8.3
2017 12 12 5:00 273.2 0.0 0.00 16.2 -8.8 84.2 8.2
2017 12 12 6:00 273.2 0.0 0.00 15.3 -9.3 83.2 8.5
2017 12 12 7:00 272.5 0.0 0.00 14.9 -9.5 79.18 8.9
2017 12 12 8:00 272.4 0.0 0.00 14.1 -9.9 77.47 6.2
2017 12 12 9:00 271.7 0.0 0.00 15.6 -9.1 72.63 9.5
2017 12 12 10:00 270.9 0.0 0.00 18.8 -7.4 63.51 9.4
2017 12 12 11:00 270.4 0.0 0.00 21.5 -5.8 53.55 9.2
2017 12 12 12:00 269.7 0.0 0.00 24.7 -4.1 42.41 7.7
2017 12 12 13:00 268.9 0.0 0.00 28.1 -2.2 30.47 8.3
2017 12 12 14:00 268.7 0.0 0.00 30.6 -0.8 25.24 9.3
2017 12 12 15:00 268.7 0.0 0.00 31.6 -0.2 24.37 9.2
2017 12 12 16:00 268.7 0.0 0.00 31.7 -0.2 27.5 8.6
2017 12 12 17:00 269.2 0.0 0.00 30.0 -1.1 36.05 5.8
2017 12 12 18:00 269.6 0.0 0.00 27.5 -2.5 42.91 3.1
2017 12 12 19:00 270.3 0.0 0.00 26.6 -3.0 50.15 2.8
2017 12 12 20:00 270.6 0.0 0.00 26.5 -3.1 58.82 4.0
2017 12 12 21:00 271.1 0.0 0.00 25.4 -3.7 66.36 1.5
2017 12 12 22:00 271.7 0.0 0.00 23.3 -4.8 72.92 2.8
2017 12 12 23:00 271.8 0.0 0.00 23.6 -4.7 75.15 3.6
2017 12 12 24:00 271.7 0.0 0.00 27.3 -2.6 70.36 7.8
2017 12 13 1:00 271.7 0.0 0.00 28.2 -2.1 70.03 8.3
2017 12 13 2:00 271.7 0.0 0.00 29.1 -1.6 71.78 8.6
2017 12 13 3:00 271.7 0.0 0.00 30.0 -1.1 73.23 9.1
2017 12 13 4:00 271.6 0.0 0.00 31.0 -0.6 73.28 9.6
2017 12 13 5:00 271.6 0.0 0.00 31.8 -0.1 72.5 10.4
2017 12 13 6:00 271.6 0.0 0.00 31.4 -0.4 74.92 10.7
2017 12 13 7:00 271.9 0.0 0.00 31.3 -0.4 76.66 10.4
2017 12 13 8:00 271.6 0.0 0.00 33.3 0.7 70.74 9.7
2017 12 13 9:00 271.0 0.0 0.00 36.0 2.2 63.5 9.4
2017 12 13 10:00 270.4 0.0 0.00 39.6 4.2 56.17 9.2
2017 12 13 11:00 269.5 0.0 0.00 49.6 9.8 43.89 22.1
2017 12 13 12:00 270.0 0.0 0.00 47.8 8.8 57.07 24.4
2017 12 13 13:00 270.1 0.0 0.00 47.6 8.7 56.97 24.2
2017 12 13 14:00 270.0 0.0 0.00 47.6 8.7 53.73 20.7
2017 12 13 15:00 270.0 0.0 0.00 47.6 8.6 51.33 21.0
2017 12 13 16:00 270.1 0.0 0.00 44.4 6.9 55.3 17.0
2017 12 13 17:00 270.1 0.0 0.00 41.8 5.5 60.2 14.0
2017 12 13 18:00 270.5 0.0 0.00 39.9 4.4 65.84 11.7
2017 12 13 19:00 270.8 0.0 0.00 38.3 3.5 66.75 17.4
2017 12 13 20:00 270.4 0.0 0.00 37.2 2.9 59 17.2
2017 12 13 21:00 270.2 0.0 0.00 35.6 2.0 56.69 13.0
2017 12 13 22:00 270.2 0.0 0.00 34.2 1.2 53.68 13.3
2017 12 13 23:00 270.2 0.0 0.00 33.9 1.0 53.56 9.6
2017 12 13 24:00 270.7 0.0 0.00 32.0 -0.0 62.04 6.7
2017 12 14 1:00 270.9 0.0 0.00 30.9 -0.6 65.28 6.0
2017 12 14 2:00 270.9 0.0 0.00 29.9 -1.1 67.04 5.7
2017 12 14 3:00 270.9 0.0 0.00 29.0 -1.6 66.78 5.7
2017 12 14 4:00 270.9 0.0 0.00 28.3 -2.0 67.24 4.4
2017 12 14 5:00 270.9 0.0 0.00 27.7 -2.4 70.14 4.5
2017 12 14 6:00 270.9 0.0 0.00 27.1 -2.7 70.48 1.9
2017 12 14 7:00 271.0 0.0 0.00 26.6 -3.0 68.61 5.5
2017 12 14 8:00 271.0 0.0 0.00 26.1 -3.3 68.96 2.5
2017 12 14 9:00 271.0 0.0 0.00 26.1 -3.3 68.46 2.8
2017 12 14 10:00 271.0 0.0 0.00 26.4 -3.1 68.2 2.9
2017 12 14 11:00 271.0 0.0 0.00 27.1 -2.7 67.95 2.7
2017 12 14 12:00 270.4 0.0 0.00 27.7 -2.4 67.1 3.4
2017 12 14 13:00 270.2 0.0 0.00 29.1 -1.6 64.32 4.2
2017 12 14 14:00 270.2 0.0 0.00 30.5 -0.8 60.63 4.7
2017 12 14 15:00 270.2 0.0 0.00 31.3 -0.4 59.04 5.1
2017 12 14 16:00 270.3 0.0 0.00 31.6 -0.2 58.52 3.6
2017 12 14 17:00 270.6 0.0 0.00 31.3 -0.4 59.51 0.7
2017 12 14 18:00 270.9 0.0 0.00 30.8 -0.6 61.71 0.6
2017 12 14 19:00 270.9 0.0 0.00 30.0 -1.1 64.45 0.1
2017 12 14 20:00 270.9 0.0 0.00 29.3 -1.5 67.28 0.3
2017 12 14 21:00 271.2 0.0 0.00 29.2 -1.5 68.61 0.0
2017 12 14 22:00 271.6 0.0 0.00 28.9 -1.7 71.29 0.0
2017 12 14 23:00 272.3 0.0 0.00 27.5 -2.5 74.69 2.3
2017 12 14 24:00 272.4 0.0 0.00 27.2 -2.7 81 4.6
2017 12 15 1:00 272.3 0.0 0.00 28.7 -1.9 80.4 4.2
2017 12 15 2:00 272.3 0.0 0.00 29.6 -1.4 79.43 5.8
2017 12 15 3:00 272.1 0.0 0.00 30.4 -0.9 78.06 6.7
2017 12 15 4:00 271.7 0.0 0.00 31.0 -0.6 76.86 7.9
2017 12 15 5:00 271.6 0.0 0.00 31.2 -0.5 74.36 10.2
2017 12 15 6:00 271.6 0.0 0.00 29.9 -1.2 69.99 6.7
2017 12 15 7:00 272.6 0.0 0.00 27.0 -2.8 76.33 3.7
2017 12 15 8:00 272.4 0.0 0.00 26.6 -3.0 78.18 4.1
2017 12 15 9:00 271.7 0.0 0.00 28.8 -1.8 73.64 6.1
2017 12 15 10:00 271.1 0.0 0.00 31.6 -0.2 65.09 8.1
2017 12 15 11:00 270.4 0.0 0.00 35.0 1.6 56.64 11.5
2017 12 15 12:00 269.6 0.0 0.00 38.4 3.6 47.09 13.0
2017 12 15 13:00 269.5 0.0 0.00 40.5 4.7 43.82 13.4
2017 12 15 14:00 269.2 0.0 0.00 41.9 5.5 42.4 14.2
2017 12 15 15:00 269.4 0.0 0.00 41.9 5.5 42.07 13.7
2017 12 15 16:00 269.4 0.0 0.00 41.6 5.4 41.52 12.4
2017 12 15 17:00 269.4 0.0 0.00 40.3 4.6 43.74 8.9
2017 12 15 18:00 269.9 0.0 0.00 37.8 3.2 47.99 6.8
2017 12 15 19:00 270.2 0.0 0.00 34.5 1.4 55.41 5.7
2017 12 15 20:00 270.3 0.0 0.00 34.0 1.1 57.49 7.2
2017 12 15 21:00 270.3 0.0 0.00 35.5 2.0 54.42 9.7
2017 12 15 22:00 270.2 0.0 0.00 36.6 2.5 53.23 11.3
2017 12 15 23:00 270.2 0.0 0.00 35.9 2.2 56.28 10.7
2017 12 15 24:00 270.6 0.0 0.00 34.9 1.6 59.92 10.0
2017 12 16 1:00 270.9 0.0 0.00 34.3 1.3 63.32 9.7
2017 12 16 2:00 270.9 0.0 0.00 34.7 1.5 63.74 9.7
2017 12 16 3:00 270.9 0.0 0.00 34.6 1.4 65.14 8.7
2017 12 16 4:00 270.9 0.0 0.00 34.3 1.3 66.65 9.4
2017 12 16 5:00 270.9 0.0 0.00 34.5 1.4 65.28 9.6
2017 12 16 6:00 270.9 0.0 0.00 34.5 1.4 64.15 7.9
2017 12 16 7:00 271.0 0.0 0.00 33.4 0.8 66.03 7.2
2017 12 16 8:00 271.3 0.0 0.00 32.6 0.3 68.35 7.7
2017 12 16 9:00 270.5 0.0 0.00 35.3 1.8 62.83 8.8
2017 12 16 10:00 269.7 0.0 0.00 39.8 4.3 54.08 10.9
2017 12 16 11:00 269.2 0.0 0.00 43.4 6.3 48.25 10.8
2017 12 16 12:00 268.7 0.0 0.00 46.4 8.0 43.65 9.8
2017 12 16 13:00 268.7 0.0 0.00 48.8 9.3 40.62 9.6
2017 12 16 14:00 268.6 0.0 0.00 50.8 10.5 37.99 8.3
2017 12 16 15:00 268.6 0.0 0.00 52.1 11.2 36.41 8.7
2017 12 16 16:00 268.6 0.0 0.00 52.0 11.1 36.64 5.7
2017 12 16 17:00 269.0 0.0 0.00 49.5 9.7 39.83 1.4
2017 12 16 18:00 270.0 0.0 0.00 45.5 7.5 45.7 0.0
2017 12 16 19:00 270.2 0.0 0.00 43.3 6.3 49.51 0.0
2017 12 16 20:00 270.2 0.0 0.00 42.4 5.8 51.05 0.0
2017 12 16 21:00 270.4 0.0 0.00 40.5 4.7 55.4 0.3
2017 12 16 22:00 270.9 0.0 0.00 37.4 3.0 62.06 0.0
2017 12 16 23:00 271.0 0.0 0.00 37.9 3.3 60.87 0.0
2017 12 16 24:00 270.9 0.0 0.00 38.4 3.6 59.36 0.3
2017 12 17 1:00 270.9 0.0 0.00 37.9 3.3 60.49 0.3
2017 12 17 2:00 270.9 0.0 0.00 37.0 2.8 62.62 0.1
2017 12 17 3:00 270.9 0.0 0.00 37.7 3.2 60.49 0.3
2017 12 17 4:00 270.9 0.0 0.00 36.7 2.6 64.08 0.1
2017 12 17 5:00 270.9 0.0 0.00 36.2 2.3 65.86 0.0
2017 12 17 6:00 270.9 0.0 0.00 36.7 2.6 65.58 0.3
2017 12 17 7:00 270.9 0.0 0.00 37.3 3.0 67.21 1.7
2017 12 17 8:00 270.7 0.0 0.00 40.8 4.9 61.15 5.7
2017 12 17 9:00 275.8 0.0 0.00 42.9 6.1 60.09 8.6
2017 12 17 10:00 Wet 406.8 0.0 0.51 40.6 4.8 81.3 3.6
2017 12 17 11:00 Wet 365.5 0.0 0.00 41.3 5.1 88.1 4.3
2017 12 17 12:00 Wet 312.3 0.0 0.00 42.5 5.8 88.1 6.4
2017 12 17 13:00 282.4 0.0 0.00 43.3 6.3 86.1 6.0
2017 12 17 14:00 272.7 0.0 0.00 43.3 6.3 88.1 4.2
2017 12 17 15:00 Wet 329.8 0.0 0.00 42.8 6.0 94.4 3.5
2017 12 17 16:00 Wet 360.1 0.0 0.00 42.8 6.0 97.7 2.5
2017 12 17 17:00 Wet 348.7 0.0 0.00 42.6 5.9 97.6 2.1
2017 12 17 18:00 Wet 377.0 0.0 0.00 42.0 5.5 99 2.3
2017 12 17 19:00 Wet 371.6 0.0 0.00 41.9 5.5 99.9 2.5
2017 12 17 20:00 Wet 358.0 0.0 0.00 42.1 5.6 100 4.6
2017 12 17 21:00 Wet 342.1 0.0 0.00 42.4 5.8 100 5.7
2017 12 17 22:00 Wet 330.4 0.0 0.00 42.2 5.7 99.5 5.9
2017 12 17 23:00 Wet 324.9 0.0 0.00 41.8 5.5 99.6 4.7
2017 12 17 24:00 Wet 322.0 0.0 0.00 41.7 5.4 100 2.8
2017 12 18 1:00 Wet 320.0 0.0 0.00 41.6 5.3 100 3.8
2017 12 18 2:00 Wet 317.1 0.0 0.00 42.4 5.8 100 5.8
2017 12 18 3:00 Wet 310.8 0.0 0.00 43.0 6.1 98.8 7.6
2017 12 18 4:00 Wet 306.7 0.0 0.00 40.7 4.8 99.4 5.5
2017 12 18 5:00 Wet 318.4 0.0 0.00 38.5 3.6 100 6.1
2017 12 18 6:00 Wet 326.4 0.0 0.00 38.4 3.6 100 7.0
2017 12 18 7:00 Wet 330.9 0.0 0.00 36.7 2.6 99.3 6.2
2017 12 18 8:00 Wet 349.3 0.0 0.00 34.2 1.2 98.3 4.2
2017 12 18 9:00 Wet 338.2 0.0 0.00 34.3 1.3 99.1 5.1
2017 12 18 10:00 Wet 294.8 0.0 0.00 37.2 2.9 95.2 7.5
2017 12 18 11:00 274.6 0.0 0.00 41.2 5.1 84.5 9.1
2017 12 18 12:00 271.5 0.0 0.25 44.2 6.8 72.91 11.7
2017 12 18 13:00 270.9 0.0 0.00 47.1 8.4 63.03 12.4
2017 12 18 14:00 270.7 0.0 0.00 49.4 9.7 56.78 12.1
2017 12 18 15:00 270.1 0.0 0.00 50.8 10.4 51.28 11.1
2017 12 18 16:00 270.0 0.0 0.00 50.7 10.4 50.53 11.0
2017 12 18 17:00 270.5 0.0 0.00 48.8 9.3 56.06 9.3
2017 12 18 18:00 270.8 0.0 0.00 46.7 8.2 61.55 9.3
2017 12 18 19:00 271.2 0.0 0.00 44.8 7.1 65.11 8.1
2017 12 18 20:00 271.4 0.0 0.00 43.6 6.5 67.31 8.7
2017 12 18 21:00 271.5 0.0 0.00 43.2 6.2 69.11 8.7
2017 12 18 22:00 271.9 0.0 0.00 41.6 5.3 74.58 6.9
2017 12 18 23:00 272.7 0.0 0.00 39.3 4.0 80.8 5.2
2017 12 18 24:00 273.8 0.0 0.00 37.2 2.9 86.4 5.3
2017 12 19 1:00 275.3 0.0 0.00 37.0 2.8 89.9 5.3
2017 12 19 2:00 278.3 0.0 0.00 37.6 3.1 92.8 6.2
2017 12 19 3:00 277.4 0.0 0.00 39.0 3.9 92.7 7.3
2017 12 19 4:00 Wet 284.0 0.0 0.00 38.5 3.6 93.7 6.4
2017 12 19 5:00 Wet 307.5 0.0 0.00 37.8 3.2 95.1 6.1
2017 12 19 6:00 Wet 321.6 0.0 0.00 38.3 3.5 93.9 6.9
2017 12 19 7:00 Wet 344.6 0.0 0.00 36.6 2.5 96.9 5.9
2017 12 19 8:00 Wet 381.1 0.0 0.00 36.1 2.3 98.4 6.5
2017 12 19 9:00 Wet 360.2 0.0 0.00 36.7 2.6 98.1 6.5
2017 12 19 10:00 Wet 300.6 0.0 0.00 41.2 5.1 85.1 6.6
2017 12 19 11:00 271.1 0.0 0.00 45.6 7.5 66.51 5.0
2017 12 19 12:00 270.5 0.0 0.00 48.4 9.1 58.82 6.7
2017 12 19 13:00 270.4 0.0 0.00 49.3 9.6 55.83 6.5
2017 12 19 14:00 270.1 0.0 0.00 49.5 9.8 49.35 4.9
2017 12 19 15:00 269.8 0.0 0.00 49.3 9.6 41.85 5.1
2017 12 19 16:00 269.4 0.0 0.00 47.0 8.3 37.74 4.7
2017 12 19 17:00 269.9 0.0 0.00 44.4 6.9 41.1 1.4
2017 12 19 18:00 270.1 0.0 0.00 42.3 5.7 44.71 0.8
2017 12 19 19:00 270.2 0.0 0.00 40.1 4.5 48.16 2.9
2017 12 19 20:00 270.2 0.0 0.00 39.2 4.0 47.82 1.4
2017 12 19 21:00 270.2 0.0 0.00 37.8 3.2 49.54 5.0
2017 12 19 22:00 270.2 0.0 0.00 37.2 2.9 46.07 7.1
2017 12 19 23:00 270.2 0.0 0.00 36.1 2.3 46 7.6
2017 12 19 24:00 270.2 0.0 0.00 34.6 1.5 47.12 7.9
2017 12 20 1:00 270.3 0.0 0.00 32.4 0.2 51.22 6.2
2017 12 20 2:00 270.3 0.0 0.00 30.5 -0.8 54.42 8.2
2017 12 20 3:00 270.3 0.0 0.00 30.4 -0.9 53 9.1
2017 12 20 4:00 270.3 0.0 0.00 29.7 -1.3 53.01 7.8
2017 12 20 5:00 270.5 0.0 0.00 28.9 -1.7 53.21 7.2
2017 12 20 6:00 270.7 0.0 0.00 28.0 -2.2 55.01 7.1
2017 12 20 7:00 271.0 0.0 0.00 26.8 -2.9 58.65 5.6
2017 12 20 8:00 271.0 0.0 0.00 26.1 -3.3 60.95 5.4
2017 12 20 9:00 270.2 0.0 0.00 27.9 -2.3 58.48 6.6
2017 12 20 10:00 269.5 0.0 0.00 32.0 -0.0 48.84 8.3
2017 12 20 11:00 268.9 0.0 0.00 35.3 1.9 39.13 8.8
2017 12 20 12:00 268.7 0.0 0.00 38.0 3.3 35.47 8.6
2017 12 20 13:00 268.1 0.0 0.00 40.7 4.8 32.31 7.8
2017 12 20 14:00 268.0 0.0 0.00 43.1 6.2 27.66 9.2
2017 12 20 15:00 268.0 0.0 0.00 44.4 6.9 24.79 10.4
2017 12 20 16:00 268.0 0.0 0.00 44.2 6.8 24.64 9.4
2017 12 20 17:00 268.3 0.0 0.00 41.2 5.1 28.59 6.3
2017 12 20 18:00 268.8 0.0 0.00 37.7 3.1 33.74 3.5
2017 12 20 19:00 269.4 0.0 0.00 35.5 1.9 38.44 3.0
2017 12 20 20:00 269.6 0.0 0.00 34.3 1.3 41.46 4.4
2017 12 20 21:00 269.6 0.0 0.00 32.9 0.5 47.29 4.3
2017 12 20 22:00 269.6 0.0 0.00 35.7 2.0 44.77 6.4
2017 12 20 23:00 269.4 0.0 0.00 38.0 3.3 42.56 7.1
2017 12 20 24:00 269.2 0.0 0.00 38.5 3.6 42.83 5.5
2017 12 21 1:00 269.5 0.0 0.00 38.0 3.3 45.87 4.9
2017 12 21 2:00 269.5 0.0 0.00 38.6 3.7 45.17 6.4
2017 12 21 3:00 269.5 0.0 0.00 38.9 3.8 45.93 5.3
2017 12 21 4:00 269.5 0.0 0.00 38.6 3.6 48.37 4.5
2017 12 21 5:00 269.5 0.0 0.00 38.4 3.6 49.48 6.4
2017 12 21 6:00 269.5 0.0 0.00 38.6 3.6 51.52 5.1
2017 12 21 7:00 Wet 336.1 0.0 0.00 36.9 2.7 66.95 6.5
2017 12 21 8:00 Wet 512.6 0.0 0.25 33.8 1.0 92.7 6.0
2017 12 21 9:00 Wet 468.8 0.0 0.51 33.1 0.6 98.1 6.8
2017 12 21 10:00 Wet 309.3 0.0 0.00 33.8 1.0 98.8 7.3
2017 12 21 11:00 279.0 0.0 0.00 35.9 2.2 94.2 6.6
2017 12 21 12:00 272.9 0.0 0.00 36.7 2.6 92.6 6.4
2017 12 21 13:00 275.1 0.0 0.00 36.7 2.6 93.4 8.2
2017 12 21 14:00 Wet 386.7 0.0 0.00 36.0 2.2 94.7 7.6
2017 12 21 15:00 Wet 388.2 0.0 0.00 35.3 1.8 97.3 9.0
2017 12 21 16:00 Wet 294.2 0.0 0.00 34.5 1.4 97.3 9.8
2017 12 21 17:00 Wet 457.5 0.0 0.25 33.7 1.0 97.7 9.9
2017 12 21 18:00 Wet 440.4 0.0 0.00 32.9 0.5 98.2 9.5
2017 12 21 19:00 Wet 460.3 0.0 0.25 32.3 0.2 98.4 8.6
2017 12 21 20:00 Wet 399.1 0.0 0.00 32.2 0.1 98.4 8.2
2017 12 21 21:00 Wet 361.4 0.0 0.00 32.1 0.1 98 7.0
2017 12 21 22:00 Wet 423.5 0.0 0.00 32.1 0.1 98.1 4.9
2017 12 21 23:00 Wet 339.1 0.0 0.00 32.0 -0.0 98 5.2
2017 12 21 24:00 Wet 303.4 0.0 0.00 32.0 0.0 97.9 4.7
2017 12 22 1:00 Wet 399.3 0.0 0.00 31.8 -0.1 98 5.2
2017 12 22 2:00 Wet 403.9 0.0 0.00 31.3 -0.4 98.6 4.8
2017 12 22 3:00 Wet 284.7 0.0 0.00 30.6 -0.8 96.4 5.7
2017 12 22 4:00 278.0 0.0 0.00 29.7 -1.3 93.5 5.6
2017 12 22 5:00 276.7 0.0 0.00 29.2 -1.5 93 5.0
2017 12 22 6:00 278.3 0.0 0.00 28.5 -1.9 95.2 6.7
2017 12 22 7:00 277.2 0.0 0.00 27.9 -2.3 93.6 7.0
2017 12 22 8:00 278.3 0.0 0.00 27.2 -2.7 95.2 5.1
2017 12 22 9:00 279.0 0.0 0.00 27.1 -2.7 95.8 5.3
2017 12 22 10:00 276.1 0.0 0.00 27.5 -2.5 94 6.1
2017 12 22 11:00 275.7 0.0 0.00 27.7 -2.4 93 7.5
2017 12 22 12:00 275.1 0.0 0.00 27.8 -2.3 90.8 7.6
2017 12 22 13:00 274.4 0.0 0.00 28.2 -2.1 87.9 5.9
2017 12 22 14:00 274.4 0.0 0.00 28.6 -1.9 87.3 4.6
2017 12 22 15:00 274.2 0.0 0.00 29.1 -1.6 86.6 5.5
2017 12 22 16:00 273.9 0.0 0.00 28.7 -1.8 86.7 5.1
2017 12 22 17:00 274.2 0.0 0.00 28.1 -2.2 88 4.0
2017 12 22 18:00 274.4 0.0 0.00 27.7 -2.4 88.9 4.1
2017 12 22 19:00 274.1 0.0 0.00 27.4 -2.6 88.6 3.8
2017 12 22 20:00 273.8 0.0 0.00 27.5 -2.5 87.5 4.2
2017 12 22 21:00 273.7 0.0 0.00 27.1 -2.7 86.6 5.6
2017 12 22 22:00 273.7 0.0 0.00 26.1 -3.3 84.5 5.0
2017 12 22 23:00 274.2 0.0 0.00 24.4 -4.2 84.4 4.8
2017 12 22 24:00 274.4 0.0 0.00 22.8 -5.1 85.7 4.9
2017 12 23 1:00 274.2 0.0 0.00 21.7 -5.7 85.8 5.0
2017 12 23 2:00 274.0 0.0 0.00 21.0 -6.1 83.2 4.8
2017 12 23 3:00 273.2 0.0 0.00 20.9 -6.2 79.4 6.5
2017 12 23 4:00 273.1 0.0 0.00 19.5 -6.9 77.49 6.3
2017 12 23 5:00 273.2 0.0 0.00 18.8 -7.3 77.73 6.3
2017 12 23 6:00 273.8 0.0 0.00 17.3 -8.2 82.3 4.5
2017 12 23 7:00 274.3 0.0 0.00 16.6 -8.6 85.2 4.9
2017 12 23 8:00 274.1 0.0 0.00 17.3 -8.2 84.1 7.3
2017 12 23 9:00 273.3 0.0 0.00 17.8 -7.9 82.1 7.1
2017 12 23 10:00 272.8 0.0 0.00 19.2 -7.1 79.88 6.5
2017 12 23 11:00 271.9 0.0 0.00 21.5 -5.8 72.22 6.4
2017 12 23 12:00 271.9 0.0 0.00 22.0 -5.5 71.33 6.8
2017 12 23 13:00 271.7 0.0 0.00 22.3 -5.4 67.65 6.0
2017 12 23 14:00 271.7 0.0 0.00 22.2 -5.4 65.08 5.9
2017 12 23 15:00 271.7 0.0 0.00 22.2 -5.4 63.46 7.6
2017 12 23 16:00 271.7 0.0 0.00 22.3 -5.4 61.75 5.4
2017 12 23 17:00 271.7 0.0 0.00 21.4 -5.9 62.89 3.6
2017 12 23 18:00 271.8 0.0 0.00 20.5 -6.4 65.85 2.8
2017 12 23 19:00 271.8 0.0 0.00 20.0 -6.7 66.8 3.6
2017 12 23 20:00 271.8 0.0 0.00 19.9 -6.7 67.59 3.4
2017 12 23 21:00 271.8 0.0 0.00 20.1 -6.6 67.55 0.9
2017 12 23 22:00 271.8 0.0 0.00 20.5 -6.4 66.35 1.1
2017 12 23 23:00 271.9 0.0 0.00 20.8 -6.2 67.05 2.6
2017 12 23 24:00 275.7 0.0 0.00 19.4 -7.0 85.1 4.4
2017 12 24 1:00 276.6 0.0 0.00 18.6 -7.4 93.2 5.9
2017 12 24 2:00 277.0 0.0 0.00 18.4 -7.6 93.4 3.9
2017 12 24 3:00 277.2 0.0 0.00 18.2 -7.6 93.4 3.8
2017 12 24 4:00 277.3 0.0 0.00 17.9 -7.8 93.3 3.3
2017 12 24 5:00 277.3 0.0 0.00 17.8 -7.9 93.3 3.3
2017 12 24 6:00 277.3 0.0 0.00 17.6 -8.0 93.2 2.8
2017 12 24 7:00 277.3 0.0 0.00 17.7 -8.0 93.2 1.9
2017 12 24 8:00 277.3 0.0 0.00 17.3 -8.2 92.9 0.7
2017 12 24 9:00 277.3 0.0 0.00 17.4 -8.1 93 4.3
2017 12 24 10:00 276.8 0.0 0.00 17.7 -8.0 92.9 7.1
2017 12 24 11:00 272.7 0.0 0.00 17.6 -8.0 92.3 9.4
2017 12 24 12:00 272.2 0.0 0.00 18.0 -7.8 90.1 10.0
2017 12 24 13:00 271.7 0.0 0.00 19.3 -7.1 82.1 12.0
2017 12 24 14:00 271.7 0.0 0.00 19.8 -6.8 76.14 9.2
2017 12 24 15:00 271.7 0.0 0.00 20.9 -6.2 68.63 10.0
2017 12 24 16:00 271.7 0.0 0.00 21.1 -6.0 65.55 11.5
2017 12 24 17:00 272.1 0.0 0.00 19.8 -6.8 65.78 11.4
2017 12 24 18:00 272.3 0.0 0.00 18.3 -7.6 66.24 9.4
2017 12 24 19:00 272.7 0.0 0.00 15.2 -9.3 71.14 4.5
2017 12 24 20:00 273.1 0.0 0.00 12.8 -10.7 75.67 5.4
2017 12 24 21:00 273.2 0.0 0.00 12.1 -11.1 75.99 5.6
2017 12 24 22:00 273.2 0.0 0.00 11.7 -11.3 76.39 6.7
2017 12 24 23:00 273.0 0.0 0.00 11.2 -11.6 76.04 7.4
2017 12 24 24:00 273.1 0.0 0.00 10.5 -11.9 75.96 6.6
2017 12 25 1:00 273.3 0.0 0.00 9.8 -12.3 77.53 5.9
2017 12 25 2:00 273.3 0.0 0.00 9.1 -12.7 78.29 6.9
2017 12 25 3:00 273.0 0.0 0.00 9.7 -12.4 76.13 7.4
2017 12 25 4:00 273.2 0.0 0.00 8.5 -13.0 78.1 6.3
2017 12 25 5:00 272.8 0.0 0.00 9.5 -12.5 77.95 6.1
2017 12 25 6:00 273.2 0.0 0.00 9.2 -12.7 78.56 3.4
2017 12 25 7:00 273.6 0.0 0.00 8.0 -13.3 81.4 3.2
2017 12 25 8:00 274.4 0.0 0.00 6.8 -14.0 83.5 4.6
2017 12 25 9:00 274.3 0.0 0.00 6.8 -14.0 82 5.0
2017 12 25 10:00 271.9 0.0 0.00 9.9 -12.3 75.36 6.3
2017 12 25 11:00 271.2 0.0 0.00 14.1 -9.9 64.69 8.2
2017 12 25 12:00 271.1 0.0 0.00 15.8 -9.0 62.03 10.6
2017 12 25 13:00 271.1 0.0 0.00 16.5 -8.6 54.64 12.2
2017 12 25 14:00 271.1 0.0 0.00 16.3 -8.7 51.83 10.3
2017 12 25 15:00 271.1 0.0 0.00 16.3 -8.7 50.39 9.5
2017 12 25 16:00 271.1 0.0 0.00 15.6 -9.1 48.83 7.8
2017 12 25 17:00 271.1 0.0 0.00 14.5 -9.7 45.68 5.4
2017 12 25 18:00 271.1 0.0 0.00 13.3 -10.4 52.93 3.4
2017 12 25 19:00 271.2 0.0 0.00 12.4 -10.9 56.51 3.5
2017 12 25 20:00 271.9 0.0 0.00 10.3 -12.1 60.64 3.3
2017 12 25 21:00 271.9 0.0 0.00 9.0 -12.8 59.97 3.7
2017 12 25 22:00 271.9 0.0 0.00 8.4 -13.1 62.82 4.5
2017 12 25 23:00 271.9 0.0 0.00 7.4 -13.6 75.53 5.4
2017 12 25 24:00 272.2 0.0 0.00 6.3 -14.3 78.45 5.3
2017 12 26 1:00 272.6 0.0 0.00 5.0 -15.0 79.06 4.9
2017 12 26 2:00 272.7 0.0 0.00 5.1 -15.0 78.81 4.5
2017 12 26 3:00 272.6 0.0 0.00 5.2 -14.9 75.19 5.2
2017 12 26 4:00 272.7 0.0 0.00 4.6 -15.2 78.17 5.4
2017 12 26 5:00 272.7 0.0 0.00 3.5 -15.9 75.76 5.2
2017 12 26 6:00 272.2 0.0 0.00 3.2 -16.0 71.02 5.0
2017 12 26 7:00 272.0 0.0 0.00 2.7 -16.3 65.83 5.5
2017 12 26 8:00 272.0 0.0 0.00 1.3 -17.1 64.58 2.9
2017 12 26 9:00 272.0 0.0 0.00 2.1 -16.6 63.35 3.3
2017 12 26 10:00 270.9 0.0 0.00 3.2 -16.0 59.83 2.9
2017 12 26 11:00 270.4 0.0 0.00 4.9 -15.0 53.17 1.6
2017 12 26 12:00 270.1 0.0 0.00 5.9 -14.5 49.76 0.8
2017 12 26 13:00 270.4 0.0 0.00 6.3 -14.3 48.53 3.0
2017 12 26 14:00 270.4 0.0 0.00 6.5 -14.2 47.49 4.4
2017 12 26 15:00 270.9 0.0 0.00 6.2 -14.3 49.59 5.8
2017 12 26 16:00 271.2 0.0 0.00 5.6 -14.7 53.06 6.0
2017 12 26 17:00 271.3 0.0 0.00 5.0 -15.0 55.05 2.0
2017 12 26 18:00 271.9 0.0 0.00 4.0 -15.5 57.71 0.0
2017 12 26 19:00 272.0 0.0 0.00 2.7 -16.3 60.95 2.9
2017 12 26 20:00 272.0 0.0 0.00 1.3 -17.0 64.64 3.0
2017 12 26 21:00 272.1 0.0 0.00 -0.4 -18.0 66.01 4.9
2017 12 26 22:00 272.1 0.0 0.00 -1.6 -18.6 65.82 5.5
2017 12 26 23:00 272.1 0.0 0.00 -2.8 -19.3 66.12 4.7
2017 12 26 24:00 272.1 0.0 0.00 -4.0 -20.0 68.39 6.1
2017 12 27 1:00 272.1 0.0 0.00 -4.2 -20.1 68.87 5.8
2017 12 27 2:00 272.1 0.0 0.00 -5.6 -20.9 70.08 6.6
2017 12 27 3:00 272.2 0.0 0.00 -6.3 -21.3 70.79 6.3
2017 12 27 4:00 272.6 0.0 0.00 -6.6 -21.4 72.23 3.7
2017 12 27 5:00 273.1 0.0 0.00 -7.2 -21.8 74.8 0.8
2017 12 27 6:00 273.8 0.0 0.00 -7.3 -21.8 74.4 0.6
2017 12 27 7:00 274.5 0.0 0.00 -10.1 -23.4 76.74 3.4
2017 12 27 8:00 275.1 0.0 0.00 -11.3 -24.0 78.16 2.8
2017 12 27 9:00 274.6 0.0 0.00 -8.3 -22.4 74.82 1.2
2017 12 27 10:00 272.3 0.0 0.00 -5.2 -20.6 69 2.6
2017 12 27 11:00 270.3 0.0 0.00 -0.7 -18.1 60.18 0.0
2017 12 27 12:00 269.9 0.0 0.00 2.0 -16.6 56.91 0.4
2017 12 27 13:00 270.3 0.0 0.00 2.3 -16.5 58.71 3.4
2017 12 27 14:00 270.4 0.0 0.00 3.8 -15.7 54.54 0.8
2017 12 27 15:00 270.5 0.0 0.00 4.8 -15.1 50.96 0.9
2017 12 27 16:00 270.6 0.0 0.00 5.1 -14.9 51.32 2.8
2017 12 27 17:00 271.2 0.0 0.00 4.2 -15.4 54.37 0.7
2017 12 27 18:00 271.3 0.0 0.00 4.0 -15.5 57.21 1.8
2017 12 27 19:00 271.3 0.0 0.00 3.5 -15.9 58.21 5.9
2017 12 27 20:00 271.3 0.0 0.00 3.3 -15.9 60.33 7.8
2017 12 27 21:00 271.3 0.0 0.00 3.2 -16.0 61.42 8.2
2017 12 27 22:00 271.3 0.0 0.00 3.6 -15.8 59.45 5.9
2017 12 27 23:00 271.9 0.0 0.00 3.5 -15.9 70.65 6.1
2017 12 27 24:00 272.0 0.0 0.00 3.8 -15.7 69.7 6.8
2017 12 28 1:00 272.0 0.0 0.00 4.2 -15.5 67.36 7.1
2017 12 28 2:00 272.0 0.0 0.00 4.4 -15.3 67.52 7.4
2017 12 28 3:00 272.0 0.0 0.00 4.8 -15.1 68.13 6.3
2017 12 28 4:00 272.0 0.0 0.00 5.1 -14.9 69.15 7.4
2017 12 28 5:00 272.0 0.0 0.00 5.4 -14.8 70.9 8.0
2017 12 28 6:00 272.0 0.0 0.00 5.9 -14.5 72.41 8.8
2017 12 28 7:00 272.0 0.0 0.00 6.7 -14.0 72.51 8.2
2017 12 28 8:00 272.0 0.0 0.00 7.4 -13.7 72.63 7.9
2017 12 28 9:00 271.9 0.0 0.00 8.1 -13.3 73.1 7.9
2017 12 28 10:00 271.9 0.0 0.00 9.3 -12.6 72.12 7.0
2017 12 28 11:00 271.6 0.0 0.00 10.5 -11.9 74.1 7.2
2017 12 28 12:00 271.2 0.0 0.00 11.8 -11.3 71.21 9.5
2017 12 28 13:00 271.2 0.0 0.00 13.3 -10.4 75.85 9.2
2017 12 28 14:00 271.1 0.0 0.00 14.9 -9.5 73.11 5.9
2017 12 28 15:00 271.1 0.0 0.00 16.2 -8.8 67.98 4.3
2017 12 28 16:00 271.4 0.0 0.00 16.4 -8.7 70.95 3.2
2017 12 28 17:00 272.1 0.0 0.00 15.0 -9.4 72.51 0.2
2017 12 28 18:00 272.8 0.0 0.00 13.8 -10.1 74.76 0.0
2017 12 28 19:00 273.3 0.0 0.00 12.3 -10.9 78.35 0.0
2017 12 28 20:00 273.6 0.0 0.00 11.5 -11.4 81 0.1
2017 12 28 21:00 273.3 0.0 0.00 12.8 -10.7 78.67 0.1
2017 12 28 22:00 273.3 0.0 0.00 12.8 -10.7 80.1 0.0
2017 12 28 23:00 272.8 0.0 0.00 13.5 -10.3 79.55 2.0
2017 12 28 24:00 272.9 0.0 0.00 13.5 -10.3 80.5 2.4
2017 12 29 1:00 273.4 0.0 0.00 12.7 -10.7 82.1 0.1
2017 12 29 2:00 273.3 0.0 0.00 13.1 -10.5 81.4 1.1
2017 12 29 3:00 273.3 0.0 0.00 12.2 -11.0 81.9 0.5
2017 12 29 4:00 273.3 0.0 0.00 11.6 -11.3 82.5 0.2
2017 12 29 5:00 273.3 0.0 0.00 11.5 -11.4 83.6 2.7
2017 12 29 6:00 272.9 0.0 0.00 11.6 -11.4 82.4 3.8
2017 12 29 7:00 272.6 0.0 0.00 11.8 -11.2 80.9 3.5
2017 12 29 8:00 273.0 0.0 0.00 11.9 -11.2 82.8 3.2
2017 12 29 9:00 272.6 0.0 0.00 12.1 -11.1 83.5 3.8
2017 12 29 10:00 272.5 0.0 0.00 12.6 -10.8 83.8 5.3
2017 12 29 11:00 272.5 0.0 0.00 13.4 -10.4 83.4 6.4
2017 12 29 12:00 272.3 0.0 0.00 14.6 -9.6 81.1 6.7
2017 12 29 13:00 271.8 0.0 0.00 15.9 -8.9 79.45 7.4
2017 12 29 14:00 272.2 0.0 0.00 16.8 -8.4 79 8.2
2017 12 29 15:00 272.4 0.0 0.00 17.6 -8.0 78.5 6.9
2017 12 29 16:00 272.5 0.0 0.00 18.1 -7.7 80 5.8
2017 12 29 17:00 272.8 0.0 0.00 18.1 -7.7 82.4 5.7
2017 12 29 18:00 281.0 0.0 0.00 17.6 -8.0 87.1 4.9
2017 12 29 19:00 Wet 299.8 0.0 0.00 16.8 -8.5 92.8 5.9
2017 12 29 20:00 Wet 315.0 0.0 0.00 16.1 -8.9 93.8 6.2
2017 12 29 21:00 Wet 321.1 0.0 0.00 15.5 -9.2 93.2 5.9
2017 12 29 22:00 Wet 322.3 0.0 0.00 15.2 -9.3 92.8 4.8
2017 12 29 23:00 Wet 322.3 0.0 0.00 14.1 -9.9 91.7 6.3
2017 12 29 24:00 Wet 322.4 0.0 0.00 11.4 -11.4 87.6 6.2
2017 12 30 1:00 Wet 322.4 0.0 0.00 9.9 -12.3 84.8 6.1
2017 12 30 2:00 Wet 322.1 0.0 0.00 8.3 -13.1 82.5 7.4
2017 12 30 3:00 Wet 321.8 0.0 0.00 6.8 -14.0 79.31 8.0
2017 12 30 4:00 Wet 321.8 0.0 0.00 5.6 -14.6 77.92 7.4
2017 12 30 5:00 Wet 321.8 0.0 0.00 4.3 -15.4 76.76 7.1
2017 12 30 6:00 Wet 321.8 0.0 0.00 3.6 -15.8 73 7.3
2017 12 30 7:00 Wet 321.9 0.0 0.00 2.9 -16.2 69.14 7.2
2017 12 30 8:00 Wet 321.9 0.0 0.00 2.3 -16.5 68 6.8
2017 12 30 9:00 Wet 321.5 0.0 0.00 1.4 -17.0 63.97 6.7
2017 12 30 10:00 Wet 321.2 0.0 0.00 1.5 -16.9 64.16 7.5
2017 12 30 11:00 Wet 321.0 0.0 0.00 1.5 -16.9 61.84 7.7
2017 12 30 12:00 Wet 320.5 0.0 0.00 1.4 -17.0 63.65 7.6
2017 12 30 13:00 Wet 320.0 0.0 0.00 1.8 -16.8 63.47 6.5
2017 12 30 14:00 Wet 319.6 0.0 0.00 2.5 -16.4 60.99 6.1
2017 12 30 15:00 Wet 319.1 0.0 0.00 1.9 -16.7 61.97 6.0
2017 12 30 16:00 Wet 318.7 0.0 0.00 2.1 -16.6 59.87 4.4
2017 12 30 17:00 Wet 318.4 0.0 0.00 1.7 -16.8 58.93 3.8
2017 12 30 18:00 Wet 317.9 0.0 0.00 1.7 -16.8 63.39 4.9
2017 12 30 19:00 Wet 317.3 0.0 0.00 1.2 -17.1 63.21 6.0
2017 12 30 20:00 Wet 316.7 0.0 0.00 0.7 -17.4 60.64 5.9
2017 12 30 21:00 Wet 315.9 0.0 0.00 0.3 -17.6 63.02 4.6
2017 12 30 22:00 Wet 315.3 0.0 0.00 -0.4 -18.0 66.06 4.1
2017 12 30 23:00 Wet 314.9 0.0 0.00 -1.0 -18.3 69.67 4.5
2017 12 30 24:00 Wet 314.4 0.0 0.00 -1.7 -18.7 69.43 5.4
2017 12 31 1:00 Wet 313.9 0.0 0.00 -2.4 -19.1 71.07 5.8
2017 12 31 2:00 Wet 313.8 0.0 0.00 -3.4 -19.7 73.51 5.7
2017 12 31 3:00 Wet 314.1 0.0 0.00 -4.0 -20.0 78.79 3.2
2017 12 31 4:00 Wet 313.9 0.0 0.00 -4.1 -20.1 77.9 4.5
2017 12 31 5:00 Wet 313.9 0.0 0.00 -5.3 -20.7 76.45 4.3
2017 12 31 6:00 Wet 314.5 0.0 0.00 -7.0 -21.7 76.66 1.6
2017 12 31 7:00 Wet 314.6 0.0 0.00 -8.2 -22.3 76.52 5.3
2017 12 31 8:00 Wet 314.5 0.0 0.00 -9.1 -22.8 76.15 7.1
2017 12 31 9:00 Wet 313.8 0.0 0.00 -9.0 -22.8 74.8 6.6
2017 12 31 10:00 Wet 313.1 0.0 0.00 -7.3 -21.8 71.33 6.3
2017 12 31 11:00 Wet 312.2 0.0 0.00 -5.4 -20.8 68.59 6.7
2017 12 31 12:00 Wet 311.3 0.0 0.00 -3.5 -19.7 67.21 7.0
2017 12 31 13:00 Wet 310.3 0.0 0.00 -2.7 -19.3 67.24 9.2
2017 12 31 14:00 Wet 308.7 0.0 0.00 -1.1 -18.4 65.47 8.2
2017 12 31 15:00 Wet 307.3 0.0 0.00 0.5 -17.5 62.38 6.9
2017 12 31 16:00 Wet 306.1 0.0 0.00 0.5 -17.5 60.35 6.4
2017 12 31 17:00 Wet 305.0 0.0 0.00 -1.2 -18.4 61.65 6.8
2017 12 31 18:00 Wet 304.9 0.0 0.00 -3.3 -19.6 65.3 5.0
2017 12 31 19:00 Wet 304.9 0.0 0.00 -6.3 -21.3 68.91 5.5
2017 12 31 20:00 Wet 304.3 0.0 0.00 -7.6 -22.0 65.87 6.4
2017 12 31 21:00 Wet 304.4 0.0 0.00 -9.9 -23.3 68.62 5.6
2017 12 31 22:00 Wet 304.4 0.0 0.00 -11.8 -24.4 69.38 6.4
2017 12 31 23:00 Wet 304.4 0.0 0.00 -13.3 -25.1 70.07 4.4
2017 12 31 24:00 Wet 304.5 0.0 0.00 -14.7 -25.9 71.48 4.2
2018 01 01 1:00 Wet 304.5 0.0 0.00 -15.2 -26.2 71.45 6.1
2018 01 01 2:00 Wet 304.5 0.0 0.00 -15.8 -26.6 70.93 5.7
2018 01 01 3:00 Wet 304.5 0.0 0.00 -15.9 -26.6 70.98 7.8
2018 01 01 4:00 Wet 304.5 0.0 0.00 -16.2 -26.8 70.64 6.0
2018 01 01 5:00 Wet 304.5 0.0 0.00 -17.1 -27.3 70.73 5.1
2018 01 01 6:00 Wet 304.5 0.0 0.00 -17.9 -27.7 70.58 6.2
2018 01 01 7:00 Wet 304.8 0.0 0.00 -18.6 -28.1 71.02 6.4
2018 01 01 8:00 Wet 304.7 0.0 0.00 -18.7 -28.2 70.87 7.6
2018 01 01 9:00 Wet 304.2 0.0 0.00 -17.8 -27.6 69.61 8.1
2018 01 01 10:00 Wet 303.2 0.0 0.00 -14.9 -26.1 66.38 7.4
2018 01 01 11:00 Wet 301.7 0.0 0.00 -11.7 -24.3 64.17 6.4
2018 01 01 12:00 Wet 300.0 0.0 0.00 -8.4 -22.5 62.49 5.7
2018 01 01 13:00 Wet 298.2 0.0 0.00 -5.4 -20.8 60.61 5.5
2018 01 01 14:00 Wet 296.6 0.0 0.00 -2.7 -19.3 58.11 5.8
2018 01 01 15:00 Wet 295.0 0.0 0.00 -0.6 -18.1 55.61 5.6
2018 01 01 16:00 Wet 293.6 0.0 0.00 0.2 -17.7 53.97 5.4
2018 01 01 17:00 Wet 292.5 0.0 0.00 -0.5 -18.0 55.71 3.8
2018 01 01 18:00 Wet 292.5 0.0 0.00 -1.9 -18.8 58.35 0.3
2018 01 01 19:00 Wet 292.5 0.0 0.00 -3.0 -19.4 61.47 0.0
2018 01 01 20:00 Wet 292.2 0.0 0.00 -3.6 -19.8 63.59 0.6
2018 01 01 21:00 Wet 292.0 0.0 0.00 -4.8 -20.4 65.12 3.5
2018 01 01 22:00 Wet 292.0 0.0 0.00 -6.4 -21.3 67.69 2.3
2018 01 01 23:00 Wet 292.3 0.0 0.00 -7.5 -21.9 70.16 1.3
2018 01 01 24:00 Wet 292.7 0.0 0.00 -8.6 -22.6 72.56 0.3
2018 01 02 1:00 Wet 292.8 0.0 0.00 -9.3 -22.9 73.46 0.5
2018 01 02 2:00 Wet 293.4 0.0 0.00 -10.9 -23.8 75.71 0.5
2018 01 02 3:00 Wet 293.7 0.0 0.00 -12.3 -24.6 77.34 2.4
2018 01 02 4:00 Wet 294.2 0.0 0.00 -12.8 -24.9 77.07 6.4
2018 01 02 5:00 Wet 294.3 0.0 0.00 -13.1 -25.1 76.63 3.9
2018 01 02 6:00 Wet 294.9 0.0 0.00 -13.9 -25.5 77.35 4.5
2018 01 02 7:00 Wet 294.9 0.0 0.00 -12.9 -24.9 74.25 4.7
2018 01 02 8:00 Wet 295.3 0.0 0.00 -14.4 -25.8 76.2 4.8
2018 01 02 9:00 Wet 294.6 0.0 0.00 -11.9 -24.4 75.11 3.0
2018 01 02 10:00 Wet 293.1 0.0 0.00 -6.3 -21.3 71.04 4.7
2018 01 02 11:00 Wet 289.9 0.0 0.00 0.1 -17.7 56.21 8.1
2018 01 02 12:00 Wet 286.7 0.0 0.00 4.4 -15.3 51.44 7.6
2018 01 02 13:00 283.4 0.0 0.00 7.2 -13.8 51.67 8.4
2018 01 02 14:00 280.1 0.0 0.00 9.4 -12.6 50.92 9.1
2018 01 02 15:00 277.3 0.0 0.00 11.2 -11.5 49.35 9.6
2018 01 02 16:00 274.7 0.0 0.00 12.8 -10.7 47.52 9.7
2018 01 02 17:00 273.1 0.0 0.00 13.0 -10.5 48.83 7.5
2018 01 02 18:00 272.5 0.0 0.00 11.8 -11.2 51.47 6.1
2018 01 02 19:00 272.0 0.0 0.00 12.3 -10.9 50.75 8.6
2018 01 02 20:00 271.3 0.0 0.00 13.8 -10.1 47.24 10.7
2018 01 02 21:00 271.2 0.0 0.00 14.7 -9.6 45.86 12.0
2018 01 02 22:00 271.2 0.0 0.00 15.6 -9.1 45.93 13.0
2018 01 02 23:00 271.1 0.0 0.00 16.5 -8.6 50.13 10.7
2018 01 02 24:00 271.6 0.0 0.00 16.7 -8.5 62.85 9.5
2018 01 03 1:00 271.3 0.0 0.00 17.6 -8.0 56.99 7.2
2018 01 03 2:00 271.1 0.0 0.00 18.6 -7.5 55.35 9.5
2018 01 03 3:00 271.4 0.0 0.00 18.5 -7.5 60 7.9
2018 01 03 4:00 271.8 0.0 0.00 18.9 -7.3 67.2 8.3
2018 01 03 5:00 271.8 0.0 0.00 19.6 -6.9 70.95 10.5
2018 01 03 6:00 272.1 0.0 0.00 18.8 -7.3 73.74 8.5
2018 01 03 7:00 272.5 0.0 0.00 16.9 -8.4 76.01 9.9
2018 01 03 8:00 272.3 0.0 0.00 12.6 -10.8 67.07 14.2
2018 01 03 9:00 271.9 0.0 0.00 9.8 -12.3 67.86 12.3
2018 01 03 10:00 271.7 0.0 0.00 9.8 -12.3 67.19 13.1
2018 01 03 11:00 271.3 0.0 0.00 10.1 -12.2 65.67 13.5
2018 01 03 12:00 271.1 0.0 0.00 10.1 -12.2 65.46 12.6
2018 01 03 13:00 271.2 0.0 0.00 10.1 -12.2 63.17 12.7
2018 01 03 14:00 271.4 0.0 0.00 10.5 -11.9 62.77 13.6
2018 01 03 15:00 271.7 0.0 0.00 11.1 -11.6 60.98 11.9
2018 01 03 16:00 271.8 0.0 0.00 10.7 -11.9 60.82 11.0
2018 01 03 17:00 271.8 0.0 0.00 9.8 -12.3 61 8.8
2018 01 03 18:00 271.9 0.0 0.00 7.9 -13.4 64.75 4.1
2018 01 03 19:00 272.0 0.0 0.00 6.1 -14.4 67.75 5.4
2018 01 03 20:00 272.5 0.0 0.00 4.6 -15.2 69.63 5.1
2018 01 03 21:00 272.7 0.0 0.00 3.6 -15.8 71.17 6.0
2018 01 03 22:00 272.7 0.0 0.00 2.9 -16.2 72.42 4.6
2018 01 03 23:00 272.7 0.0 0.00 1.6 -16.9 74.47 4.4
2018 01 03 24:00 273.1 0.0 0.00 -0.2 -17.9 77.13 3.1
2018 01 04 1:00 273.5 0.0 0.00 -1.0 -18.4 78.07 4.1
2018 01 04 2:00 273.5 0.0 0.00 -0.9 -18.3 77.3 3.9
2018 01 04 3:00 273.8 0.0 0.00 -1.3 -18.5 77.39 1.8
2018 01 04 4:00 274.2 0.0 0.00 -2.2 -19.0 78.65 1.1
2018 01 04 5:00 274.8 0.0 0.00 -2.8 -19.3 79.26 0.9
2018 01 04 6:00 275.2 0.0 0.00 -3.8 -19.9 79.78 4.6
2018 01 04 7:00 275.7 0.0 0.00 -4.0 -20.0 80.3 3.0
2018 01 04 8:00 276.2 0.0 0.00 -4.2 -20.1 80.3 0.3
2018 01 04 9:00 275.4 0.0 0.00 -2.1 -18.9 77.83 1.5
2018 01 04 10:00 273.5 0.0 0.00 0.2 -17.6 74.4 1.1
2018 01 04 11:00 269.9 0.0 0.00 4.5 -15.3 65.26 0.2
2018 01 04 12:00 270.1 0.0 0.00 6.1 -14.4 64.17 0.8
2018 01 04 13:00 270.4 0.0 0.00 6.7 -14.1 63.75 3.3
2018 01 04 14:00 270.4 0.0 0.00 8.3 -13.2 59.75 0.9
2018 01 04 15:00 270.3 0.0 0.00 9.5 -12.5 58.46 0.0
2018 01 04 16:00 270.7 0.0 0.00 10.2 -12.1 58.43 0.0
2018 01 04 17:00 271.0 0.0 0.00 10.3 -12.1 57.87 0.0
2018 01 04 18:00 271.2 0.0 0.00 10.3 -12.0 61.13 0.0
2018 01 04 19:00 271.2 0.0 0.00 10.4 -12.0 62.05 0.0
2018 01 04 20:00 271.3 0.0 0.00 10.8 -11.8 62.3 0.0
2018 01 04 21:00 271.5 0.0 0.00 11.1 -11.6 62.2 0.0
2018 01 04 22:00 271.8 0.0 0.00 11.0 -11.7 66.05 0.8
2018 01 04 23:00 271.9 0.0 0.00 10.6 -11.9 67.07 0.0
2018 01 04 24:00 271.9 0.0 0.00 10.7 -11.8 68.82 0.6
2018 01 05 1:00 271.9 0.0 0.00 10.6 -11.9 69.4 3.9
2018 01 05 2:00 271.9 0.0 0.00 10.2 -12.1 71.08 5.0
2018 01 05 3:00 271.9 0.0 0.00 9.8 -12.4 70.13 6.2
2018 01 05 4:00 271.9 0.0 0.00 9.2 -12.6 73.93 5.0
2018 01 05 5:00 272.0 0.0 0.00 9.4 -12.6 73.8 2.6
2018 01 05 6:00 271.9 0.0 0.00 9.2 -12.7 72.16 4.9
2018 01 05 7:00 271.9 0.0 0.00 9.0 -12.8 72.27 5.2
2018 01 05 8:00 272.2 0.0 0.00 8.8 -12.9 74.41 6.3
2018 01 05 9:00 271.9 0.0 0.00 8.8 -12.9 75.66 7.2
2018 01 05 10:00 271.9 0.0 0.00 8.9 -12.8 74.08 8.1
2018 01 05 11:00 271.2 0.0 0.00 9.8 -12.4 71.02 7.2
2018 01 05 12:00 270.5 0.0 0.00 10.9 -11.7 62.66 6.2
2018 01 05 13:00 270.4 0.0 0.00 12.0 -11.1 56.14 5.8
2018 01 05 14:00 270.4 0.0 0.00 13.5 -10.3 52.6 4.3
2018 01 05 15:00 270.6 0.0 0.00 14.2 -9.9 52.67 4.0
2018 01 05 16:00 271.1 0.0 0.00 13.3 -10.4 54.91 5.0
2018 01 05 17:00 271.3 0.0 0.00 12.1 -11.0 56.2 1.0
2018 01 05 18:00 271.9 0.0 0.00 10.1 -12.2 60.57 1.2
2018 01 05 19:00 271.9 0.0 0.00 8.7 -13.0 63.67 4.3
2018 01 05 20:00 272.1 0.0 0.00 6.3 -14.3 67.06 3.0
2018 01 05 21:00 272.7 0.0 0.00 3.8 -15.7 69.2 1.8
2018 01 05 22:00 272.7 0.0 0.00 2.6 -16.4 69.24 5.0
2018 01 05 23:00 272.7 0.0 0.00 0.9 -17.3 72.85 2.2
2018 01 05 24:00 273.4 0.0 0.00 -0.1 -17.9 75.19 1.7
2018 01 06 1:00 273.5 0.0 0.00 -1.1 -18.4 77.38 2.2
2018 01 06 2:00 273.7 0.0 0.00 -1.9 -18.8 78.9 2.0
2018 01 06 3:00 274.3 0.0 0.00 -2.8 -19.3 80.7 2.1
2018 01 06 4:00 274.9 0.0 0.00 -3.2 -19.6 80.8 3.1
2018 01 06 5:00 275.6 0.0 0.00 -3.6 -19.8 81.4 0.4
2018 01 06 6:00 276.2 0.0 0.00 -4.9 -20.5 82.1 0.3
2018 01 06 7:00 276.9 0.0 0.00 -5.1 -20.6 82.8 0.8
2018 01 06 8:00 277.5 0.0 0.00 -4.9 -20.5 81.9 0.3
2018 01 06 9:00 276.9 0.0 0.00 -3.4 -19.6 81.2 2.2
2018 01 06 10:00 275.5 0.0 0.00 1.0 -17.2 75.35 5.1
2018 01 06 11:00 271.9 0.0 0.00 5.3 -14.8 65.72 6.2
2018 01 06 12:00 270.5 0.0 0.00 9.1 -12.7 55.96 5.9
2018 01 06 13:00 270.4 0.0 0.00 12.4 -10.9 48.61 6.8
2018 01 06 14:00 270.4 0.0 0.00 14.8 -9.6 47.13 8.8
2018 01 06 15:00 270.4 0.0 0.00 16.1 -8.8 48.68 8.2
2018 01 06 16:00 270.7 0.0 0.00 17.1 -8.3 49.47 8.2
2018 01 06 17:00 271.1 0.0 0.00 16.1 -8.8 52.47 7.0
2018 01 06 18:00 271.1 0.0 0.00 15.1 -9.4 54.06 8.1
2018 01 06 19:00 271.1 0.0 0.00 15.6 -9.1 55.34 9.2
2018 01 06 20:00 271.1 0.0 0.00 15.6 -9.1 57.11 8.7
2018 01 06 21:00 271.1 0.0 0.00 16.4 -8.6 53.17 11.2
2018 01 06 22:00 271.1 0.0 0.00 16.8 -8.5 52.53 10.7
2018 01 06 23:00 271.1 0.0 0.00 17.1 -8.3 52.33 11.1
2018 01 06 24:00 271.1 0.0 0.00 18.0 -7.8 51.86 11.6
2018 01 07 1:00 271.1 0.0 0.00 19.2 -7.1 51.52 11.7
2018 01 07 2:00 271.1 0.0 0.00 20.1 -6.6 52.95 10.2
2018 01 07 3:00 271.1 0.0 0.00 21.4 -5.9 53.5 10.2
2018 01 07 4:00 271.1 0.0 0.00 22.4 -5.3 54.61 10.4
2018 01 07 5:00 271.0 0.0 0.00 23.7 -4.6 57.85 9.7
2018 01 07 6:00 271.0 0.0 0.00 25.8 -3.4 59.96 9.9
2018 01 07 7:00 271.0 0.0 0.00 26.9 -2.8 60.35 10.2
2018 01 07 8:00 271.0 0.0 0.00 27.7 -2.4 62.22 10.0
2018 01 07 9:00 270.9 0.0 0.00 28.9 -1.7 61.28 11.7
2018 01 07 10:00 270.9 0.0 0.00 30.6 -0.8 60.92 13.1
2018 01 07 11:00 270.9 0.0 0.00 31.8 -0.1 63.97 11.6
2018 01 07 12:00 271.6 0.0 0.00 32.1 0.0 72.67 11.0
2018 01 07 13:00 273.9 0.0 0.25 32.0 -0.0 88.4 11.3
2018 01 07 14:00 271.6 0.0 0.25 31.8 -0.1 94.1 9.4
2018 01 07 15:00 271.8 0.0 0.00 32.3 0.1 95.6 8.1
2018 01 07 16:00 268.5 0.0 0.00 32.3 0.2 96.4 7.7
2018 01 07 17:00 254.2 0.0 0.00 32.3 0.2 97.3 6.7
2018 01 07 18:00 251.0 0.0 0.00 32.4 0.2 98 5.8
2018 01 07 19:00 248.7 0.0 0.00 32.4 0.2 98.5 4.8
2018 01 07 20:00 235.5 0.0 0.00 32.3 0.2 99.1 4.1
2018 01 07 21:00 230.3 0.0 0.00 32.2 0.1 99.8 4.4
2018 01 07 22:00 262.2 0.0 0.00 32.1 0.1 100 4.7
2018 01 07 23:00 278.0 0.0 0.00 32.2 0.1 100 6.3
2018 01 07 24:00 257.3 0.0 0.00 32.1 0.1 99.8 7.5
2018 01 08 1:00 262.9 0.0 0.00 32.0 0.0 97.6 6.9
2018 01 08 2:00 248.9 0.0 0.00 31.3 -0.4 97.5 5.8
2018 01 08 3:00 262.9 0.0 0.00 30.2 -1.0 93.6 8.2
2018 01 08 4:00 267.4 0.0 0.00 29.6 -1.3 93.8 5.6
2018 01 08 5:00 272.8 0.0 0.00 29.3 -1.5 95.9 6.1
2018 01 08 6:00 272.8 0.0 0.00 29.0 -1.7 96.7 5.6
2018 01 08 7:00 275.6 0.0 0.00 28.8 -1.8 94.7 6.3
2018 01 08 8:00 275.8 0.0 0.00 29.2 -1.5 92 4.0
2018 01 08 9:00 275.7 0.0 0.00 29.3 -1.5 92.5 5.5
2018 01 08 10:00 274.8 0.0 0.00 29.1 -1.6 94 5.7
2018 01 08 11:00 273.4 0.0 0.00 29.9 -1.2 94.1 5.0
2018 01 08 12:00 271.9 0.0 0.00 32.1 0.1 88.8 3.1
2018 01 08 13:00 271.9 0.0 0.00 34.6 1.4 82.6 5.0
2018 01 08 14:00 271.5 0.0 0.00 37.4 3.0 74.86 4.9
2018 01 08 15:00 271.9 0.0 0.00 39.1 3.9 70.44 4.6
2018 01 08 16:00 272.1 0.0 0.00 39.8 4.3 68.78 4.7
2018 01 08 17:00 272.8 0.0 0.00 37.7 3.2 74.43 4.0
2018 01 08 18:00 275.0 0.0 0.00 33.9 1.1 83.9 3.9
2018 01 08 19:00 258.8 0.0 0.00 31.8 -0.1 89 3.9
2018 01 08 20:00 266.3 0.0 0.00 30.7 -0.7 91.8 4.1
2018 01 08 21:00 271.6 0.0 0.00 29.6 -1.3 94.4 4.0
2018 01 08 22:00 274.6 0.0 0.00 28.5 -2.0 96.1 4.1
2018 01 08 23:00 274.5 0.0 0.00 28.2 -2.1 97.1 4.0
2018 01 08 24:00 272.4 0.0 0.00 29.3 -1.5 95.8 4.3
2018 01 09 1:00 274.0 0.0 0.00 29.4 -1.5 94.4 4.8
2018 01 09 2:00 278.2 0.0 0.00 28.2 -2.1 94.3 4.8
2018 01 09 3:00 280.5 0.0 0.00 26.9 -2.8 94.4 5.0
2018 01 09 4:00 281.6 0.0 0.00 26.6 -3.0 96.1 4.9
2018 01 09 5:00 282.3 0.0 0.00 26.9 -2.8 97 5.1
2018 01 09 6:00 283.4 0.0 0.00 27.3 -2.6 96.7 3.6
2018 01 09 7:00 283.9 0.0 0.00 27.0 -2.8 97.3 3.6
2018 01 09 8:00 280.8 0.0 0.00 28.2 -2.1 97.6 4.7
2018 01 09 9:00 273.7 0.0 0.00 29.2 -1.5 97.7 5.9
2018 01 09 10:00 Wet 316.2 0.0 0.25 31.9 -0.1 96.5 7.3
2018 01 09 11:00 Wet 297.0 0.0 0.00 35.1 1.7 89.2 7.4
2018 01 09 12:00 274.2 0.0 0.00 38.7 3.7 70.2 7.2
2018 01 09 13:00 271.0 0.0 0.00 40.1 4.5 63 7.9
2018 01 09 14:00 270.8 0.0 0.00 41.0 5.0 58.88 9.0
2018 01 09 15:00 270.8 0.0 0.00 41.7 5.4 60.42 9.6
2018 01 09 16:00 271.3 0.0 0.00 40.9 5.0 66.18 8.6
2018 01 09 17:00 271.7 0.0 0.00 38.2 3.4 71.52 10.2
2018 01 09 18:00 272.5 0.0 0.00 36.0 2.2 79.22 11.1
2018 01 09 19:00 272.9 0.0 0.00 34.9 1.6 85.9 10.5
2018 01 09 20:00 273.9 0.0 0.00 34.6 1.4 89.8 10.6
2018 01 09 21:00 274.7 0.0 0.00 34.3 1.3 94.1 11.1
2018 01 09 22:00 275.0 0.0 0.00 34.1 1.2 96.1 9.8
2018 01 09 23:00 275.0 0.0 0.00 33.3 0.7 99.1 11.2
2018 01 09 24:00 280.5 0.0 0.00 33.4 0.8 100 11.3
2018 01 10 1:00 Wet 292.4 0.0 0.00 34.0 1.1 100 11.5
2018 01 10 2:00 Wet 295.8 0.0 0.00 34.8 1.5 100 10.6
2018 01 10 3:00 Wet 297.9 0.0 0.00 35.5 1.9 100 11.7
2018 01 10 4:00 Wet 298.4 0.0 0.00 35.9 2.2 100 11.0
2018 01 10 5:00 Wet 292.0 0.0 0.00 36.1 2.3 100 10.6
2018 01 10 6:00 Wet 289.5 0.0 0.00 36.6 2.5 100 12.1
2018 01 10 7:00 282.1 0.0 0.00 37.3 2.9 100 9.6
2018 01 10 8:00 277.6 0.0 0.00 38.2 3.5 100 11.3
2018 01 10 9:00 277.6 0.0 0.00 39.1 4.0 99.7 11.2
2018 01 10 10:00 275.4 0.0 0.00 40.4 4.7 97.1 12.9
2018 01 10 11:00 274.0 0.0 0.00 42.0 5.5 92.1 13.2
2018 01 10 12:00 273.3 0.0 0.00 44.5 6.9 85.5 13.7
2018 01 10 13:00 272.6 0.0 0.00 47.1 8.4 78.32 14.6
2018 01 10 14:00 272.1 0.0 0.00 48.2 9.0 76.24 14.2
2018 01 10 15:00 272.1 0.0 0.00 48.8 9.3 74.5 15.3
2018 01 10 16:00 272.1 0.0 0.00 49.6 9.8 72.59 15.6
2018 01 10 17:00 272.1 0.0 0.00 50.1 10.1 71.12 12.4
2018 01 10 18:00 272.1 0.0 0.00 49.3 9.6 72.53 9.7
2018 01 10 19:00 272.4 0.0 0.00 48.2 9.0 74.5 7.4
2018 01 10 20:00 272.1 0.0 0.00 50.2 10.1 67.41 10.6
2018 01 10 21:00 271.8 0.0 0.00 51.3 10.7 65.52 14.2
2018 01 10 22:00 272.1 0.0 0.00 51.7 10.9 71.13 15.9
2018 01 10 23:00 272.3 0.0 0.00 51.0 10.5 77.46 16.5
2018 01 10 24:00 273.1 0.0 0.00 49.4 9.6 82.2 8.2
2018 01 11 1:00 272.8 0.0 0.00 49.1 9.5 84 4.9
2018 01 11 2:00 273.3 0.0 0.00 49.3 9.6 86.6 7.3
2018 01 11 3:00 273.5 0.0 0.00 49.7 9.8 86.5 9.5
2018 01 11 4:00 280.2 0.0 0.00 49.4 9.7 87.2 7.9
2018 01 11 5:00 Wet 305.0 0.0 0.00 48.3 9.1 92.2 6.7
2018 01 11 6:00 Wet 337.1 0.0 0.25 47.8 8.8 94.9 5.5
2018 01 11 7:00 Wet 313.8 0.0 0.00 46.7 8.2 97.6 3.8
2018 01 11 8:00 Wet 394.1 0.0 0.25 41.5 5.3 96.4 8.4
2018 01 11 9:00 Wet 394.8 0.0 0.25 29.9 -1.1 95.7 11.0
2018 01 11 10:00 Wet 330.4 0.0 0.00 25.9 -3.4 92.7 12.1
2018 01 11 11:00 Wet 332.1 0.0 0.00 23.2 -4.9 88.9 11.1
2018 01 11 12:00 Wet 331.8 0.0 0.00 20.3 -6.5 88.6 13.2
2018 01 11 13:00 Wet 331.6 0.0 0.00 18.6 -7.4 87 13.9
2018 01 11 14:00 Wet 331.8 0.0 0.00 16.5 -8.6 86.7 15.6
2018 01 11 15:00 Wet 331.3 0.0 0.00 15.0 -9.4 85.2 11.6
2018 01 11 16:00 Wet 331.2 0.0 0.00 14.6 -9.6 80.6 15.3
2018 01 11 17:00 Wet 330.6 0.0 0.00 12.0 -11.1 76.44 17.1
2018 01 11 18:00 Wet 330.1 0.0 0.00 11.5 -11.4 72.37 14.7
2018 01 11 19:00 Wet 329.6 0.0 0.00 11.3 -11.5 72.24 13.8
2018 01 11 20:00 Wet 329.2 0.0 0.00 11.2 -11.6 71.94 14.7
2018 01 11 21:00 Wet 328.4 0.0 0.00 11.5 -11.4 71.92 15.1
2018 01 11 22:00 Wet 327.7 0.0 0.00 11.8 -11.2 74.49 14.6
2018 01 11 23:00 Wet 326.7 0.0 0.00 11.8 -11.3 75.49 11.4
2018 01 11 24:00 Wet 325.8 0.0 0.00 9.3 -12.6 72.3 13.4
2018 01 12 1:00 Wet 324.9 0.0 0.00 7.2 -13.8 73.24 11.7
2018 01 12 2:00 Wet 324.1 0.0 0.00 6.2 -14.4 73.65 9.9
2018 01 12 3:00 Wet 323.9 0.0 0.00 5.2 -14.9 76.52 8.5
2018 01 12 4:00 Wet 323.3 0.0 0.00 4.1 -15.5 72.36 8.4
2018 01 12 5:00 Wet 322.9 0.0 0.00 3.2 -16.0 72.83 8.4
2018 01 12 6:00 Wet 322.6 0.0 0.00 2.1 -16.6 73.59 7.8
2018 01 12 7:00 Wet 322.2 0.0 0.00 0.9 -17.3 73.88 7.8
2018 01 12 8:00 Wet 321.9 0.0 0.00 0.2 -17.7 74.64 8.1
2018 01 12 9:00 Wet 321.5 0.0 0.00 0.7 -17.4 73.9 7.7
2018 01 12 10:00 Wet 320.7 0.0 0.00 2.5 -16.4 71.66 8.7
2018 01 12 11:00 Wet 319.4 0.0 0.00 5.0 -15.0 70.52 8.8
2018 01 12 12:00 Wet 317.4 0.0 0.00 7.7 -13.5 69.68 8.8
2018 01 12 13:00 Wet 314.5 0.0 0.00 9.5 -12.5 67.75 8.6
2018 01 12 14:00 Wet 310.8 0.0 0.00 11.3 -11.5 62.39 8.9
2018 01 12 15:00 Wet 305.4 0.0 0.00 12.2 -11.0 57.38 9.4
2018 01 12 16:00 Wet 299.2 0.0 0.00 11.5 -11.4 54.26 10.2
2018 01 12 17:00 Wet 294.3 0.0 0.00 9.6 -12.4 57.19 7.4
2018 01 12 18:00 Wet 291.5 0.0 0.00 8.2 -13.2 60.8 8.1
2018 01 12 19:00 Wet 288.8 0.0 0.00 7.8 -13.4 61.88 7.9
2018 01 12 20:00 Wet 286.6 0.0 0.00 7.2 -13.8 64.02 7.2
2018 01 12 21:00 Wet 284.5 0.0 0.00 7.4 -13.7 63.51 7.3
2018 01 12 22:00 281.9 0.0 0.00 7.6 -13.5 61.13 7.1
2018 01 12 23:00 279.4 0.0 0.00 7.3 -13.7 59.64 7.3
2018 01 12 24:00 277.7 0.0 0.00 5.4 -14.8 62.91 5.4
2018 01 13 1:00 276.8 0.0 0.00 4.7 -15.2 64.62 4.8
2018 01 13 2:00 275.5 0.0 0.00 5.7 -14.6 62.47 4.9
2018 01 13 3:00 274.0 0.0 0.00 6.8 -14.0 59.71 5.6
2018 01 13 4:00 272.9 0.0 0.00 7.3 -13.8 58.37 5.8
2018 01 13 5:00 272.5 0.0 0.00 7.6 -13.5 59.35 4.8
2018 01 13 6:00 272.0 0.0 0.00 7.6 -13.5 58.94 5.2
2018 01 13 7:00 272.0 0.0 0.00 7.4 -13.7 59.63 4.7
2018 01 13 8:00 272.0 0.0 0.00 7.3 -13.7 61.11 3.9
2018 01 13 9:00 271.8 0.0 0.00 7.5 -13.6 61.56 4.0
2018 01 13 10:00 271.4 0.0 0.00 8.5 -13.1 59.81 4.5
2018 01 13 11:00 271.1 0.0 0.00 9.6 -12.4 56.27 3.8
2018 01 13 12:00 271.2 0.0 0.00 9.7 -12.4 54.36 3.2
2018 01 13 13:00 271.1 0.0 0.00 10.5 -11.9 54.15 2.5
2018 01 13 14:00 270.9 0.0 0.00 11.7 -11.3 54.49 2.1
2018 01 13 15:00 271.0 0.0 0.00 13.0 -10.6 49.54 1.6
2018 01 13 16:00 271.1 0.0 0.00 13.2 -10.5 48.66 2.1
2018 01 13 17:00 271.1 0.0 0.00 13.0 -10.6 52.64 0.5
2018 01 13 18:00 271.5 0.0 0.00 12.5 -10.8 54.99 1.6
2018 01 13 19:00 271.6 0.0 0.00 12.3 -10.9 54.63 2.6
2018 01 13 20:00 271.8 0.0 0.00 12.3 -11.0 55.52 2.4
2018 01 13 21:00 271.9 0.0 0.00 12.0 -11.1 56.37 0.9
2018 01 13 22:00 271.9 0.0 0.00 12.0 -11.1 56.66 2.6
2018 01 13 23:00 271.9 0.0 0.00 12.1 -11.1 57.66 4.8
2018 01 13 24:00 271.9 0.0 0.00 12.0 -11.1 56.15 5.3
2018 01 14 1:00 271.9 0.0 0.00 12.1 -11.0 58.03 5.2
2018 01 14 2:00 271.9 0.0 0.00 12.3 -10.9 61.39 4.6
2018 01 14 3:00 271.9 0.0 0.00 12.4 -10.9 63.05 4.0
2018 01 14 4:00 271.9 0.0 0.00 12.7 -10.7 64.59 5.0
2018 01 14 5:00 271.9 0.0 0.00 13.1 -10.5 64.93 5.4
2018 01 14 6:00 271.9 0.0 0.00 13.6 -10.2 65.09 6.6
2018 01 14 7:00 271.9 0.0 0.00 13.9 -10.0 67.2 6.6
2018 01 14 8:00 271.9 0.0 0.00 14.2 -9.9 69.62 6.8
2018 01 14 9:00 272.1 0.0 0.00 14.8 -9.6 75.57 7.9
2018 01 14 10:00 272.3 0.0 0.00 16.0 -8.9 79.16 9.2
2018 01 14 11:00 271.9 0.0 0.00 18.5 -7.5 78.22 9.8
2018 01 14 12:00 271.8 0.0 0.00 20.3 -6.5 78.04 11.0
2018 01 14 13:00 272.3 0.0 0.00 21.3 -5.9 78.82 10.2
2018 01 14 14:00 272.4 0.0 0.00 21.9 -5.6 80.3 10.7
2018 01 14 15:00 272.4 0.0 0.00 22.0 -5.5 84 10.1
2018 01 14 16:00 272.9 0.0 0.00 22.7 -5.2 85.1 10.1
2018 01 14 17:00 273.1 0.0 0.00 23.0 -5.0 85.5 9.7
2018 01 14 18:00 273.1 0.0 0.00 23.5 -4.7 85.5 8.3
2018 01 14 19:00 273.1 0.0 0.00 24.0 -4.4 86.7 8.7
2018 01 14 20:00 273.1 0.0 0.00 24.7 -4.0 87.1 8.5
2018 01 14 21:00 273.7 0.0 0.00 25.0 -3.9 92.4 7.9
2018 01 14 22:00 274.4 0.0 0.00 25.0 -3.9 96.6 7.5
2018 01 14 23:00 274.4 0.0 0.00 25.4 -3.7 97 7.3
2018 01 14 24:00 274.4 0.0 0.00 25.8 -3.5 96.9 8.0
2018 01 15 1:00 274.0 0.0 0.00 26.6 -3.0 94.6 11.0
2018 01 15 2:00 273.0 0.0 0.00 25.8 -3.4 80.9 15.7
2018 01 15 3:00 272.9 0.0 0.00 20.3 -6.5 73.81 17.6
2018 01 15 4:00 272.5 0.0 0.00 13.0 -10.6 68.82 14.2
2018 01 15 5:00 272.5 0.0 0.00 10.5 -12.0 70.34 12.8
2018 01 15 6:00 272.6 0.0 0.00 8.8 -12.9 70.05 12.3
2018 01 15 7:00 272.6 0.0 0.00 7.4 -13.7 70.15 13.1
2018 01 15 8:00 272.6 0.0 0.00 4.9 -15.0 67.74 13.1
2018 01 15 9:00 272.3 0.0 0.00 3.5 -15.9 69.79 15.0
2018 01 15 10:00 272.0 0.0 0.00 3.1 -16.1 63.84 18.5
2018 01 15 11:00 271.9 0.0 0.00 3.2 -16.0 63.35 18.0
2018 01 15 12:00 271.9 0.0 0.00 3.5 -15.8 63.81 16.5
2018 01 15 13:00 271.9 0.0 0.00 4.6 -15.2 65.33 16.5
2018 01 15 14:00 271.9 0.0 0.00 4.5 -15.3 62.3 17.0
2018 01 15 15:00 271.9 0.0 0.00 5.2 -14.9 62.26 17.0
2018 01 15 16:00 271.9 0.0 0.00 4.6 -15.2 61.49 15.9
2018 01 15 17:00 272.2 0.0 0.00 3.4 -15.9 65.68 15.0
2018 01 15 18:00 272.6 0.0 0.00 2.0 -16.6 66.72 11.6
2018 01 15 19:00 272.7 0.0 0.00 0.5 -17.5 67.23 9.9
2018 01 15 20:00 272.7 0.0 0.00 -0.6 -18.1 67.69 9.8
2018 01 15 21:00 272.8 0.0 0.00 -1.5 -18.6 68.99 8.8
2018 01 15 22:00 272.8 0.0 0.00 -2.3 -19.1 70.74 9.1
2018 01 15 23:00 272.8 0.0 0.00 -3.0 -19.4 68.8 10.5
2018 01 15 24:00 272.8 0.0 0.00 -3.9 -19.9 70.17 8.9
2018 01 16 1:00 272.8 0.0 0.00 -4.8 -20.5 73.75 8.4
2018 01 16 2:00 272.8 0.0 0.00 -5.5 -20.8 74.69 9.1
2018 01 16 3:00 272.8 0.0 0.00 -6.0 -21.1 75.16 8.3
2018 01 16 4:00 272.8 0.0 0.00 -6.5 -21.4 74.78 8.7
2018 01 16 5:00 272.9 0.0 0.00 -6.7 -21.5 73.65 10.5
2018 01 16 6:00 272.9 0.0 0.00 -6.6 -21.4 73.15 11.2
2018 01 16 7:00 272.8 0.0 0.00 -5.7 -20.9 73.42 10.2
2018 01 16 8:00 272.8 0.0 0.00 -5.1 -20.6 74.68 9.5
2018 01 16 9:00 272.8 0.0 0.00 -3.3 -19.6 74.71 11.0
2018 01 16 10:00 272.4 0.0 0.00 -1.9 -18.8 72.75 10.5
2018 01 16 11:00 272.0 0.0 0.00 0.5 -17.5 69.65 9.4
2018 01 16 12:00 271.8 0.0 0.00 2.3 -16.5 68.65 8.4
2018 01 16 13:00 271.9 0.0 0.00 3.9 -15.6 68.83 9.7
2018 01 16 14:00 271.9 0.0 0.00 6.1 -14.4 68.32 8.8
2018 01 16 15:00 271.9 0.0 0.00 7.5 -13.6 66.42 9.2
2018 01 16 16:00 271.9 0.0 0.00 8.0 -13.4 66.02 9.4
2018 01 16 17:00 272.4 0.0 0.00 7.2 -13.8 66.79 8.4
2018 01 16 18:00 272.6 0.0 0.00 5.5 -14.7 69.57 6.5
2018 01 16 19:00 272.7 0.0 0.00 4.0 -15.5 71.87 5.7
2018 01 16 20:00 272.9 0.0 0.00 2.8 -16.2 74.86 5.0
2018 01 16 21:00 273.4 0.0 0.00 1.7 -16.9 78.77 3.9
2018 01 16 22:00 274.4 0.0 0.00 0.9 -17.3 81.6 2.8
2018 01 16 23:00 275.5 0.0 0.00 0.5 -17.5 82.9 3.7
2018 01 16 24:00 276.6 0.0 0.00 -0.7 -18.1 83.6 2.1
2018 01 17 1:00 277.5 0.0 0.00 -2.3 -19.1 83.5 1.9
2018 01 17 2:00 278.3 0.0 0.00 -2.6 -19.2 83.2 2.0
2018 01 17 3:00 279.0 0.0 0.00 -2.0 -18.9 83.1 3.9
2018 01 17 4:00 279.6 0.0 0.00 -3.1 -19.5 82.6 0.8
2018 01 17 5:00 280.2 0.0 0.00 -3.0 -19.4 82.8 3.1
2018 01 17 6:00 280.8 0.0 0.00 -2.4 -19.1 83 4.7
2018 01 17 7:00 281.4 0.0 0.00 -1.6 -18.6 83.5 5.2
2018 01 17 8:00 281.7 0.0 0.00 -1.1 -18.4 83.7 4.1
2018 01 17 9:00 281.6 0.0 0.00 0.8 -17.3 84.4 5.2
2018 01 17 10:00 280.2 0.0 0.00 5.6 -14.7 84.4 6.9
2018 01 17 11:00 276.2 0.0 0.00 10.6 -11.9 76.75 8.5
2018 01 17 12:00 271.7 0.0 0.00 15.3 -9.3 70.06 8.9
2018 01 17 13:00 271.1 0.0 0.00 18.3 -7.6 64.69 10.7
2018 01 17 14:00 271.0 0.0 0.00 20.3 -6.5 58.92 11.8
2018 01 17 15:00 271.1 0.0 0.00 21.8 -5.7 57.65 11.3
2018 01 17 16:00 271.0 0.0 0.00 23.0 -5.0 53.23 10.3
2018 01 17 17:00 271.2 0.0 0.00 22.6 -5.2 54.29 8.6
2018 01 17 18:00 271.7 0.0 0.00 20.7 -6.3 57.67 7.3
2018 01 17 19:00 271.9 0.0 0.00 18.5 -7.5 65.17 6.4
2018 01 17 20:00 272.5 0.0 0.00 17.5 -8.1 68.06 6.2
2018 01 17 21:00 272.5 0.0 0.00 17.1 -8.3 70.11 8.1
2018 01 17 22:00 272.5 0.0 0.00 16.8 -8.4 71.63 10.6
2018 01 17 23:00 272.5 0.0 0.00 16.1 -8.8 72.87 10.6
2018 01 17 24:00 272.5 0.0 0.00 15.6 -9.1 74.15 11.0
2018 01 18 1:00 272.5 0.0 0.00 15.3 -9.3 75.53 9.2
2018 01 18 2:00 272.6 0.0 0.00 15.2 -9.3 76.52 9.5
2018 01 18 3:00 273.1 0.0 0.00 15.0 -9.5 77.01 9.0
2018 01 18 4:00 272.9 0.0 0.00 14.9 -9.5 76.43 9.8
2018 01 18 5:00 272.9 0.0 0.00 14.6 -9.7 76.13 9.6
2018 01 18 6:00 272.9 0.0 0.00 14.3 -9.9 75.78 8.9
2018 01 18 7:00 273.1 0.0 0.00 13.7 -10.2 75.93 7.5
2018 01 18 8:00 273.0 0.0 0.00 12.9 -10.6 76.94 7.8
2018 01 18 9:00 272.0 0.0 0.00 15.9 -8.9 69.72 11.2
2018 01 18 10:00 271.1 0.0 0.00 21.3 -6.0 59.43 11.9
2018 01 18 11:00 270.7 0.0 0.00 24.4 -4.2 55.67 11.2
2018 01 18 12:00 270.4 0.0 0.25 26.9 -2.8 54.16 10.9
2018 01 18 13:00 270.2 0.0 0.00 29.9 -1.2 52.06 10.6
2018 01 18 14:00 270.2 0.0 0.00 32.0 0.0 53 11.2
2018 01 18 15:00 270.7 0.0 0.00 34.0 1.1 51.57 11.5
2018 01 18 16:00 270.9 0.0 0.00 34.7 1.5 52.66 10.7
2018 01 18 17:00 270.9 0.0 0.00 33.6 0.9 56.95 9.9
2018 01 18 18:00 271.5 0.0 0.00 31.6 -0.2 61.99 8.3
2018 01 18 19:00 271.6 0.0 0.00 31.1 -0.5 63.93 9.0
2018 01 18 20:00 271.6 0.0 0.00 31.1 -0.5 63.61 10.7
2018 01 18 21:00 271.6 0.0 0.00 30.6 -0.8 63.28 10.0
2018 01 18 22:00 271.6 0.0 0.00 30.2 -1.0 64.96 9.6
2018 01 18 23:00 271.6 0.0 0.00 30.1 -1.1 65.08 10.5
2018 01 18 24:00 271.6 0.0 0.00 29.4 -1.5 67.14 9.6
2018 01 19 1:00 271.6 0.0 0.00 29.5 -1.4 66.67 8.6
2018 01 19 2:00 271.6 0.0 0.00 30.1 -1.0 64.83 9.2
2018 01 19 3:00 271.6 0.0 0.00 30.4 -0.9 63.86 9.5
2018 01 19 4:00 271.6 0.0 0.00 29.7 -1.3 64.85 8.8
2018 01 19 5:00 271.6 0.0 0.00 29.5 -1.4 64.54 9.7
2018 01 19 6:00 271.6 0.0 0.00 29.1 -1.6 64.49 8.6
2018 01 19 7:00 271.6 0.0 0.00 29.1 -1.6 64.52 9.5
2018 01 19 8:00 271.6 0.0 0.00 29.4 -1.4 63.47 8.9
2018 01 19 9:00 270.9 0.0 0.00 30.5 -0.8 61.98 11.1
2018 01 19 10:00 270.4 0.0 0.00 33.7 0.9 56.32 11.1
2018 01 19 11:00 270.2 0.0 0.00 36.5 2.5 52.78 11.6
2018 01 19 12:00 270.1 0.0 0.00 39.0 3.9 50.73 12.7
2018 01 19 13:00 270.0 0.0 0.00 41.3 5.1 49.41 13.1
2018 01 19 14:00 270.0 0.0 0.00 42.6 5.9 49.09 13.6
2018 01 19 15:00 269.8 0.0 0.00 44.2 6.8 47.72 12.9
2018 01 19 16:00 270.1 0.0 0.00 43.8 6.6 50.33 10.5
2018 01 19 17:00 270.1 0.0 0.00 43.3 6.3 51.94 10.1
2018 01 19 18:00 270.6 0.0 0.00 41.8 5.4 55.48 9.7
2018 01 19 19:00 270.8 0.0 0.00 41.6 5.3 56.7 10.8
2018 01 19 20:00 270.8 0.0 0.00 41.3 5.2 58.31 11.7
2018 01 19 21:00 270.9 0.0 0.00 41.1 5.1 58.35 9.2
2018 01 19 22:00 270.9 0.0 0.00 40.6 4.8 59.11 10.6
2018 01 19 23:00 270.9 0.0 0.00 39.7 4.3 60.48 9.1
2018 01 19 24:00 270.9 0.0 0.00 39.4 4.1 60.89 9.1
2018 01 20 1:00 270.9 0.0 0.00 39.1 4.0 61.54 7.4
2018 01 20 2:00 271.6 0.0 0.00 36.9 2.7 67.37 5.5
2018 01 20 3:00 272.4 0.0 0.00 33.9 1.1 76.12 5.3
2018 01 20 4:00 273.0 0.0 0.00 33.9 1.1 79.25 5.3
2018 01 20 5:00 273.9 0.0 0.00 33.1 0.6 83.5 5.0
2018 01 20 6:00 274.5 0.0 0.00 32.6 0.3 88.1 5.1
2018 01 20 7:00 273.1 0.0 0.00 34.1 1.2 91.6 5.4
2018 01 20 8:00 274.3 0.0 0.00 39.0 3.9 89.6 7.9
2018 01 20 9:00 274.0 0.0 0.00 39.7 4.3 90.2 7.7
2018 01 20 10:00 273.3 0.0 0.00 41.5 5.3 88.3 7.6
2018 01 20 11:00 272.3 0.0 0.00 44.1 6.7 83.7 7.7
2018 01 20 12:00 271.5 0.0 0.00 46.7 8.2 79.55 6.2
2018 01 20 13:00 271.9 0.0 0.00 46.9 8.3 80.1 5.6
2018 01 20 14:00 272.1 0.0 0.00 47.2 8.4 80.5 4.8
2018 01 20 15:00 271.8 0.0 0.00 48.7 9.3 78.3 5.2
2018 01 20 16:00 272.1 0.0 0.00 48.7 9.3 78.08 2.3
2018 01 20 17:00 272.6 0.0 0.00 47.6 8.7 80 1.9
2018 01 20 18:00 272.8 0.0 0.00 46.9 8.3 81.9 3.1
2018 01 20 19:00 272.8 0.0 0.00 45.8 7.7 83.2 3.2
2018 01 20 20:00 273.1 0.0 0.00 45.2 7.3 85.1 2.3
2018 01 20 21:00 273.5 0.0 0.00 45.0 7.2 87.1 3.9
2018 01 20 22:00 273.5 0.0 0.00 44.8 7.1 88.5 2.5
2018 01 20 23:00 274.0 0.0 0.00 43.9 6.6 90 1.0
2018 01 20 24:00 274.2 0.0 0.00 43.2 6.2 91.2 2.7
2018 01 21 1:00 274.2 0.0 0.00 42.9 6.1 90.9 0.9
2018 01 21 2:00 274.2 0.0 0.00 42.8 6.0 91.2 3.2
2018 01 21 3:00 274.3 0.0 0.00 42.8 6.0 91 1.2
2018 01 21 4:00 274.3 0.0 0.00 43.2 6.2 90.9 2.9
2018 01 21 5:00 274.4 0.0 0.00 44.3 6.8 91.8 5.5
2018 01 21 6:00 272.6 0.0 0.00 44.5 6.9 97 4.6
2018 01 21 7:00 277.5 0.0 0.00 45.5 7.5 99.7 3.8
2018 01 21 8:00 Wet 294.8 0.0 0.00 45.4 7.4 99.9 3.6
2018 01 21 9:00 272.0 0.0 0.00 45.4 7.5 99.3 5.0
2018 01 21 10:00 273.8 0.0 0.00 46.5 8.1 98.1 5.2
2018 01 21 11:00 276.7 0.0 0.00 48.7 9.3 95.7 5.7
2018 01 21 12:00 275.4 0.0 0.00 51.2 10.7 92.1 6.6
2018 01 21 13:00 274.2 0.0 0.00 53.0 11.7 89 7.1
2018 01 21 14:00 274.1 0.0 0.00 53.2 11.8 88.8 8.6
2018 01 21 15:00 274.1 0.0 0.00 53.2 11.8 89 5.9
2018 01 21 16:00 274.7 0.0 0.00 53.0 11.7 89.6 2.9
2018 01 21 17:00 274.4 0.0 0.00 53.3 11.8 89 2.1
2018 01 21 18:00 274.6 0.0 0.00 51.5 10.8 91.8 1.0
2018 01 21 19:00 273.7 0.0 0.00 49.4 9.6 95.1 3.0
2018 01 21 20:00 Wet 325.7 0.0 0.00 48.5 9.2 97.2 4.2
2018 01 21 21:00 Wet 311.8 0.0 0.00 48.9 9.4 98 5.8
2018 01 21 22:00 Wet 438.0 0.2 4.32 49.7 9.8 97.7 6.9
2018 01 21 23:00 Wet 321.4 0.0 0.00 51.0 10.6 97.1 8.0
2018 01 21 24:00 Wet 306.9 0.0 0.25 53.7 12.1 94.9 11.8
2018 01 22 1:00 Wet 285.0 0.0 0.00 54.4 12.5 94 12.5
2018 01 22 2:00 275.1 0.0 0.00 54.3 12.4 93.8 12.8
2018 01 22 3:00 274.8 0.0 0.00 54.2 12.3 92.9 11.8
2018 01 22 4:00 274.8 0.0 0.00 53.3 11.8 93.7 7.9
2018 01 22 5:00 276.7 0.0 0.00 52.2 11.2 95.8 9.5
2018 01 22 6:00 275.8 0.0 0.00 51.9 11.1 96.2 12.0
2018 01 22 7:00 276.8 0.0 0.00 50.5 10.3 92 13.2
2018 01 22 8:00 274.2 0.0 0.00 47.3 8.5 84.1 11.9
2018 01 22 9:00 273.0 0.0 0.00 44.4 6.9 80.8 13.3
2018 01 22 10:00 272.8 0.0 0.00 41.6 5.4 81.9 16.3
2018 01 22 11:00 272.1 0.0 0.00 40.7 4.8 72.36 17.3
2018 01 22 12:00 272.0 0.0 0.00 40.0 4.4 72 14.2
2018 01 22 13:00 273.1 0.0 0.00 37.9 3.3 82.9 10.6
2018 01 22 14:00 274.5 0.0 0.00 36.3 2.4 92.1 10.6
2018 01 22 15:00 281.5 0.0 0.25 35.3 1.8 96.1 8.4
2018 01 22 16:00 Wet 323.5 0.0 0.25 34.9 1.6 95.6 5.4
2018 01 22 17:00 Wet 335.2 0.0 0.25 34.2 1.2 95.8 5.3
2018 01 22 18:00 Wet 342.9 0.0 0.25 33.2 0.7 97.6 3.6
2018 01 22 19:00 Wet 325.6 0.0 0.00 33.1 0.6 98.6 0.9
2018 01 22 20:00 Wet 326.0 0.0 0.00 33.1 0.6 99.1 2.8
2018 01 22 21:00 Wet 320.1 0.0 0.00 33.5 0.8 99.5 6.1
2018 01 22 22:00 Wet 357.9 0.0 0.00 34.4 1.3 99.2 8.9
2018 01 22 23:00 Wet 363.8 0.0 0.00 33.9 1.1 95 14.4
2018 01 22 24:00 283.8 0.0 0.00 32.0 0.0 94.3 15.0
2018 01 23 1:00 275.0 0.0 0.00 30.9 -0.6 91.5 15.4
2018 01 23 2:00 274.4 0.0 0.00 30.3 -1.0 88.3 16.2
2018 01 23 3:00 274.3 0.0 0.00 29.8 -1.2 85.8 15.6
2018 01 23 4:00 273.7 0.0 0.00 29.3 -1.5 84.1 15.0
2018 01 23 5:00 273.7 0.0 0.00 29.0 -1.7 82.5 14.2
2018 01 23 6:00 273.7 0.0 0.00 29.0 -1.7 81.4 14.6
2018 01 23 7:00 273.7 0.0 0.00 29.0 -1.7 81.9 14.2
2018 01 23 8:00 273.7 0.0 0.00 29.0 -1.7 83.5 15.0
2018 01 23 9:00 273.6 0.0 0.00 28.5 -1.9 82.7 14.5
2018 01 23 10:00 273.1 0.0 0.00 28.7 -1.8 82.1 14.6
2018 01 23 11:00 273.0 0.0 0.00 28.7 -1.8 79 14.0
2018 01 23 12:00 273.0 0.0 0.00 28.4 -2.0 80.1 14.5
2018 01 23 13:00 273.0 0.0 0.00 28.4 -2.0 79.8 13.4
2018 01 23 14:00 273.0 0.0 0.00 28.6 -1.9 79.62 13.5
2018 01 23 15:00 273.0 0.0 0.00 28.0 -2.2 81.3 11.8
2018 01 23 16:00 273.0 0.0 0.00 26.9 -2.8 81.5 10.5
2018 01 23 17:00 273.0 0.0 0.00 26.9 -2.8 81.5 9.3
2018 01 23 18:00 273.0 0.0 0.00 26.6 -3.0 82.4 8.2
2018 01 23 19:00 273.0 0.0 0.00 26.1 -3.3 82.1 8.5
2018 01 23 20:00 273.0 0.0 0.00 25.6 -3.5 82.2 8.0
2018 01 23 21:00 273.0 0.0 0.00 25.5 -3.6 81 7.2
2018 01 23 22:00 273.1 0.0 0.00 25.5 -3.6 80.7 6.8
2018 01 23 23:00 273.1 0.0 0.00 25.8 -3.5 81.5 4.6
2018 01 23 24:00 273.1 0.0 0.00 25.7 -3.5 81.4 4.5
2018 01 24 1:00 273.1 0.0 0.00 25.5 -3.6 83.3 5.4
2018 01 24 2:00 273.2 0.0 0.00 25.2 -3.8 84.4 3.8
2018 01 24 3:00 273.8 0.0 0.00 24.8 -4.0 87 2.4
2018 01 24 4:00 273.9 0.0 0.00 24.8 -4.0 88.4 2.8
2018 01 24 5:00 274.1 0.0 0.00 24.5 -4.2 88.3 3.9
2018 01 24 6:00 273.8 0.0 0.00 24.6 -4.1 87.5 3.7
2018 01 24 7:00 273.8 0.0 0.00 24.4 -4.2 87.9 3.5
2018 01 24 8:00 273.8 0.0 0.00 24.4 -4.2 89 4.3
2018 01 24 9:00 273.8 0.0 0.00 25.0 -3.9 88.2 5.8
2018 01 24 10:00 273.1 0.0 0.00 26.4 -3.1 85.8 4.6
2018 01 24 11:00 272.2 0.0 0.00 27.4 -2.5 83.6 1.7
2018 01 24 12:00 271.5 0.0 0.00 29.1 -1.6 80.4 3.1
2018 01 24 13:00 271.6 0.0 0.00 30.1 -1.1 79.73 6.0
2018 01 24 14:00 271.6 0.0 0.00 30.5 -0.8 79.3 6.8
2018 01 24 15:00 272.2 0.0 0.00 31.5 -0.3 77.61 6.0
2018 01 24 16:00 272.2 0.0 0.00 32.7 0.4 74.95 4.3
2018 01 24 17:00 272.6 0.0 0.00 32.6 0.4 74.98 2.6
2018 01 24 18:00 274.1 0.0 0.00 31.0 -0.6 78.85 1.4
2018 01 24 19:00 275.0 0.0 0.00 28.8 -1.8 83.2 2.9
2018 01 24 20:00 276.0 0.0 0.00 27.8 -2.4 86.3 2.6
2018 01 24 21:00 276.9 0.0 0.00 27.9 -2.3 86.5 3.8
2018 01 24 22:00 276.6 0.0 0.00 29.1 -1.6 85.7 5.3
2018 01 24 23:00 276.2 0.0 0.00 30.2 -1.0 85.5 6.4
2018 01 24 24:00 274.7 0.0 0.00 30.8 -0.6 84.1 7.1
2018 01 25 1:00 273.7 0.0 0.00 31.7 -0.2 81.3 7.7
2018 01 25 2:00 273.1 0.0 0.00 33.5 0.9 75.59 9.9
2018 01 25 3:00 273.0 0.0 0.00 33.3 0.7 74.55 9.3
2018 01 25 4:00 273.0 0.0 0.00 33.9 1.0 71.46 8.4
2018 01 25 5:00 273.0 0.0 0.00 33.8 1.0 70.37 6.0
2018 01 25 6:00 273.0 0.0 0.00 32.1 0.1 73.33 5.3
2018 01 25 7:00 273.0 0.0 0.00 30.7 -0.7 76.19 5.0
2018 01 25 8:00 273.0 0.0 0.00 30.0 -1.1 77.82 4.9
2018 01 25 9:00 272.0 0.0 0.00 33.3 0.7 72.03 6.1
2018 01 25 10:00 270.9 0.0 0.00 38.9 3.8 59.24 7.6
2018 01 25 11:00 270.0 0.0 0.00 43.3 6.3 47.54 10.0
2018 01 25 12:00 269.3 0.0 0.00 46.8 8.2 41.79 8.5
2018 01 25 13:00 268.8 0.0 0.00 49.6 9.8 38.51 8.4
2018 01 25 14:00 268.6 0.0 0.00 51.7 10.9 35.54 9.6
2018 01 25 15:00 268.6 0.0 0.00 53.0 11.7 33.82 10.6
2018 01 25 16:00 268.6 0.0 0.00 53.5 11.9 34.25 10.2
2018 01 25 17:00 268.8 0.0 0.00 53.1 11.7 35.61 7.5
2018 01 25 18:00 269.7 0.0 0.00 48.2 9.0 41.76 4.9
2018 01 25 19:00 270.0 0.0 0.00 47.0 8.3 43.54 6.8
2018 01 25 20:00 270.1 0.0 0.00 46.0 7.8 47.01 9.4
2018 01 25 21:00 270.0 0.0 0.00 46.7 8.2 44.96 11.8
2018 01 25 22:00 269.4 0.0 0.00 49.5 9.7 38.44 14.2
2018 01 25 23:00 269.4 0.0 0.00 48.5 9.2 38.24 14.3
2018 01 25 24:00 269.4 0.0 0.00 47.1 8.4 39.72 13.7
2018 01 26 1:00 269.4 0.0 0.00 45.7 7.6 41.56 13.4
2018 01 26 2:00 269.4 0.0 0.00 44.4 6.9 42.85 11.8
2018 01 26 3:00 269.4 0.0 0.00 43.9 6.6 43.03 12.9
2018 01 26 4:00 269.4 0.0 0.00 43.8 6.6 43.83 13.9
2018 01 26 5:00 269.4 0.0 0.00 42.2 5.7 48.03 13.1
2018 01 26 6:00 269.5 0.0 0.00 42.1 5.6 49.29 12.2
2018 01 26 7:00 269.6 0.0 0.00 42.7 5.9 50.09 13.2
2018 01 26 8:00 269.5 0.0 0.00 44.1 6.7 49.29 14.3
2018 01 26 9:00 269.4 0.0 0.00 45.9 7.7 47.2 15.0
2018 01 26 10:00 269.1 0.0 0.00 47.7 8.7 45.11 18.3
2018 01 26 11:00 268.7 0.0 0.00 51.2 10.7 42.15 21.9
2018 01 26 12:00 268.6 0.0 0.00 53.9 12.2 41.34 23.1
2018 01 26 13:00 268.6 0.0 0.00 55.9 13.3 41.38 22.8
2018 01 26 14:00 268.6 0.0 0.00 57.1 13.9 42.1 20.0
2018 01 26 15:00 268.6 0.0 0.00 57.8 14.4 43.51 18.9
2018 01 26 16:00 268.8 0.0 0.00 57.8 14.4 47.12 18.7
2018 01 26 17:00 269.3 0.0 0.00 55.9 13.3 51.22 15.4
2018 01 26 18:00 269.3 0.0 0.00 54.8 12.7 53.14 11.8
2018 01 26 19:00 269.5 0.0 0.00 54.2 12.4 54.68 11.6
2018 01 26 20:00 270.0 0.0 0.00 52.3 11.3 61.27 9.7
2018 01 26 21:00 270.4 0.0 0.00 51.8 11.0 64.27 11.1
2018 01 26 22:00 270.7 0.0 0.00 51.4 10.8 66.14 9.1
2018 01 26 23:00 270.4 0.0 0.00 45.8 7.7 61.61 10.0
2018 01 26 24:00 271.1 0.0 0.00 38.9 3.8 70.55 6.1
2018 01 27 1:00 272.5 0.0 0.00 35.1 1.7 78.71 4.7
2018 01 27 2:00 273.0 0.0 0.00 33.2 0.6 82.3 5.3
2018 01 27 3:00 273.4 0.0 0.00 32.7 0.4 83 4.8
2018 01 27 4:00 273.3 0.0 0.00 32.2 0.1 82.2 6.4
2018 01 27 5:00 272.3 0.0 0.00 33.0 0.6 77.56 6.3
2018 01 27 6:00 272.8 0.0 0.00 32.0 0.0 78.64 4.5
2018 01 27 7:00 273.6 0.0 0.00 30.1 -1.0 81.6 5.2
2018 01 27 8:00 273.4 0.0 0.00 29.5 -1.4 83.1 6.5
2018 01 27 9:00 271.9 0.0 0.00 31.4 -0.4 82.2 6.4
2018 01 27 10:00 271.1 0.0 0.00 36.0 2.2 74.26 6.8
2018 01 27 11:00 270.0 0.0 0.00 41.2 5.1 60.1 6.2
2018 01 27 12:00 268.7 0.0 0.00 46.1 7.8 43.06 5.8
2018 01 27 13:00 268.1 0.0 0.00 48.9 9.4 35.42 7.3
2018 01 27 14:00 267.9 0.0 0.00 50.3 10.2 32.95 8.8
2018 01 27 15:00 267.9 0.0 0.00 51.3 10.7 29.89 9.0
2018 01 27 16:00 267.9 0.0 0.00 51.2 10.7 28.38 9.4
2018 01 27 17:00 267.9 0.0 0.00 50.2 10.1 28.24 7.6
2018 01 27 18:00 268.4 0.0 0.00 46.4 8.0 31.52 3.6
2018 01 27 19:00 268.9 0.0 0.00 43.1 6.2 36.41 1.6
2018 01 27 20:00 269.5 0.0 0.00 40.3 4.6 41.45 3.3
2018 01 27 21:00 269.5 0.0 0.00 40.3 4.6 45.67 7.0
2018 01 27 22:00 270.1 0.0 0.00 37.1 2.8 58.59 6.3
2018 01 27 23:00 270.7 0.0 0.00 35.8 2.1 65.08 6.3
2018 01 27 24:00 271.2 0.0 0.00 34.4 1.3 69.6 5.0
2018 01 28 1:00 272.0 0.0 0.00 33.0 0.5 72.66 4.1
2018 01 28 2:00 273.3 0.0 0.00 30.8 -0.7 77.43 1.8
2018 01 28 3:00 274.3 0.0 0.00 29.1 -1.6 82.1 0.7
2018 01 28 4:00 275.2 0.0 0.00 27.7 -2.4 84.5 5.2
2018 01 28 5:00 275.3 0.0 0.00 27.8 -2.3 83.4 5.4
2018 01 28 6:00 275.2 0.0 0.00 27.8 -2.3 82.8 4.6
2018 01 28 7:00 274.8 0.0 0.00 27.6 -2.4 82.6 5.7
2018 01 28 8:00 273.4 0.0 0.00 27.1 -2.7 83.8 6.7
2018 01 28 9:00 272.5 0.0 0.00 28.3 -2.0 85 6.5
2018 01 28 10:00 272.1 0.0 0.00 31.3 -0.4 82.1 7.5
2018 01 28 11:00 271.1 0.0 0.00 33.3 0.7 75.21 7.2
2018 01 28 12:00 270.8 0.0 0.00 33.1 0.6 70.95 7.9
2018 01 28 13:00 270.7 0.0 0.00 32.4 0.2 69.58 6.9
2018 01 28 14:00 270.5 0.0 0.00 33.4 0.8 64.44 6.8
2018 01 28 15:00 270.4 0.0 0.00 34.1 1.2 58.77 5.9
2018 01 28 16:00 270.5 0.0 0.00 33.5 0.8 57.92 5.7
2018 01 28 17:00 270.8 0.0 0.00 31.9 -0.1 61.18 5.5
2018 01 28 18:00 270.9 0.0 0.00 30.1 -1.1 62.95 5.6
2018 01 28 19:00 270.9 0.0 0.00 28.2 -2.1 64.89 6.9
2018 01 28 20:00 271.3 0.0 0.00 26.5 -3.1 71.89 7.1
2018 01 28 21:00 272.1 0.0 0.00 24.2 -4.3 81.5 6.5
2018 01 28 22:00 271.7 0.0 0.00 23.3 -4.8 75.39 7.2
2018 01 28 23:00 272.4 0.0 0.00 20.8 -6.2 78.11 6.2
2018 01 28 24:00 272.2 0.0 0.00 20.6 -6.3 76.84 6.0
2018 01 29 1:00 271.9 0.0 0.00 20.6 -6.3 75.54 6.2
2018 01 29 2:00 272.2 0.0 0.00 19.4 -7.0 77.04 6.1
2018 01 29 3:00 272.1 0.0 0.00 18.7 -7.4 76.47 5.9
2018 01 29 4:00 272.0 0.0 0.00 18.1 -7.7 75.59 6.8
2018 01 29 5:00 272.2 0.0 0.00 17.9 -7.8 76.55 6.4
2018 01 29 6:00 272.5 0.0 0.00 16.2 -8.8 78.78 6.9
2018 01 29 7:00 273.1 0.0 0.00 13.9 -10.0 83.2 6.7
2018 01 29 8:00 273.7 0.0 0.00 12.9 -10.6 85.4 6.5
2018 01 29 9:00 272.7 0.0 0.00 14.3 -9.8 83.2 7.5
2018 01 29 10:00 271.8 0.0 0.00 16.9 -8.4 78.49 7.4
2018 01 29 11:00 271.1 0.0 0.00 19.7 -6.8 72.43 6.0
2018 01 29 12:00 271.0 0.0 0.00 21.8 -5.7 67.58 7.4
2018 01 29 13:00 270.9 0.0 0.00 23.4 -4.8 63.51 7.4
2018 01 29 14:00 270.9 0.0 0.00 24.2 -4.3 59.6 7.8
2018 01 29 15:00 270.8 0.0 0.00 25.3 -3.7 55 7.5
2018 01 29 16:00 270.5 0.0 0.00 26.1 -3.3 50.97 7.5
2018 01 29 17:00 270.5 0.0 0.00 25.8 -3.5 50.71 6.6
2018 01 29 18:00 271.0 0.0 0.00 24.1 -4.4 54.11 3.8
2018 01 29 19:00 271.5 0.0 0.00 22.4 -5.4 57.66 2.6
2018 01 29 20:00 271.8 0.0 0.00 21.5 -5.8 59.57 0.5
2018 01 29 21:00 271.8 0.0 0.00 20.7 -6.3 61.96 0.0
2018 01 29 22:00 272.7 0.0 0.00 18.7 -7.4 67.23 0.0
2018 01 29 23:00 273.8 0.0 0.00 17.0 -8.3 73.42 0.0
2018 01 29 24:00 275.0 0.0 0.00 16.1 -8.8 75.68 0.0
2018 01 30 1:00 275.9 0.0 0.00 15.2 -9.3 75.6 0.0
2018 01 30 2:00 276.7 0.0 0.00 14.5 -9.7 77.21 0.0
2018 01 30 3:00 277.4 0.0 0.00 14.1 -9.9 77.93 0.0
2018 01 30 4:00 278.2 0.0 0.00 11.4 -11.4 85.1 0.0
2018 01 30 5:00 278.9 0.0 0.00 12.4 -10.9 82.1 0.0
2018 01 30 6:00 279.4 0.0 0.00 13.1 -10.5 82.7 0.7
2018 01 30 7:00 277.9 0.0 0.00 17.0 -8.3 78.58 5.2
2018 01 30 8:00 274.4 0.0 0.00 18.3 -7.6 76 6.9
2018 01 30 9:00 272.3 0.0 0.00 20.1 -6.6 73.85 7.8
2018 01 30 10:00 271.4 0.0 0.00 23.3 -4.8 68.95 10.9
2018 01 30 11:00 270.5 0.0 0.00 27.2 -2.6 60.03 13.1
2018 01 30 12:00 270.0 0.0 0.00 31.0 -0.5 47.15 13.7
2018 01 30 13:00 269.0 0.0 0.00 34.2 1.2 37.26 14.5
2018 01 30 14:00 268.8 0.0 0.00 35.8 2.1 33.01 15.6
2018 01 30 15:00 268.8 0.0 0.00 38.2 3.4 31.74 17.1
2018 01 30 16:00 268.8 0.0 0.00 38.5 3.6 32.75 18.1
2018 01 30 17:00 268.8 0.0 0.00 38.4 3.5 34.65 16.2
2018 01 30 18:00 269.1 0.0 0.00 37.0 2.8 37.82 15.9
2018 01 30 19:00 269.4 0.0 0.00 36.6 2.6 39.67 15.8
2018 01 30 20:00 269.4 0.0 0.00 36.9 2.7 40.04 15.5
2018 01 30 21:00 269.2 0.0 0.00 37.8 3.2 39.96 16.2
2018 01 30 22:00 269.4 0.0 0.00 37.8 3.2 42.04 16.8
2018 01 30 23:00 269.5 0.0 0.00 37.7 3.2 44.73 15.1
2018 01 30 24:00 269.5 0.0 0.00 38.5 3.6 45.68 16.4
2018 01 31 1:00 269.5 0.0 0.00 39.5 4.2 46.13 15.7
2018 01 31 2:00 269.5 0.0 0.00 39.2 4.0 48.48 13.7
2018 01 31 3:00 269.7 0.0 0.00 38.3 3.5 51.85 13.9
2018 01 31 4:00 270.1 0.0 0.00 38.8 3.8 52.47 12.2
2018 01 31 5:00 270.2 0.0 0.00 38.9 3.8 53.43 10.9
2018 01 31 6:00 270.2 0.0 0.00 38.0 3.3 55.9 8.2
2018 01 31 7:00 270.2 0.0 0.00 37.0 2.8 58.81 5.4
2018 01 31 8:00 270.8 0.0 0.00 35.1 1.7 63.5 4.4
2018 01 31 9:00 270.2 0.0 0.00 37.0 2.8 62.19 6.0
2018 01 31 10:00 270.2 0.0 0.00 39.0 3.9 63.55 5.8
2018 01 31 11:00 270.2 0.0 0.00 39.7 4.3 67.42 1.7
2018 01 31 12:00 270.1 0.0 0.00 40.6 4.8 64.83 1.3
2018 01 31 13:00 270.1 0.0 0.00 41.2 5.1 62.89 2.1
2018 01 31 14:00 270.1 0.0 0.00 41.8 5.5 61.38 4.0
2018 01 31 15:00 269.7 0.0 0.00 43.4 6.3 57.33 4.5
2018 01 31 16:00 269.8 0.0 0.00 43.2 6.2 53.34 5.4
2018 01 31 17:00 270.1 0.0 0.00 42.0 5.6 55.58 2.5
2018 01 31 18:00 270.5 0.0 0.00 40.2 4.5 61.62 1.2
2018 01 31 19:00 270.9 0.0 0.00 38.9 3.8 64.85 1.6
2018 01 31 20:00 270.9 0.0 0.00 37.7 3.1 67.86 4.1
2018 01 31 21:00 271.1 0.0 0.00 36.7 2.6 70.56 3.5
2018 01 31 22:00 271.5 0.0 0.00 35.9 2.2 73.1 4.8
2018 01 31 23:00 271.5 0.0 0.00 35.3 1.8 75.82 5.9
2018 01 31 24:00 271.8 0.0 0.00 34.2 1.2 76.6 5.6
2018 02 01 1:00 271.7 0.0 0.00 33.7 1.0 75.02 6.5
2018 02 01 2:00 271.6 0.0 0.00 34.9 1.6 68.69 9.5
2018 02 01 3:00 271.6 0.0 0.00 34.6 1.4 74.66 10.3
2018 02 01 4:00 271.7 0.0 0.00 31.4 -0.3 78.78 9.9
2018 02 01 5:00 271.5 0.0 0.00 24.3 -4.3 69.57 11.0
2018 02 01 6:00 271.3 0.0 0.00 20.1 -6.6 64.94 8.8
2018 02 01 7:00 271.3 0.0 0.00 16.0 -8.9 58.19 10.4
2018 02 01 8:00 271.1 0.0 0.00 13.9 -10.1 56.28 9.5
2018 02 01 9:00 271.1 0.0 0.00 13.1 -10.5 57.92 10.3
2018 02 01 10:00 270.9 0.0 0.00 13.1 -10.5 57.61 9.4
2018 02 01 11:00 270.2 0.0 0.00 16.1 -8.8 52.06 9.6
2018 02 01 12:00 269.7 0.0 0.00 17.6 -8.0 44.64 11.4
2018 02 01 13:00 269.7 0.0 0.00 18.6 -7.5 38.82 11.8
2018 02 01 14:00 269.7 0.0 0.00 19.1 -7.1 36.71 11.6
2018 02 01 15:00 269.7 0.0 0.00 19.3 -7.1 36.31 11.7
2018 02 01 16:00 269.7 0.0 0.00 19.6 -6.9 36.37 9.8
2018 02 01 17:00 269.7 0.0 0.00 18.6 -7.5 38.2 10.1
2018 02 01 18:00 270.1 0.0 0.00 16.4 -8.6 40.83 9.8
2018 02 01 19:00 270.4 0.0 0.00 14.6 -9.7 45.57 5.4
2018 02 01 20:00 270.5 0.0 0.00 13.2 -10.4 50.81 2.0
2018 02 01 21:00 271.1 0.0 0.00 12.1 -11.1 54.87 2.5
2018 02 01 22:00 271.2 0.0 0.00 11.2 -11.5 58 4.0
2018 02 01 23:00 271.2 0.0 0.00 10.3 -12.1 61.63 4.5
2018 02 01 24:00 271.5 0.0 0.00 9.2 -12.6 66.28 2.5
2018 02 02 1:00 272.0 0.0 0.00 8.6 -13.0 69.69 0.1
2018 02 02 2:00 272.6 0.0 0.00 7.5 -13.6 73.05 0.0
2018 02 02 3:00 273.1 0.0 0.00 6.2 -14.4 76.07 0.7
2018 02 02 4:00 273.4 0.0 0.00 5.7 -14.6 74.93 3.6
2018 02 02 5:00 273.5 0.0 0.00 5.5 -14.7 75.79 3.1
2018 02 02 6:00 274.1 0.0 0.00 4.9 -15.0 77.89 3.1
2018 02 02 7:00 274.7 0.0 0.00 4.1 -15.5 80.8 0.5
2018 02 02 8:00 274.9 0.0 0.00 2.8 -16.2 84 0.0
2018 02 02 9:00 273.9 0.0 0.00 7.5 -13.6 77.51 0.2
2018 02 02 10:00 271.6 0.0 0.00 11.0 -11.7 72.45 2.4
2018 02 02 11:00 270.4 0.0 0.00 14.3 -9.8 64.32 6.6
2018 02 02 12:00 269.9 0.0 0.00 18.3 -7.6 53.46 7.1
2018 02 02 13:00 269.6 0.0 0.00 21.1 -6.1 46.24 7.0
2018 02 02 14:00 269.3 0.0 0.00 23.5 -4.7 42.51 7.8
2018 02 02 15:00 269.1 0.0 0.00 23.8 -4.5 40.65 7.2
2018 02 02 16:00 269.5 0.0 0.00 24.1 -4.4 41 7.5
2018 02 02 17:00 269.6 0.0 0.00 24.1 -4.4 41.54 8.9
2018 02 02 18:00 269.7 0.0 0.00 24.0 -4.5 42.84 9.5
2018 02 02 19:00 269.7 0.0 0.00 24.2 -4.3 44.41 10.2
2018 02 02 20:00 270.1 0.0 0.00 24.5 -4.2 45.97 7.9
2018 02 02 21:00 270.2 0.0 0.00 24.7 -4.1 46.78 2.3
2018 02 02 22:00 270.4 0.0 0.00 22.3 -5.4 52.97 1.6
2018 02 02 23:00 270.4 0.0 0.00 22.6 -5.2 51.67 5.3
2018 02 02 24:00 270.4 0.0 0.00 22.8 -5.1 52.15 6.8
2018 02 03 1:00 270.4 0.0 0.00 21.9 -5.6 55.16 6.9
2018 02 03 2:00 271.0 0.0 0.00 21.6 -5.8 57.44 6.5
2018 02 03 3:00 271.1 0.0 0.00 21.6 -5.8 57.91 6.2
2018 02 03 4:00 270.7 0.0 0.00 23.1 -5.0 56.64 8.1
2018 02 03 5:00 270.4 0.0 0.00 24.8 -4.0 56.92 8.7
2018 02 03 6:00 270.4 0.0 0.00 28.0 -2.2 53.85 8.9
2018 02 03 7:00 270.3 0.0 0.00 30.6 -0.8 51.33 11.0
2018 02 03 8:00 270.3 0.0 0.00 31.4 -0.3 51.61 11.0
2018 02 03 9:00 270.1 0.0 0.00 32.8 0.4 49.9 13.3
2018 02 03 10:00 269.3 0.0 0.00 35.3 1.8 45.84 12.2
2018 02 03 11:00 268.8 0.0 0.00 39.7 4.3 38.24 17.0
2018 02 03 12:00 268.2 0.0 0.00 41.4 5.2 35.56 16.0
2018 02 03 13:00 268.0 0.0 0.00 43.7 6.5 33.64 15.4
2018 02 03 14:00 267.9 0.0 0.00 45.3 7.4 32.19 14.8
2018 02 03 15:00 268.0 0.0 0.00 46.1 7.8 31.75 12.7
2018 02 03 16:00 268.0 0.0 0.00 46.0 7.8 32.38 12.0
2018 02 03 17:00 268.0 0.0 0.00 45.0 7.2 33.19 10.7
2018 02 03 18:00 268.0 0.0 0.00 44.9 7.2 33.25 10.2
2018 02 03 19:00 268.3 0.0 0.00 44.8 7.1 35.27 11.8
2018 02 03 20:00 268.7 0.0 0.00 43.7 6.5 39.56 10.7
2018 02 03 21:00 268.7 0.0 0.00 42.9 6.0 41.85 6.3
2018 02 03 22:00 268.7 0.0 0.00 41.6 5.3 44.67 6.2
2018 02 03 23:00 269.3 0.0 0.00 40.9 4.9 48.23 7.8
2018 02 03 24:00 269.7 0.0 0.00 38.8 3.8 56.83 9.9
2018 02 04 1:00 270.6 0.0 0.00 33.0 0.6 71.95 13.6
2018 02 04 2:00 271.4 0.0 0.00 29.5 -1.4 79.48 12.0
2018 02 04 3:00 271.6 0.0 0.00 27.1 -2.7 79.42 11.1
2018 02 04 4:00 271.6 0.0 0.00 23.7 -4.6 78.27 11.1
2018 02 04 5:00 271.7 0.0 0.00 20.7 -6.3 76.49 11.5
2018 02 04 6:00 271.7 0.0 0.00 18.1 -7.7 76.71 11.8
2018 02 04 7:00 271.7 0.0 0.00 16.4 -8.7 74.99 11.2
2018 02 04 8:00 271.4 0.0 0.00 14.9 -9.5 73.41 10.4
2018 02 04 9:00 271.1 0.0 0.00 14.2 -9.9 72.38 10.8
2018 02 04 10:00 271.1 0.0 0.00 12.9 -10.6 72.78 10.2
2018 02 04 11:00 271.1 0.0 0.00 12.8 -10.6 70.53 9.9
2018 02 04 12:00 271.2 0.0 0.00 11.8 -11.2 80.6 10.8
2018 02 04 13:00 271.1 0.0 0.00 11.6 -11.3 74.19 10.3
2018 02 04 14:00 270.7 0.0 0.00 13.6 -10.2 65.09 11.8
2018 02 04 15:00 270.5 0.0 0.00 15.1 -9.4 52.23 11.6
2018 02 04 16:00 270.4 0.0 0.00 15.3 -9.3 51.15 10.3
2018 02 04 17:00 270.4 0.0 0.00 14.2 -9.9 45.68 11.1
2018 02 04 18:00 270.5 0.0 0.00 12.2 -11.0 43.45 8.9
2018 02 04 19:00 270.5 0.0 0.00 10.2 -12.1 45.47 6.8
2018 02 04 20:00 270.6 0.0 0.00 8.5 -13.1 49.17 4.9
2018 02 04 21:00 270.8 0.0 0.00 7.2 -13.8 52.23 3.8
2018 02 04 22:00 271.3 0.0 0.00 5.9 -14.5 54.94 0.8
2018 02 04 23:00 271.4 0.0 0.00 4.7 -15.2 58.98 1.1
2018 02 04 24:00 271.7 0.0 0.00 3.8 -15.7 60.75 2.8
2018 02 05 1:00 272.0 0.0 0.00 2.4 -16.5 63.8 2.7
2018 02 05 2:00 272.1 0.0 0.00 1.4 -17.0 66.56 2.2
2018 02 05 3:00 272.7 0.0 0.00 -0.9 -18.3 73.51 0.3
2018 02 05 4:00 273.4 0.0 0.00 -1.4 -18.5 73.35 1.8
2018 02 05 5:00 273.6 0.0 0.00 -1.0 -18.3 72.99 1.2
2018 02 05 6:00 274.1 0.0 0.00 -0.3 -17.9 72.95 2.7
2018 02 05 7:00 273.3 0.0 0.00 2.2 -16.6 68.98 5.2
2018 02 05 8:00 271.8 0.0 0.00 4.4 -15.3 66.43 6.0
2018 02 05 9:00 271.3 0.0 0.00 7.4 -13.6 63.22 6.4
2018 02 05 10:00 270.7 0.0 0.00 10.4 -12.0 56.64 8.2
2018 02 05 11:00 270.5 0.0 0.00 12.0 -11.1 51.73 8.4
2018 02 05 12:00 269.9 0.0 0.00 13.8 -10.1 49.8 8.9
2018 02 05 13:00 270.1 0.0 0.00 14.8 -9.5 50.92 8.2
2018 02 05 14:00 270.4 0.0 0.00 14.9 -9.5 54.6 6.8
2018 02 05 15:00 270.6 0.0 0.00 14.3 -9.8 66.06 7.6
2018 02 05 16:00 271.1 0.0 0.00 14.6 -9.7 72.85 4.2
2018 02 05 17:00 271.5 0.0 0.00 14.6 -9.7 80 3.9
2018 02 05 18:00 272.1 0.0 0.00 14.7 -9.6 85.8 0.1
2018 02 05 19:00 272.5 0.0 0.00 14.5 -9.7 88.8 2.4
2018 02 05 20:00 273.0 0.0 0.00 13.4 -10.3 88.1 1.7
2018 02 05 21:00 275.2 0.0 0.00 11.5 -11.4 89.7 0.0
2018 02 05 22:00 277.4 0.0 0.00 10.5 -11.9 90.3 0.0
2018 02 05 23:00 279.1 0.0 0.00 9.3 -12.6 89.9 3.3
2018 02 05 24:00 280.5 0.0 0.00 8.9 -12.9 88.4 3.0
2018 02 06 1:00 281.4 0.0 0.00 7.8 -13.5 87.2 4.0
2018 02 06 2:00 282.0 0.0 0.00 6.1 -14.4 86.4 3.7
2018 02 06 3:00 282.5 0.0 0.00 6.1 -14.4 85.3 5.0
2018 02 06 4:00 282.9 0.0 0.00 4.4 -15.4 83 5.4
2018 02 06 5:00 282.9 0.0 0.00 3.1 -16.0 79.99 4.1
2018 02 06 6:00 282.9 0.0 0.00 1.8 -16.8 78.92 5.1
2018 02 06 7:00 283.0 0.0 0.00 0.5 -17.5 77.69 2.9
2018 02 06 8:00 283.0 0.0 0.00 -0.0 -17.8 77.85 0.7
2018 02 06 9:00 282.6 0.0 0.00 0.8 -17.3 76.41 1.5
2018 02 06 10:00 281.3 0.0 0.00 2.8 -16.3 75.37 3.4
2018 02 06 11:00 279.2 0.0 0.00 4.9 -15.1 74.25 0.4
2018 02 06 12:00 275.8 0.0 0.00 7.7 -13.5 72.12 0.7
2018 02 06 13:00 271.9 0.0 0.00 9.6 -12.4 70.77 4.7
2018 02 06 14:00 271.1 0.0 0.00 11.2 -11.6 70.06 2.7
2018 02 06 15:00 270.9 0.0 0.00 12.8 -10.6 68.9 4.1
2018 02 06 16:00 271.1 0.0 0.00 13.8 -10.1 67.59 4.8
2018 02 06 17:00 271.1 0.0 0.00 14.1 -9.9 66.98 1.9
2018 02 06 18:00 271.6 0.0 0.00 14.0 -10.0 68.51 1.5
2018 02 06 19:00 271.8 0.0 0.00 13.7 -10.2 68.68 3.1
2018 02 06 20:00 273.1 0.0 0.00 12.7 -10.7 78.6 4.4
2018 02 06 21:00 276.2 0.0 0.00 11.6 -11.4 87.8 4.7
2018 02 06 22:00 277.0 0.0 0.00 11.3 -11.5 88.5 4.8
2018 02 06 23:00 277.3 0.0 0.00 10.7 -11.8 88.6 4.8
2018 02 06 24:00 277.3 0.0 0.00 10.4 -12.0 88.5 2.3
2018 02 07 1:00 277.4 0.0 0.00 9.9 -12.3 88.2 0.1
2018 02 07 2:00 277.4 0.0 0.00 9.6 -12.4 88.1 0.0
2018 02 07 3:00 277.4 0.0 0.00 10.0 -12.2 88.3 0.4
2018 02 07 4:00 277.4 0.0 0.00 10.1 -12.1 88.1 1.3
2018 02 07 5:00 277.4 0.0 0.00 10.2 -12.1 88 4.0
2018 02 07 6:00 277.4 0.0 0.00 10.5 -12.0 87.8 4.7
2018 02 07 7:00 277.4 0.0 0.00 10.5 -12.0 87.3 4.2
2018 02 07 8:00 277.2 0.0 0.00 10.6 -11.9 86.9 3.8
2018 02 07 9:00 276.5 0.0 0.00 10.7 -11.8 86.1 5.0
2018 02 07 10:00 276.0 0.0 0.00 13.2 -10.4 82.8 7.5
2018 02 07 11:00 275.5 0.0 0.00 14.8 -9.5 76.09 7.9
2018 02 07 12:00 274.5 0.0 0.00 16.6 -8.6 70.5 5.6
2018 02 07 13:00 271.3 0.0 0.00 17.5 -8.1 68.17 8.4
2018 02 07 14:00 271.0 0.0 0.00 18.7 -7.4 65.58 8.5
2018 02 07 15:00 271.0 0.0 0.00 19.7 -6.8 62.46 8.1
2018 02 07 16:00 271.0 0.0 0.00 20.2 -6.6 60.43 9.2
2018 02 07 17:00 271.0 0.0 0.00 20.4 -6.4 59.05 4.3
2018 02 07 18:00 271.6 0.0 0.00 18.7 -7.4 62.45 0.6
2018 02 07 19:00 271.8 0.0 0.00 17.8 -7.9 67.31 0.0
2018 02 07 20:00 271.9 0.0 0.00 17.7 -7.9 75.22 0.0
2018 02 07 21:00 272.4 0.0 0.00 17.3 -8.2 77.98 0.0
2018 02 07 22:00 272.5 0.0 0.00 17.6 -8.0 77.09 0.0
2018 02 07 23:00 271.9 0.0 0.00 18.2 -7.7 74.38 0.0
2018 02 07 24:00 271.8 0.0 0.00 18.2 -7.6 72.19 0.0
2018 02 08 1:00 272.0 0.0 0.00 17.7 -7.9 74.63 0.0
2018 02 08 2:00 272.0 0.0 0.00 17.9 -7.9 74.57 1.5
2018 02 08 3:00 271.8 0.0 0.00 18.7 -7.4 72.57 4.7
2018 02 08 4:00 271.8 0.0 0.00 19.9 -6.7 74.18 5.5
2018 02 08 5:00 271.8 0.0 0.00 20.6 -6.3 73.87 6.2
2018 02 08 6:00 271.8 0.0 0.00 21.1 -6.1 73.73 6.6
2018 02 08 7:00 272.4 0.0 0.00 18.9 -7.3 76.72 4.1
2018 02 08 8:00 272.3 0.0 0.00 18.4 -7.6 78.17 2.8
2018 02 08 9:00 271.3 0.0 0.00 21.4 -5.9 75.38 5.7
2018 02 08 10:00 270.8 0.0 0.00 25.4 -3.7 70.78 5.2
2018 02 08 11:00 270.2 0.0 1.02 28.4 -2.0 66.36 5.1
2018 02 08 12:00 269.7 0.0 0.76 29.7 -1.3 64.11 0.5
2018 02 08 13:00 268.5 0.0 0.00 32.3 0.2 60.16 0.3
2018 02 08 14:00 269.3 0.0 0.00 33.7 0.9 60.17 1.4
2018 02 08 15:00 269.5 0.0 0.00 35.0 1.7 59.1 3.4
2018 02 08 16:00 270.1 0.0 0.00 35.6 2.0 59.91 5.6
2018 02 08 17:00 270.5 0.0 0.00 34.8 1.6 62.46 5.0
2018 02 08 18:00 270.9 0.0 0.00 32.5 0.3 66.98 5.6
2018 02 08 19:00 271.0 0.0 0.00 31.0 -0.6 70.69 7.7
2018 02 08 20:00 271.6 0.0 0.00 30.0 -1.1 73.11 7.6
2018 02 08 21:00 271.6 0.0 0.00 29.2 -1.6 75.81 8.2
2018 02 08 22:00 271.6 0.0 0.00 28.9 -1.7 77.91 6.5
2018 02 08 23:00 271.6 0.0 0.00 28.3 -2.0 79.2 5.7
2018 02 08 24:00 271.8 0.0 0.00 27.5 -2.5 81.4 6.8
2018 02 09 1:00 272.3 0.0 0.00 27.4 -2.5 82.1 5.1
2018 02 09 2:00 272.3 0.0 0.00 27.0 -2.8 82.8 5.7
2018 02 09 3:00 272.3 0.0 0.00 25.2 -3.8 85.1 7.3
2018 02 09 4:00 272.6 0.0 0.00 23.4 -4.8 87.6 7.1
2018 02 09 5:00 273.1 0.0 0.00 21.3 -6.0 89 8.6
2018 02 09 6:00 273.1 0.0 0.00 20.0 -6.7 89.3 9.6
2018 02 09 7:00 273.1 0.0 0.00 20.1 -6.6 87.3 9.7
2018 02 09 8:00 272.7 0.0 0.00 19.6 -6.9 85.1 10.9
2018 02 09 9:00 272.4 0.0 0.00 19.5 -7.0 83 10.8
2018 02 09 10:00 272.4 0.0 0.00 19.3 -7.0 80.3 12.3
2018 02 09 11:00 271.9 0.0 0.00 19.5 -7.0 78.45 10.9
2018 02 09 12:00 271.8 0.0 0.00 19.6 -6.9 76.49 10.8
2018 02 09 13:00 271.3 0.0 0.00 20.3 -6.5 74.99 10.2
2018 02 09 14:00 271.7 0.0 0.00 19.0 -7.2 76.46 9.5
2018 02 09 15:00 271.7 0.0 0.00 19.3 -7.1 74.97 8.8
2018 02 09 16:00 271.7 0.0 0.00 19.0 -7.2 73.85 7.9
2018 02 09 17:00 271.8 0.0 0.00 18.3 -7.6 74.68 8.0
2018 02 09 18:00 271.8 0.0 0.00 17.0 -8.4 75.69 10.0
2018 02 09 19:00 271.8 0.0 0.00 16.1 -8.9 76.89 9.8
2018 02 09 20:00 271.8 0.0 0.00 15.5 -9.2 76.85 9.0
2018 02 09 21:00 271.8 0.0 0.00 14.8 -9.6 73.76 8.2
2018 02 09 22:00 271.8 0.0 0.00 13.6 -10.2 70.69 7.7
2018 02 09 23:00 271.9 0.0 0.00 11.8 -11.2 75.2 8.0
2018 02 09 24:00 272.4 0.0 0.00 9.8 -12.3 83 8.0
2018 02 10 1:00 272.6 0.0 0.00 8.9 -12.9 81.6 9.5
2018 02 10 2:00 272.6 0.0 0.00 9.0 -12.8 83.7 7.8
2018 02 10 3:00 272.6 0.0 0.00 9.1 -12.7 82.5 6.9
2018 02 10 4:00 272.6 0.0 0.00 8.8 -12.9 82.1 7.0
2018 02 10 5:00 272.6 0.0 0.00 8.5 -13.0 82.1 5.9
2018 02 10 6:00 272.6 0.0 0.00 8.1 -13.3 82.2 5.1
2018 02 10 7:00 273.0 0.0 0.00 7.4 -13.6 84.6 5.0
2018 02 10 8:00 273.9 0.0 0.00 7.0 -13.9 86 5.0
2018 02 10 9:00 274.1 0.0 0.00 7.6 -13.6 86.1 5.9
2018 02 10 10:00 273.9 0.0 0.00 9.3 -12.6 84.7 7.4
2018 02 10 11:00 273.5 0.0 0.00 10.1 -12.2 82.2 8.4
2018 02 10 12:00 273.2 0.0 0.00 11.2 -11.5 78.88 5.8
2018 02 10 13:00 273.1 0.0 0.00 12.1 -11.1 74.49 6.1
2018 02 10 14:00 272.5 0.0 0.00 13.9 -10.1 70.11 6.4
2018 02 10 15:00 272.4 0.0 0.00 14.7 -9.6 67.48 6.4
2018 02 10 16:00 272.5 0.0 0.00 15.0 -9.4 63.86 5.9
2018 02 10 17:00 272.5 0.0 0.00 14.4 -9.8 62.01 5.8
2018 02 10 18:00 272.5 0.0 0.00 13.4 -10.3 60.19 5.8
2018 02 10 19:00 272.5 0.0 0.00 12.7 -10.7 61.1 5.6
2018 02 10 20:00 271.9 0.0 0.00 12.1 -11.1 62.37 6.2
2018 02 10 21:00 271.9 0.0 0.00 11.6 -11.4 63.38 6.6
2018 02 10 22:00 271.7 0.0 0.00 11.3 -11.5 61.19 6.5
2018 02 10 23:00 271.8 0.0 0.00 11.3 -11.5 62.47 5.6
2018 02 10 24:00 272.1 0.0 0.00 11.2 -11.6 66.45 4.6
2018 02 11 1:00 272.2 0.0 0.00 10.3 -12.1 77.53 4.8
2018 02 11 2:00 272.6 0.0 0.00 9.8 -12.3 84.6 4.7
2018 02 11 3:00 272.6 0.0 0.00 9.5 -12.5 85.9 4.3
2018 02 11 4:00 273.2 0.0 0.00 9.4 -12.5 86.6 3.3
2018 02 11 5:00 272.6 0.0 0.00 9.7 -12.4 86.4 3.4
2018 02 11 6:00 272.6 0.0 0.00 10.0 -12.2 86.1 3.4
2018 02 11 7:00 272.6 0.0 0.00 10.3 -12.1 85.6 5.1
2018 02 11 8:00 272.6 0.0 0.00 10.5 -12.0 84.6 6.7
2018 02 11 9:00 272.5 0.0 0.00 10.2 -12.1 82.9 4.8
2018 02 11 10:00 271.5 0.0 0.00 11.5 -11.4 79.63 6.5
2018 02 11 11:00 271.1 0.0 0.00 13.9 -10.1 73.24 7.4
2018 02 11 12:00 270.8 0.0 0.00 16.2 -8.8 69.77 6.5
2018 02 11 13:00 270.5 0.0 0.76 18.9 -7.3 62.27 6.5
2018 02 11 14:00 270.3 0.0 0.00 20.5 -6.4 53.91 9.3
2018 02 11 15:00 270.3 0.0 0.00 21.4 -5.9 51 8.9
2018 02 11 16:00 270.3 0.0 0.00 22.3 -5.4 49.2 8.1
2018 02 11 17:00 270.3 0.0 0.00 22.2 -5.4 48.91 7.1
2018 02 11 18:00 270.9 0.0 0.00 20.6 -6.3 54.02 2.7
2018 02 11 19:00 271.7 0.0 0.00 18.6 -7.4 57.85 0.8
2018 02 11 20:00 271.8 0.0 0.00 18.0 -7.8 58.99 3.0
2018 02 11 21:00 271.8 0.0 0.00 16.8 -8.4 62.44 0.2
2018 02 11 22:00 271.9 0.0 0.00 15.9 -8.9 64.92 3.1
2018 02 11 23:00 271.9 0.0 0.00 14.7 -9.6 67.73 3.4
2018 02 11 24:00 272.1 0.0 0.00 13.2 -10.4 71.51 5.6
2018 02 12 1:00 272.6 0.0 0.00 12.3 -10.9 74.31 5.5
2018 02 12 2:00 272.7 0.0 0.00 10.0 -12.2 75.79 3.2
2018 02 12 3:00 272.7 0.0 0.00 8.7 -13.0 76.78 4.0
2018 02 12 4:00 272.7 0.0 0.00 7.3 -13.7 77.03 4.4
2018 02 12 5:00 272.7 0.0 0.00 6.7 -14.1 75.99 5.6
2018 02 12 6:00 272.7 0.0 0.00 6.5 -14.1 75.51 7.6
2018 02 12 7:00 272.7 0.0 0.00 5.8 -14.6 77.68 7.5
2018 02 12 8:00 272.4 0.0 0.00 5.3 -14.8 78.51 6.6
2018 02 12 9:00 271.5 0.0 0.00 8.1 -13.3 73.86 8.2
2018 02 12 10:00 270.8 0.0 0.00 12.7 -10.7 67.63 8.2
2018 02 12 11:00 270.4 0.0 0.00 17.1 -8.3 63.52 7.8
2018 02 12 12:00 270.3 0.0 0.25 19.7 -6.8 59.56 9.0
2018 02 12 13:00 270.0 0.0 0.00 21.7 -5.7 57.56 7.8
2018 02 12 14:00 270.1 0.0 0.00 23.1 -4.9 56.16 9.3
2018 02 12 15:00 270.3 0.0 0.00 23.7 -4.6 53.43 8.8
2018 02 12 16:00 270.3 0.0 0.00 23.8 -4.6 53.68 7.4
2018 02 12 17:00 270.6 0.0 0.00 23.1 -4.9 54 8.4
2018 02 12 18:00 271.0 0.0 0.00 21.3 -5.9 55.64 8.0
2018 02 12 19:00 271.1 0.0 0.00 19.2 -7.1 55.46 5.9
2018 02 12 20:00 271.1 0.0 0.00 17.1 -8.3 57.33 5.8
2018 02 12 21:00 271.1 0.0 0.00 16.0 -8.9 60.84 8.3
2018 02 12 22:00 271.1 0.0 0.00 15.7 -9.0 60.99 7.8
2018 02 12 23:00 271.1 0.0 0.00 15.2 -9.3 60.15 7.9
2018 02 12 24:00 271.1 0.0 0.00 15.8 -9.0 58.97 6.9
2018 02 13 1:00 271.1 0.0 0.00 15.9 -9.0 60.18 7.3
2018 02 13 2:00 271.1 0.0 0.00 16.8 -8.5 56.75 7.7
2018 02 13 3:00 271.1 0.0 0.00 17.2 -8.2 58.99 6.9
2018 02 13 4:00 271.1 0.0 0.00 17.7 -7.9 62.74 4.8
2018 02 13 5:00 271.1 0.0 0.00 18.3 -7.6 65.87 7.7
2018 02 13 6:00 271.5 0.0 0.00 18.6 -7.4 68.83 7.1
2018 02 13 7:00 271.8 0.0 0.00 19.5 -7.0 71.55 6.6
2018 02 13 8:00 271.8 0.0 0.00 20.6 -6.3 73.63 7.4
2018 02 13 9:00 271.7 0.0 0.00 22.0 -5.6 73.89 9.6
2018 02 13 10:00 270.7 0.0 0.00 26.4 -3.1 69.44 11.7
2018 02 13 11:00 270.3 0.0 0.00 31.0 -0.6 63.12 13.4
2018 02 13 12:00 270.2 0.0 0.00 34.6 1.4 58.63 12.9
2018 02 13 13:00 269.6 0.0 0.00 38.3 3.5 51 9.4
2018 02 13 14:00 269.3 0.0 0.00 40.9 5.0 46.91 8.9
2018 02 13 15:00 269.4 0.0 0.00 41.7 5.4 46.66 7.5
2018 02 13 16:00 269.4 0.0 0.00 43.3 6.3 44.92 7.5
2018 02 13 17:00 269.4 0.0 0.00 43.3 6.3 45.64 6.7
2018 02 13 18:00 270.0 0.0 0.00 39.7 4.3 52.69 3.6
2018 02 13 19:00 270.8 0.0 0.00 36.9 2.7 57.08 3.5
2018 02 13 20:00 270.9 0.0 0.00 35.1 1.7 61.33 7.0
2018 02 13 21:00 271.3 0.0 0.00 33.4 0.8 66.43 5.9
2018 02 13 22:00 271.6 0.0 0.00 33.1 0.6 68.59 7.4
2018 02 13 23:00 271.6 0.0 0.00 33.2 0.7 70.35 6.8
2018 02 13 24:00 271.6 0.0 0.00 33.5 0.8 71.63 6.3
2018 02 14 1:00 272.2 0.0 0.00 31.8 -0.1 76.94 4.5
2018 02 14 2:00 272.6 0.0 0.00 31.4 -0.3 79.4 4.4
2018 02 14 3:00 273.0 0.0 0.00 31.6 -0.2 81.1 4.9
2018 02 14 4:00 273.0 0.0 0.00 32.8 0.5 80.8 6.3
2018 02 14 5:00 272.9 0.0 0.00 34.9 1.6 79.85 8.5
2018 02 14 6:00 273.0 0.0 0.00 35.2 1.8 82.4 7.4
2018 02 14 7:00 270.4 0.0 0.00 32.5 0.3 88.5 4.3
2018 02 14 8:00 271.5 0.0 0.00 31.5 -0.3 92 4.0
2018 02 14 9:00 273.1 0.0 0.00 35.4 1.9 90.1 6.3
2018 02 14 10:00 272.9 0.0 0.00 39.8 4.3 91.8 9.4
2018 02 14 11:00 272.9 0.0 0.00 42.1 5.6 90.6 10.6
2018 02 14 12:00 272.1 0.0 0.00 44.9 7.2 84.8 11.5
2018 02 14 13:00 270.8 0.0 0.00 49.5 9.7 72.96 12.8
2018 02 14 14:00 271.1 0.0 0.00 47.3 8.5 77.07 11.8
2018 02 14 15:00 271.4 0.0 0.00 45.7 7.6 80.2 11.4
2018 02 14 16:00 271.5 0.0 0.00 46.0 7.8 80.4 12.9
2018 02 14 17:00 272.1 0.0 0.00 46.3 7.9 80.5 10.8
2018 02 14 18:00 272.7 0.0 0.00 45.1 7.3 83.2 8.2
2018 02 14 19:00 274.3 0.0 0.00 42.5 5.8 88.8 6.1
2018 02 14 20:00 275.3 0.0 0.00 41.1 5.1 92.7 6.5
2018 02 14 21:00 272.5 0.0 0.00 41.6 5.3 94.3 7.4
2018 02 14 22:00 264.1 0.0 0.00 42.1 5.6 95.2 7.8
2018 02 14 23:00 271.3 0.0 0.00 43.6 6.4 92.5 6.9
2018 02 14 24:00 275.5 0.0 0.00 43.7 6.5 91.8 6.2
2018 02 15 1:00 275.2 0.0 0.00 43.2 6.2 92.3 5.3
2018 02 15 2:00 274.9 0.0 0.00 43.2 6.2 93.7 4.3
2018 02 15 3:00 275.3 0.0 0.00 44.3 6.8 93.8 5.7
2018 02 15 4:00 275.5 0.0 0.00 44.8 7.1 94.2 5.6
2018 02 15 5:00 275.0 0.0 0.00 45.2 7.3 94.7 4.6
2018 02 15 6:00 267.4 0.0 0.00 45.4 7.4 97.2 3.7
2018 02 15 7:00 267.6 0.0 0.00 48.3 9.1 98 7.0
2018 02 15 8:00 266.4 0.0 0.00 49.5 9.7 98.1 7.3
2018 02 15 9:00 270.8 0.0 0.00 50.3 10.2 98.5 1.6
2018 02 15 10:00 274.8 0.0 0.00 51.4 10.8 96.5 1.8
2018 02 15 11:00 274.5 0.0 0.00 51.9 11.1 95 4.3
2018 02 15 12:00 272.5 0.0 0.00 54.1 12.3 82.5 6.4
2018 02 15 13:00 272.1 0.0 0.00 50.6 10.3 79.46 6.4
2018 02 15 14:00 271.9 0.0 0.00 48.7 9.3 75.38 5.7
2018 02 15 15:00 271.4 0.0 0.00 47.4 8.6 64.6 4.8
2018 02 15 16:00 270.7 0.0 0.00 46.7 8.1 57.96 5.3
2018 02 15 17:00 270.8 0.0 0.00 45.0 7.2 59.43 4.4
2018 02 15 18:00 271.4 0.0 0.00 42.8 6.0 64.08 4.1
2018 02 15 19:00 271.8 0.0 0.00 41.1 5.1 69.22 4.1
2018 02 15 20:00 272.5 0.0 0.00 38.4 3.5 77.61 7.7
2018 02 15 21:00 272.9 0.0 0.00 35.4 1.9 84.4 9.4
2018 02 15 22:00 272.9 0.0 0.00 33.4 0.8 87.2 9.6
2018 02 15 23:00 272.9 0.0 0.00 32.1 0.1 86.6 8.4
2018 02 15 24:00 273.0 0.0 0.00 31.9 -0.0 84.8 9.5
2018 02 16 1:00 273.0 0.0 0.00 31.0 -0.5 81.4 10.0
2018 02 16 2:00 273.0 0.0 0.00 29.1 -1.6 81.6 11.3
2018 02 16 3:00 273.0 0.0 0.00 26.9 -2.8 80.3 11.4
2018 02 16 4:00 273.0 0.0 0.00 24.3 -4.3 79.54 12.1
2018 02 16 5:00 272.9 0.0 0.00 22.2 -5.5 78.73 10.7
2018 02 16 6:00 272.3 0.0 0.00 20.2 -6.6 69.47 10.7
2018 02 16 7:00 271.6 0.0 0.00 17.6 -8.0 50.19 10.4
2018 02 16 8:00 271.2 0.0 0.00 15.6 -9.1 50.71 10.2
2018 02 16 9:00 271.1 0.0 0.00 14.5 -9.7 52.53 9.7
2018 02 16 10:00 270.6 0.0 0.00 16.1 -8.8 45.6 11.1
2018 02 16 11:00 269.8 0.0 0.00 18.5 -7.5 39.19 8.4
2018 02 16 12:00 269.7 0.0 0.00 20.9 -6.2 38.75 7.9
2018 02 16 13:00 269.5 0.0 0.00 23.7 -4.6 35.17 6.5
2018 02 16 14:00 269.0 0.0 0.00 26.1 -3.3 32.45 4.3
2018 02 16 15:00 268.9 0.0 0.00 27.8 -2.3 30.36 3.6
2018 02 16 16:00 268.8 0.0 0.00 29.0 -1.7 28.54 2.8
2018 02 16 17:00 268.8 0.0 0.00 29.6 -1.3 27.02 0.6
2018 02 16 18:00 269.5 0.0 0.00 27.8 -2.3 30.2 0.0
2018 02 16 19:00 270.3 0.0 0.00 24.8 -4.0 34.87 0.0
2018 02 16 20:00 270.4 0.0 0.00 23.5 -4.7 35.65 0.0
2018 02 16 21:00 270.7 0.0 0.00 20.9 -6.1 44.32 0.0
2018 02 16 22:00 271.1 0.0 0.00 19.7 -6.8 46.76 0.0
2018 02 16 23:00 271.1 0.0 0.00 19.4 -7.0 48.29 0.3
2018 02 16 24:00 271.1 0.0 0.00 18.4 -7.6 50.4 1.5
2018 02 17 1:00 271.1 0.0 0.00 19.7 -6.8 49.92 4.4
2018 02 17 2:00 271.1 0.0 0.00 19.8 -6.8 50.86 3.4
2018 02 17 3:00 271.1 0.0 0.00 21.6 -5.8 55.53 4.0
2018 02 17 4:00 270.8 0.0 0.00 24.1 -4.4 51.49 6.2
2018 02 17 5:00 270.4 0.0 0.00 26.0 -3.3 48.52 8.3
2018 02 17 6:00 270.4 0.0 0.00 26.6 -3.0 49.59 6.2
2018 02 17 7:00 270.3 0.0 0.00 26.8 -2.9 52.39 6.7
2018 02 17 8:00 270.7 0.0 0.00 28.1 -2.1 57.45 9.3
2018 02 17 9:00 270.9 0.0 0.00 30.6 -0.8 63.58 10.2
2018 02 17 10:00 271.6 0.0 0.00 30.9 -0.6 80.9 9.3
2018 02 17 11:00 272.1 0.0 0.00 32.5 0.3 87.6 10.1
2018 02 17 12:00 271.2 0.0 0.00 36.2 2.3 74.83 11.9
2018 02 17 13:00 270.3 0.0 0.00 40.9 5.0 51.38 14.3
2018 02 17 14:00 269.9 0.0 0.00 42.8 6.0 45.5 15.2
2018 02 17 15:00 269.6 0.0 0.00 43.9 6.6 44.14 14.5
2018 02 17 16:00 269.4 0.0 0.00 44.1 6.7 43.29 14.2
2018 02 17 17:00 269.4 0.0 0.00 43.8 6.6 41.86 11.0
2018 02 17 18:00 269.6 0.0 0.00 41.9 5.5 45.62 7.4
2018 02 17 19:00 270.5 0.0 0.00 38.3 3.5 52.68 3.3
2018 02 17 20:00 270.9 0.0 0.00 36.4 2.4 56.85 4.2
2018 02 17 21:00 271.4 0.0 0.00 34.3 1.3 61.99 4.0
2018 02 17 22:00 271.9 0.0 0.00 33.5 0.9 66.28 1.0
2018 02 17 23:00 273.1 0.0 0.00 31.7 -0.2 70.86 0.0
2018 02 17 24:00 274.6 0.0 0.00 26.8 -2.9 81.2 0.0
2018 02 18 1:00 276.0 0.0 0.00 26.2 -3.2 82.7 0.1
2018 02 18 2:00 277.1 0.0 0.00 24.0 -4.4 86.6 0.4
2018 02 18 3:00 278.3 0.0 0.00 25.5 -3.6 85 3.3
2018 02 18 4:00 276.9 0.0 0.00 28.0 -2.2 80.9 7.2
2018 02 18 5:00 274.4 0.0 0.00 28.2 -2.1 77.77 5.9
2018 02 18 6:00 272.8 0.0 0.00 30.3 -0.9 71.06 8.3
2018 02 18 7:00 272.3 0.0 0.00 30.7 -0.7 68.92 7.9
2018 02 18 8:00 272.3 0.0 0.00 32.7 0.4 71.13 9.0
2018 02 18 9:00 272.3 0.0 0.00 35.5 2.0 75.05 9.3
2018 02 18 10:00 271.5 0.0 0.00 39.4 4.1 70.22 12.4
2018 02 18 11:00 270.3 0.0 0.00 44.8 7.1 52.95 18.9
2018 02 18 12:00 269.0 0.0 0.00 47.5 8.6 36.16 22.3
2018 02 18 13:00 268.7 0.0 0.00 49.3 9.6 33.29 20.7
2018 02 18 14:00 268.6 0.0 0.00 50.3 10.2 36.08 22.2
2018 02 18 15:00 268.6 0.0 0.00 51.8 11.0 37.27 22.5
2018 02 18 16:00 268.6 0.0 0.00 52.4 11.3 35.94 20.5
2018 02 18 17:00 268.6 0.0 0.00 52.5 11.4 35.25 19.0
2018 02 18 18:00 268.6 0.0 0.00 50.9 10.5 37.88 15.4
2018 02 18 19:00 268.9 0.0 0.00 49.5 9.7 42.73 14.4
2018 02 18 20:00 269.1 0.0 0.00 48.6 9.2 45.72 8.2
2018 02 18 21:00 269.4 0.0 0.00 47.8 8.8 47.29 7.8
2018 02 18 22:00 269.4 0.0 0.00 47.6 8.6 49.77 9.7
2018 02 18 23:00 269.4 0.0 0.00 47.7 8.7 53.92 10.2
2018 02 18 24:00 270.0 0.0 0.00 48.6 9.2 60.2 9.8
2018 02 19 1:00 270.1 0.0 0.00 49.4 9.7 64.42 9.0
2018 02 19 2:00 270.7 0.0 0.00 49.6 9.8 68.92 6.3
2018 02 19 3:00 273.5 0.0 0.00 48.5 9.2 83.9 6.8
2018 02 19 4:00 Wet 387.0 0.0 0.25 45.4 7.4 99 6.2
2018 02 19 5:00 Wet 485.8 0.0 0.76 45.3 7.4 100 6.5
2018 02 19 6:00 Wet 456.5 0.0 0.76 45.6 7.5 100 8.4
2018 02 19 7:00 Wet 394.2 0.0 0.25 45.8 7.7 100 8.0
2018 02 19 8:00 Wet 356.8 0.0 0.00 46.9 8.3 100 8.3
2018 02 19 9:00 Wet 316.9 0.0 0.25 50.9 10.5 100 9.7
2018 02 19 10:00 Wet 288.5 0.0 0.00 55.3 12.9 100 11.9
2018 02 19 11:00 275.6 0.0 0.00 59.7 15.4 96.7 15.6
2018 02 19 12:00 272.6 0.0 0.00 63.1 17.3 87.8 16.7
2018 02 19 13:00 272.0 0.0 0.00 65.1 18.4 81.3 16.0
2018 02 19 14:00 279.8 0.0 0.00 58.7 14.8 87.5 14.2
2018 02 19 15:00 274.5 0.0 0.00 51.3 10.7 91.6 9.8
2018 02 19 16:00 Wet 317.6 0.0 0.00 44.3 6.8 94.6 7.3
2018 02 19 17:00 Wet 383.3 0.0 0.76 40.8 4.9 95.9 7.3
2018 02 19 18:00 Wet 297.8 0.0 0.00 38.5 3.6 97 6.3
2018 02 19 19:00 Wet 329.4 0.0 0.00 37.3 2.9 96.9 5.5
2018 02 19 20:00 Wet 323.3 0.0 0.00 36.2 2.3 97.2 5.9
2018 02 19 21:00 Wet 306.5 0.0 0.00 34.5 1.4 97.1 7.0
2018 02 19 22:00 Wet 325.8 0.0 0.00 33.0 0.5 96.7 5.6
2018 02 19 23:00 Wet 300.0 0.0 0.00 32.3 0.2 95.4 4.4
2018 02 19 24:00 Wet 315.1 0.0 0.00 31.9 -0.1 96.2 2.6
2018 02 20 1:00 Wet 377.1 0.0 0.00 31.5 -0.3 97.5 3.0
2018 02 20 2:00 Wet 580.3 0.1 2.79 31.5 -0.3 98.8 3.2
2018 02 20 3:00 Wet 487.8 0.0 0.51 31.9 -0.0 99.4 5.2
2018 02 20 4:00 Wet 512.1 0.1 1.52 31.7 -0.2 99 1.4
2018 02 20 5:00 Wet 370.0 0.0 0.00 31.7 -0.2 98.6 0.0
2018 02 20 6:00 Wet 484.4 0.2 5.08 31.3 -0.4 98.5 0.0
2018 02 20 7:00 Wet 335.4 0.0 0.00 31.1 -0.5 98.6 0.0
2018 02 20 8:00 Wet 336.0 0.0 0.00 30.7 -0.7 98.6 0.0
2018 02 20 9:00 Wet 337.9 0.0 0.00 30.3 -1.0 96.5 0.0
2018 02 20 10:00 Wet 350.8 0.0 0.00 30.8 -0.7 96.4 0.0
2018 02 20 11:00 Wet 349.4 0.0 0.00 30.8 -0.7 96.2 0.0
2018 02 20 12:00 Wet 339.7 0.0 0.00 30.2 -1.0 93.8 0.0
2018 02 20 13:00 Wet 337.7 0.0 0.00 29.3 -1.5 92.4 0.0
2018 02 20 14:00 Wet 336.5 0.0 0.00 27.7 -2.4 88.9 0.0
2018 02 20 15:00 Wet 335.9 0.0 0.00 26.9 -2.9 88.6 0.0
2018 02 20 16:00 Wet 335.8 0.0 0.00 26.0 -3.3 88.3 0.0
2018 02 20 17:00 Wet 335.3 0.0 0.00 24.5 -4.1 87.9 0.0
2018 02 20 18:00 Wet 335.2 0.0 0.00 23.5 -4.7 86.3 0.0
2018 02 20 19:00 Wet 335.2 0.0 0.00 22.7 -5.2 87.3 0.0
2018 02 20 20:00 Wet 334.6 0.0 0.00 21.3 -5.9 85.2 0.0
2018 02 20 21:00 Wet 334.6 0.0 0.00 20.3 -6.5 84.4 0.0
2018 02 20 22:00 Wet 334.6 0.0 0.00 19.9 -6.7 86.6 0.0
2018 02 20 23:00 Wet 334.6 0.0 0.00 19.2 -7.1 84 0.0
2018 02 20 24:00 Wet 334.6 0.0 0.00 18.8 -7.4 84.4 0.0
2018 02 21 1:00 Wet 334.5 0.0 0.00 18.3 -7.6 84.2 0.0
2018 02 21 2:00 Wet 334.0 0.0 0.00 17.7 -7.9 84.2 0.0
2018 02 21 3:00 Wet 334.0 0.0 0.00 17.5 -8.0 84.8 0.0
2018 02 21 4:00 Wet 334.0 0.0 0.00 17.0 -8.3 85.5 0.0
2018 02 21 5:00 Wet 334.0 0.0 0.00 16.3 -8.7 85.5 0.0
2018 02 21 6:00 Wet 334.0 0.0 0.00 15.4 -9.2 83.9 0.0
2018 02 21 7:00 Wet 334.0 0.0 0.00 14.6 -9.7 83.5 0.0
2018 02 21 8:00 Wet 334.0 0.0 0.00 14.5 -9.7 83.4 0.0
2018 02 21 9:00 Wet 334.0 0.0 0.00 15.0 -9.4 82.8 0.0
2018 02 21 10:00 Wet 334.0 0.0 0.00 16.3 -8.7 83.1 0.0
2018 02 21 11:00 Wet 333.9 0.0 0.00 18.2 -7.7 83.2 0.0
2018 02 21 12:00 Wet 334.4 0.0 0.00 19.9 -6.7 83 0.0
2018 02 21 13:00 Wet 334.5 0.0 0.00 21.2 -6.0 83.5 0.0
2018 02 21 14:00 Wet 334.5 0.0 0.00 23.1 -4.9 83.1 0.0
2018 02 21 15:00 Wet 334.4 0.0 0.00 24.4 -4.2 81.5 0.0
2018 02 21 16:00 Wet 334.4 0.0 0.00 25.1 -3.8 80.4 0.0
2018 02 21 17:00 Wet 334.4 0.0 0.00 25.1 -3.8 82.2 0.0
2018 02 21 18:00 Wet 334.1 0.0 0.00 24.6 -4.1 83.3 0.0
2018 02 21 19:00 Wet 333.8 0.0 0.00 24.1 -4.4 84.6 0.0
2018 02 21 20:00 Wet 333.8 0.0 0.00 23.9 -4.5 83.8 0.0
2018 02 21 21:00 Wet 333.8 0.0 0.00 23.8 -4.6 83.2 0.0
2018 02 21 22:00 Wet 333.8 0.0 0.00 23.6 -4.6 82.9 0.0
2018 02 21 23:00 Wet 333.8 0.0 0.00 23.9 -4.5 80.9 0.0
2018 02 21 24:00 Wet 333.8 0.0 0.00 24.3 -4.3 78.88 0.0
2018 02 22 1:00 Wet 333.8 0.0 0.00 24.6 -4.1 79.54 0.0
2018 02 22 2:00 Wet 333.8 0.0 0.00 24.7 -4.0 80.6 0.0
2018 02 22 3:00 Wet 333.8 0.0 0.00 24.8 -4.0 83.5 0.0
2018 02 22 4:00 Wet 333.9 0.0 0.00 25.0 -3.9 84.9 0.0
2018 02 22 5:00 Wet 333.8 0.0 0.00 25.1 -3.8 84.1 0.0
2018 02 22 6:00 Wet 334.6 0.0 0.00 25.7 -3.5 84.7 0.0
2018 02 22 7:00 Wet 335.5 0.0 0.00 26.3 -3.2 91.3 0.0
2018 02 22 8:00 Wet 336.0 0.0 0.00 26.8 -2.9 95.1 0.0
2018 02 22 9:00 Wet 335.2 0.0 0.00 27.3 -2.6 95.8 0.0
2018 02 22 10:00 Wet 335.4 0.0 0.00 27.5 -2.5 96 0.0
2018 02 22 11:00 Wet 335.8 0.0 0.00 28.2 -2.1 97.1 0.0
2018 02 22 12:00 Wet 336.1 0.0 0.00 29.1 -1.6 97.5 0.0
2018 02 22 13:00 Wet 337.4 0.0 0.00 29.8 -1.2 97.7 0.0
2018 02 22 14:00 Wet 339.0 0.0 0.00 30.2 -1.0 97.9 0.0
2018 02 22 15:00 Wet 337.8 0.0 0.00 30.6 -0.8 98.6 0.0
2018 02 22 16:00 Wet 337.0 0.0 0.00 30.9 -0.6 98.9 0.0
2018 02 22 17:00 Wet 336.5 0.0 0.00 31.1 -0.5 99.2 0.0
2018 02 22 18:00 Wet 336.5 0.0 0.00 31.5 -0.3 99.5 0.0
2018 02 22 19:00 Wet 341.6 0.0 0.00 31.8 -0.1 99.9 0.0
2018 02 22 20:00 Wet 455.7 0.0 0.00 32.0 0.0 100 0.0
2018 02 22 21:00 Wet 589.5 0.0 0.00 32.1 0.1 100 0.0
2018 02 22 22:00 Wet 693.8 0.0 0.00 32.2 0.1 100 2.8
2018 02 22 23:00 Wet 819.0 0.0 0.00 32.5 0.3 100 5.6
2018 02 22 24:00 Wet 859.0 0.0 0.00 32.6 0.4 100 2.1
2018 02 23 1:00 Wet 890.0 0.0 0.00 32.4 0.2 100 5.4
2018 02 23 2:00 Wet 823.0 0.0 0.00 32.2 0.1 100 2.4
2018 02 23 3:00 Wet 662.4 0.0 0.00 32.0 0.0 100 0.9
2018 02 23 4:00 Wet 422.3 0.0 0.00 32.0 -0.0 100 4.6
2018 02 23 5:00 Wet 313.7 0.0 0.25 32.1 0.1 99.8 7.8
2018 02 23 6:00 Wet 298.6 0.0 0.00 32.1 0.1 97.2 9.2
2018 02 23 7:00 Wet 298.7 0.0 0.00 32.1 0.1 96.1 7.5
2018 02 23 8:00 Wet 310.7 0.0 0.00 32.1 0.0 95.4 4.3
2018 02 23 9:00 Wet 812.0 0.0 0.76 32.3 0.2 92 4.9
2018 02 23 10:00 Wet 964.0 0.1 1.27 32.2 0.1 90.3 1.2
2018 02 23 11:00 Wet 914.0 0.1 1.52 32.6 0.3 86.3 2.0
2018 02 23 12:00 Wet 638.5 0.2 4.06 34.1 1.2 80.8 7.8
2018 02 23 13:00 Wet 285.0 0.1 3.56 35.1 1.8 79.8 7.0
2018 02 23 14:00 272.2 0.0 0.76 36.8 2.7 74.16 6.8
2018 02 23 15:00 272.2 0.0 0.00 36.7 2.6 74.64 6.2
2018 02 23 16:00 272.2 0.0 0.00 37.1 2.8 73.69 5.1
2018 02 23 17:00 272.2 0.0 0.00 37.0 2.8 73.67 3.5
2018 02 23 18:00 272.7 0.0 0.00 36.2 2.3 76.68 0.8
2018 02 23 19:00 278.1 0.0 0.00 34.2 1.2 81.6 0.2
2018 02 23 20:00 Wet 288.0 0.0 0.00 33.1 0.6 84.3 0.0
2018 02 23 21:00 278.9 0.0 0.00 31.7 -0.2 88.4 1.1
2018 02 23 22:00 274.4 0.0 0.00 30.7 -0.7 89.2 8.0
2018 02 23 23:00 274.4 0.0 0.00 29.5 -1.4 91.1 8.3
2018 02 23 24:00 274.5 0.0 0.00 28.3 -2.1 94 9.6
2018 02 24 1:00 274.4 0.0 0.00 27.8 -2.3 93.1 8.1
2018 02 24 2:00 274.2 0.0 0.00 27.4 -2.6 92.3 10.6
2018 02 24 3:00 Wet 293.3 0.0 0.00 27.3 -2.6 91.8 11.4
2018 02 24 4:00 Wet 326.8 0.0 0.00 27.3 -2.6 93 10.8
2018 02 24 5:00 Wet 331.9 0.0 0.00 27.7 -2.4 94 9.5
CST mV in mm F C % mph
Year Month Day Hour Leaf Wetness Total
Precipitation
Avg. Temp Avg. Rel.
Humidity
Wind
Speed

Back to the top of the page